<?xml version='1.0' encoding='UTF-8'?><gpx version="1.1" creator="JPX - https://github.com/jenetics/jpx" xmlns="http://www.topografix.com/GPX/1/1"><trk><trkseg><trkpt lat="43.78250448025213" lon="10.921903074980763"><ele>66.0</ele><time>2026-04-06T09:04:49.332Z</time></trkpt><trkpt lat="43.78249186356064" lon="10.921801517534034"><ele>66.0</ele><time>2026-04-06T09:04:54.082Z</time></trkpt><trkpt lat="43.78254665390789" lon="10.921725728736922"><ele>66.0</ele><time>2026-04-06T09:04:58.999Z</time></trkpt><trkpt lat="43.78261660580017" lon="10.921680944165272"><ele>66.0</ele><time>2026-04-06T09:05:03.999Z</time></trkpt><trkpt lat="43.78267356572483" lon="10.921625455850524"><ele>66.0</ele><time>2026-04-06T09:05:07.999Z</time></trkpt><trkpt lat="43.7826799954881" lon="10.921532513293824"><ele>66.0</ele><time>2026-04-06T09:05:11.999Z</time></trkpt><trkpt lat="43.7827448984234" lon="10.921475135796856"><ele>66.0</ele><time>2026-04-06T09:05:16.999Z</time></trkpt><trkpt lat="43.78280760120325" lon="10.921420388630507"><ele>64.85714285714286</ele><time>2026-04-06T09:05:20.999Z</time></trkpt><trkpt lat="43.78286029497871" lon="10.921366971202309"><ele>63.71428571428572</ele><time>2026-04-06T09:05:24.999Z</time></trkpt><trkpt lat="43.78288418609428" lon="10.921274591482481"><ele>62.57142857142858</ele><time>2026-04-06T09:05:28.999Z</time></trkpt><trkpt lat="43.782850176732346" lon="10.921185722780756"><ele>61.42857142857143</ele><time>2026-04-06T09:05:32.999Z</time></trkpt><trkpt lat="43.78281430072238" lon="10.921112350209171"><ele>60.28571428571429</ele><time>2026-04-06T09:05:36.999Z</time></trkpt><trkpt lat="43.782779751080874" lon="10.921027622765523"><ele>59.14285714285715</ele><time>2026-04-06T09:05:40.999Z</time></trkpt><trkpt lat="43.78273226259816" lon="10.920955959989875"><ele>58.00000000000001</ele><time>2026-04-06T09:05:44.999Z</time></trkpt><trkpt lat="43.782688800061614" lon="10.920878663360803"><ele>57.28571428571429</ele><time>2026-04-06T09:05:48.999Z</time></trkpt><trkpt lat="43.7826418638282" lon="10.920801573207122"><ele>56.57142857142857</ele><time>2026-04-06T09:05:52.999Z</time></trkpt><trkpt lat="43.78260157823425" lon="10.920723340355405"><ele>55.85714285714286</ele><time>2026-04-06T09:05:56.999Z</time></trkpt><trkpt lat="43.78255539021613" lon="10.920648386787613"><ele>55.142857142857146</ele><time>2026-04-06T09:06:00.999Z</time></trkpt><trkpt lat="43.78251645312208" lon="10.920556883312019"><ele>54.42857142857143</ele><time>2026-04-06T09:06:04.999Z</time></trkpt><trkpt lat="43.78247323856259" lon="10.920472849282412"><ele>53.714285714285715</ele><time>2026-04-06T09:06:08.998Z</time></trkpt><trkpt lat="43.782430230609" lon="10.920389783315304"><ele>53.0</ele><time>2026-04-06T09:06:12.998Z</time></trkpt><trkpt lat="43.78240205010324" lon="10.920284906773942"><ele>53.0</ele><time>2026-04-06T09:06:16.998Z</time></trkpt><trkpt lat="43.78236434094844" lon="10.920192908462859"><ele>53.0</ele><time>2026-04-06T09:06:20.998Z</time></trkpt><trkpt lat="43.782340311127946" lon="10.920104152325578"><ele>53.0</ele><time>2026-04-06T09:06:23.998Z</time></trkpt><trkpt lat="43.78229304805157" lon="10.920031187654315"><ele>53.0</ele><time>2026-04-06T09:06:26.998Z</time></trkpt><trkpt lat="43.78227470758614" lon="10.919946000248494"><ele>53.0</ele><time>2026-04-06T09:06:29.998Z</time></trkpt><trkpt lat="43.78224079455796" lon="10.919859486436549"><ele>53.0</ele><time>2026-04-06T09:06:32.998Z</time></trkpt><trkpt lat="43.78220401023924" lon="10.919773362240056"><ele>53.0</ele><time>2026-04-06T09:06:35.998Z</time></trkpt><trkpt lat="43.78215784437998" lon="10.91969647044876"><ele>52.714285714285715</ele><time>2026-04-06T09:06:38.998Z</time></trkpt><trkpt lat="43.782116791509694" lon="10.9196168628691"><ele>52.42857142857142</ele><time>2026-04-06T09:06:41.998Z</time></trkpt><trkpt lat="43.78206852936235" lon="10.919541357003462"><ele>52.14285714285714</ele><time>2026-04-06T09:06:44.998Z</time></trkpt><trkpt lat="43.78202197922053" lon="10.919455359342743"><ele>51.85714285714286</ele><time>2026-04-06T09:06:47.998Z</time></trkpt><trkpt lat="43.7819849322571" lon="10.919368485972159"><ele>51.57142857142857</ele><time>2026-04-06T09:06:50.999Z</time></trkpt><trkpt lat="43.781942179879266" lon="10.919278239294696"><ele>51.285714285714285</ele><time>2026-04-06T09:06:53.999Z</time></trkpt><trkpt lat="43.78190730081255" lon="10.919188995153556"><ele>51.0</ele><time>2026-04-06T09:06:56.999Z</time></trkpt><trkpt lat="43.7818584204727" lon="10.919111656293092"><ele>50.57142857142857</ele><time>2026-04-06T09:06:59.999Z</time></trkpt><trkpt lat="43.781824734687355" lon="10.919019288919168"><ele>50.142857142857146</ele><time>2026-04-06T09:07:02.999Z</time></trkpt><trkpt lat="43.781791246565106" lon="10.91893797582831"><ele>49.71428571428571</ele><time>2026-04-06T09:07:05.999Z</time></trkpt><trkpt lat="43.78172760961355" lon="10.918873539784538"><ele>49.285714285714285</ele><time>2026-04-06T09:07:08.999Z</time></trkpt><trkpt lat="43.78169860871377" lon="10.918788416503595"><ele>48.857142857142854</ele><time>2026-04-06T09:07:11.999Z</time></trkpt><trkpt lat="43.78164903001701" lon="10.918710407906744"><ele>48.42857142857142</ele><time>2026-04-06T09:07:14.999Z</time></trkpt><trkpt lat="43.78161763814991" lon="10.918631185052773"><ele>48.0</ele><time>2026-04-06T09:07:17.999Z</time></trkpt><trkpt lat="43.781580395988584" lon="10.918557295106938"><ele>47.99999999999999</ele><time>2026-04-06T09:07:20.999Z</time></trkpt><trkpt lat="43.78152131940475" lon="10.918478793187457"><ele>48.0</ele><time>2026-04-06T09:07:23.999Z</time></trkpt><trkpt lat="43.78148067728244" lon="10.918390271464506"><ele>48.0</ele><time>2026-04-06T09:07:26.999Z</time></trkpt><trkpt lat="43.781452648657556" lon="10.918305768503094"><ele>48.0</ele><time>2026-04-06T09:07:29.999Z</time></trkpt><trkpt lat="43.78141852921428" lon="10.918219889641788"><ele>48.0</ele><time>2026-04-06T09:07:32.999Z</time></trkpt><trkpt lat="43.78138347037052" lon="10.918142971225672"><ele>47.99999999999999</ele><time>2026-04-06T09:07:35.999Z</time></trkpt><trkpt lat="43.781342121505276" lon="10.918054933077121"><ele>48.0</ele><time>2026-04-06T09:07:38.999Z</time></trkpt><trkpt lat="43.781303942064646" lon="10.917975606174029"><ele>47.42857142857142</ele><time>2026-04-06T09:07:41.999Z</time></trkpt><trkpt lat="43.781254428816936" lon="10.917914083931631"><ele>46.857142857142854</ele><time>2026-04-06T09:07:44.999Z</time></trkpt><trkpt lat="43.78120540716445" lon="10.917854960200561"><ele>46.285714285714285</ele><time>2026-04-06T09:07:47.999Z</time></trkpt><trkpt lat="43.78115851210971" lon="10.917791632504542"><ele>45.71428571428571</ele><time>2026-04-06T09:07:50.999Z</time></trkpt><trkpt lat="43.78110189490088" lon="10.91773182662282"><ele>45.14285714285714</ele><time>2026-04-06T09:07:53.999Z</time></trkpt><trkpt lat="43.78104329489954" lon="10.917684815285178"><ele>44.57142857142857</ele><time>2026-04-06T09:07:56.999Z</time></trkpt><trkpt lat="43.78098670701266" lon="10.917625143996986"><ele>44.0</ele><time>2026-04-06T09:07:59.999Z</time></trkpt><trkpt lat="43.78096987732549" lon="10.917515490729544"><ele>43.85714285714286</ele><time>2026-04-06T09:08:03.998Z</time></trkpt><trkpt lat="43.780922213113016" lon="10.917440070463432"><ele>43.714285714285715</ele><time>2026-04-06T09:08:06.998Z</time></trkpt><trkpt lat="43.78087431884289" lon="10.917374187390585"><ele>43.57142857142857</ele><time>2026-04-06T09:08:09.998Z</time></trkpt><trkpt lat="43.78082253490296" lon="10.91727847586344"><ele>43.42857142857143</ele><time>2026-04-06T09:08:13.998Z</time></trkpt><trkpt lat="43.78078657379895" lon="10.917192145087311"><ele>43.285714285714285</ele><time>2026-04-06T09:08:16.998Z</time></trkpt><trkpt lat="43.78075772549451" lon="10.917111213322809"><ele>43.142857142857146</ele><time>2026-04-06T09:08:19.998Z</time></trkpt><trkpt lat="43.78073960897158" lon="10.91701722212454"><ele>43.0</ele><time>2026-04-06T09:08:22.998Z</time></trkpt><trkpt lat="43.78073827441846" lon="10.916915515330524"><ele>43.00000000000001</ele><time>2026-04-06T09:08:25.998Z</time></trkpt><trkpt lat="43.78071336425577" lon="10.916834520484265"><ele>43.0</ele><time>2026-04-06T09:08:28.998Z</time></trkpt><trkpt lat="43.78068230207259" lon="10.916749896858931"><ele>43.0</ele><time>2026-04-06T09:08:31.998Z</time></trkpt><trkpt lat="43.780665961061445" lon="10.916656978029845"><ele>43.0</ele><time>2026-04-06T09:08:34.998Z</time></trkpt><trkpt lat="43.780608654223" lon="10.916593265171818"><ele>43.0</ele><time>2026-04-06T09:08:37.998Z</time></trkpt><trkpt lat="43.78054461590016" lon="10.916549121288371"><ele>43.00000000000001</ele><time>2026-04-06T09:08:40.998Z</time></trkpt><trkpt lat="43.780485110968485" lon="10.91651286311696"><ele>43.0</ele><time>2026-04-06T09:08:43.998Z</time></trkpt><trkpt lat="43.78042335694366" lon="10.916461394000823"><ele>43.00000000000001</ele><time>2026-04-06T09:08:46.998Z</time></trkpt><trkpt lat="43.7803629807904" lon="10.916410755665089"><ele>43.0</ele><time>2026-04-06T09:08:49.998Z</time></trkpt><trkpt lat="43.7802865138211" lon="10.91635280545369"><ele>43.0</ele><time>2026-04-06T09:08:53.998Z</time></trkpt><trkpt lat="43.78022386904671" lon="10.91631599934562"><ele>43.0</ele><time>2026-04-06T09:08:56.999Z</time></trkpt><trkpt lat="43.780160529809145" lon="10.916287280203312"><ele>43.0</ele><time>2026-04-06T09:08:59.999Z</time></trkpt><trkpt lat="43.78009018081134" lon="10.916279116730001"><ele>43.00000000000001</ele><time>2026-04-06T09:09:02.999Z</time></trkpt><trkpt lat="43.78003017014217" lon="10.916230011804407"><ele>43.0</ele><time>2026-04-06T09:09:05.999Z</time></trkpt><trkpt lat="43.77996288007206" lon="10.916199269503968"><ele>43.00000000000001</ele><time>2026-04-06T09:09:08.999Z</time></trkpt><trkpt lat="43.77987739371109" lon="10.916169916673567"><ele>43.0</ele><time>2026-04-06T09:09:12.999Z</time></trkpt><trkpt lat="43.77981673337297" lon="10.916144786154277"><ele>43.0</ele><time>2026-04-06T09:09:15.999Z</time></trkpt><trkpt lat="43.779750650290204" lon="10.916126619928079"><ele>43.0</ele><time>2026-04-06T09:09:18.999Z</time></trkpt><trkpt lat="43.779672286305704" lon="10.916085283320704"><ele>43.0</ele><time>2026-04-06T09:09:22.999Z</time></trkpt><trkpt lat="43.77959520107429" lon="10.916055362878424"><ele>43.00000000000001</ele><time>2026-04-06T09:09:26.999Z</time></trkpt><trkpt lat="43.77953588821573" lon="10.916017064965606"><ele>43.0</ele><time>2026-04-06T09:09:29.999Z</time></trkpt><trkpt lat="43.77947819381283" lon="10.915949748069048"><ele>44.142857142857146</ele><time>2026-04-06T09:09:33.999Z</time></trkpt><trkpt lat="43.779424441276404" lon="10.915877243772744"><ele>45.285714285714285</ele><time>2026-04-06T09:09:37.999Z</time></trkpt><trkpt lat="43.779378230593274" lon="10.915788628186677"><ele>46.42857142857143</ele><time>2026-04-06T09:09:41.999Z</time></trkpt><trkpt lat="43.77933509103975" lon="10.915718558857526"><ele>47.57142857142857</ele><time>2026-04-06T09:09:45.999Z</time></trkpt><trkpt lat="43.77931974968275" lon="10.915613536735432"><ele>48.714285714285715</ele><time>2026-04-06T09:09:49.999Z</time></trkpt><trkpt lat="43.779307958086505" lon="10.915518869433075"><ele>49.85714285714286</ele><time>2026-04-06T09:09:53.999Z</time></trkpt><trkpt lat="43.779304859556554" lon="10.915408904885542"><ele>51.0</ele><time>2026-04-06T09:09:57.999Z</time></trkpt><trkpt lat="43.7793000046586" lon="10.915302514217371"><ele>51.0</ele><time>2026-04-06T09:10:01.999Z</time></trkpt><trkpt lat="43.7792982097004" lon="10.915200136324321"><ele>51.0</ele><time>2026-04-06T09:10:05.999Z</time></trkpt><trkpt lat="43.77930200522531" lon="10.9150990888237"><ele>51.0</ele><time>2026-04-06T09:10:09.999Z</time></trkpt><trkpt lat="43.77931527654185" lon="10.914993398632767"><ele>51.0</ele><time>2026-04-06T09:10:13.999Z</time></trkpt><trkpt lat="43.77930562723019" lon="10.914893262631967"><ele>51.0</ele><time>2026-04-06T09:10:17.998Z</time></trkpt><trkpt lat="43.779296560765275" lon="10.914797783258019"><ele>51.0</ele><time>2026-04-06T09:10:21.998Z</time></trkpt><trkpt lat="43.77929902653572" lon="10.91468736456155"><ele>51.0</ele><time>2026-04-06T09:10:25.998Z</time></trkpt><trkpt lat="43.77928567838937" lon="10.914579375954764"><ele>52.333333333333336</ele><time>2026-04-06T09:10:29.998Z</time></trkpt><trkpt lat="43.779260025005854" lon="10.91448256426021"><ele>53.66666666666667</ele><time>2026-04-06T09:10:33.998Z</time></trkpt><trkpt lat="43.77921613979016" lon="10.914390504906951"><ele>55.0</ele><time>2026-04-06T09:10:37.998Z</time></trkpt><trkpt lat="43.779183984391366" lon="10.91430832661238"><ele>56.333333333333336</ele><time>2026-04-06T09:10:40.998Z</time></trkpt><trkpt lat="43.77910055472328" lon="10.914302545691596"><ele>57.66666666666667</ele><time>2026-04-06T09:10:43.998Z</time></trkpt><trkpt lat="43.77905278955435" lon="10.914231139343062"><ele>59.0</ele><time>2026-04-06T09:10:46.998Z</time></trkpt><trkpt lat="43.77900153554974" lon="10.914142581574472"><ele>60.16666666666667</ele><time>2026-04-06T09:10:50.998Z</time></trkpt><trkpt lat="43.77894740248069" lon="10.914048815150277"><ele>61.333333333333336</ele><time>2026-04-06T09:10:54.998Z</time></trkpt><trkpt lat="43.778882216505394" lon="10.913978747682687"><ele>62.5</ele><time>2026-04-06T09:10:58.998Z</time></trkpt><trkpt lat="43.77883792599985" lon="10.913888838942635"><ele>63.66666666666667</ele><time>2026-04-06T09:11:02.999Z</time></trkpt><trkpt lat="43.77879406371729" lon="10.913818945207261"><ele>64.83333333333333</ele><time>2026-04-06T09:11:05.999Z</time></trkpt><trkpt lat="43.778736323028035" lon="10.913742932417337"><ele>66.0</ele><time>2026-04-06T09:11:09.999Z</time></trkpt><trkpt lat="43.77868575350262" lon="10.91366166935768"><ele>66.0</ele><time>2026-04-06T09:11:13.999Z</time></trkpt><trkpt lat="43.77864212959731" lon="10.913595893436902"><ele>66.0</ele><time>2026-04-06T09:11:16.999Z</time></trkpt><trkpt lat="43.778584767400105" lon="10.91351876299909"><ele>66.0</ele><time>2026-04-06T09:11:20.999Z</time></trkpt><trkpt lat="43.77851793955601" lon="10.913459382407448"><ele>66.0</ele><time>2026-04-06T09:11:24.999Z</time></trkpt><trkpt lat="43.778469965337415" lon="10.913386488019913"><ele>66.0</ele><time>2026-04-06T09:11:27.999Z</time></trkpt><trkpt lat="43.778428674871996" lon="10.913317468172638"><ele>66.0</ele><time>2026-04-06T09:11:30.999Z</time></trkpt><trkpt lat="43.77837035763539" lon="10.913267934773671"><ele>66.0</ele><time>2026-04-06T09:11:33.999Z</time></trkpt><trkpt lat="43.77832214616014" lon="10.913206329906027"><ele>66.28571428571428</ele><time>2026-04-06T09:11:36.999Z</time></trkpt><trkpt lat="43.77826749625035" lon="10.913141503756107"><ele>66.57142857142857</ele><time>2026-04-06T09:11:39.999Z</time></trkpt><trkpt lat="43.77820424279636" lon="10.91309159977935"><ele>66.85714285714286</ele><time>2026-04-06T09:11:42.999Z</time></trkpt><trkpt lat="43.77815262305847" lon="10.91302551318396"><ele>67.14285714285714</ele><time>2026-04-06T09:11:45.999Z</time></trkpt><trkpt lat="43.77809417838116" lon="10.912968508742365"><ele>67.42857142857143</ele><time>2026-04-06T09:11:48.999Z</time></trkpt><trkpt lat="43.77803921800232" lon="10.912924275134053"><ele>67.71428571428571</ele><time>2026-04-06T09:11:51.999Z</time></trkpt><trkpt lat="43.77797906634998" lon="10.912864723477028"><ele>68.0</ele><time>2026-04-06T09:11:54.999Z</time></trkpt><trkpt lat="43.77792074026982" lon="10.912810647271705"><ele>67.99999999999999</ele><time>2026-04-06T09:11:57.999Z</time></trkpt><trkpt lat="43.777865807339275" lon="10.912756608784662"><ele>68.0</ele><time>2026-04-06T09:12:00.999Z</time></trkpt><trkpt lat="43.777804909427935" lon="10.912694282837752"><ele>68.0</ele><time>2026-04-06T09:12:03.999Z</time></trkpt><trkpt lat="43.77775116195741" lon="10.912630967358425"><ele>68.0</ele><time>2026-04-06T09:12:06.999Z</time></trkpt><trkpt lat="43.77768725915377" lon="10.91258070885649"><ele>68.0</ele><time>2026-04-06T09:12:09.999Z</time></trkpt><trkpt lat="43.77763130925022" lon="10.912523025165042"><ele>67.99999999999999</ele><time>2026-04-06T09:12:12.999Z</time></trkpt><trkpt lat="43.7775783698714" lon="10.912466729714673"><ele>68.0</ele><time>2026-04-06T09:12:15.999Z</time></trkpt><trkpt lat="43.77751388448456" lon="10.912416916950692"><ele>68.85714285714285</ele><time>2026-04-06T09:12:18.999Z</time></trkpt><trkpt lat="43.77746098683875" lon="10.91234975410706"><ele>69.71428571428571</ele><time>2026-04-06T09:12:21.999Z</time></trkpt><trkpt lat="43.77740079408908" lon="10.912294693313184"><ele>70.57142857142857</ele><time>2026-04-06T09:12:24.999Z</time></trkpt><trkpt lat="43.77734202778408" lon="10.912244813597136"><ele>71.42857142857142</ele><time>2026-04-06T09:12:27.998Z</time></trkpt><trkpt lat="43.77729538971435" lon="10.91216974641791"><ele>72.28571428571428</ele><time>2026-04-06T09:12:30.998Z</time></trkpt><trkpt lat="43.77723622191798" lon="10.912127118280411"><ele>73.14285714285714</ele><time>2026-04-06T09:12:33.998Z</time></trkpt><trkpt lat="43.77718489295365" lon="10.912065412904848"><ele>74.0</ele><time>2026-04-06T09:12:36.998Z</time></trkpt><trkpt lat="43.77712952330844" lon="10.912020829006526"><ele>74.0</ele><time>2026-04-06T09:12:39.998Z</time></trkpt><trkpt lat="43.77707561435024" lon="10.911961035617686"><ele>74.0</ele><time>2026-04-06T09:12:42.998Z</time></trkpt><trkpt lat="43.777030188297054" lon="10.911884725254257"><ele>74.0</ele><time>2026-04-06T09:12:45.998Z</time></trkpt><trkpt lat="43.776970550034825" lon="10.911849660470626"><ele>74.0</ele><time>2026-04-06T09:12:48.998Z</time></trkpt><trkpt lat="43.776917415514625" lon="10.911793056377956"><ele>74.0</ele><time>2026-04-06T09:12:51.998Z</time></trkpt><trkpt lat="43.776865597084175" lon="10.91172903532053"><ele>74.0</ele><time>2026-04-06T09:12:54.998Z</time></trkpt><trkpt lat="43.776817128078385" lon="10.911672674921595"><ele>74.0</ele><time>2026-04-06T09:12:57.998Z</time></trkpt><trkpt lat="43.7767647379716" lon="10.911606070275743"><ele>73.85714285714286</ele><time>2026-04-06T09:13:00.998Z</time></trkpt><trkpt lat="43.77670364524454" lon="10.9115596461534"><ele>73.71428571428571</ele><time>2026-04-06T09:13:03.998Z</time></trkpt><trkpt lat="43.77665092967975" lon="10.91150774686333"><ele>73.57142857142857</ele><time>2026-04-06T09:13:06.998Z</time></trkpt><trkpt lat="43.77660186423299" lon="10.91143797679336"><ele>73.42857142857143</ele><time>2026-04-06T09:13:09.999Z</time></trkpt><trkpt lat="43.77653754676883" lon="10.911383437299184"><ele>73.28571428571429</ele><time>2026-04-06T09:13:12.999Z</time></trkpt><trkpt lat="43.77647943278079" lon="10.91131111464927"><ele>73.14285714285714</ele><time>2026-04-06T09:13:16Z</time></trkpt><trkpt lat="43.77641983574286" lon="10.911251184267549"><ele>73.0</ele><time>2026-04-06T09:13:19Z</time></trkpt><trkpt lat="43.77636531467711" lon="10.911204552972341"><ele>73.0</ele><time>2026-04-06T09:13:22Z</time></trkpt><trkpt lat="43.776306877025426" lon="10.91115124453434"><ele>73.0</ele><time>2026-04-06T09:13:25Z</time></trkpt><trkpt lat="43.77625559323327" lon="10.91109280283787"><ele>73.0</ele><time>2026-04-06T09:13:28Z</time></trkpt><trkpt lat="43.776195008761384" lon="10.911041597645545"><ele>73.0</ele><time>2026-04-06T09:13:30.999Z</time></trkpt><trkpt lat="43.77614216372613" lon="10.91097768146822"><ele>73.0</ele><time>2026-04-06T09:13:33.999Z</time></trkpt><trkpt lat="43.77608674110976" lon="10.91090834787019"><ele>73.0</ele><time>2026-04-06T09:13:36.999Z</time></trkpt><trkpt lat="43.77603115849568" lon="10.91085434757076"><ele>73.0</ele><time>2026-04-06T09:13:39.999Z</time></trkpt><trkpt lat="43.77597828492283" lon="10.910788691007443"><ele>73.28571428571428</ele><time>2026-04-06T09:13:42.999Z</time></trkpt><trkpt lat="43.77592128733651" lon="10.910721681151479"><ele>73.57142857142857</ele><time>2026-04-06T09:13:45.999Z</time></trkpt><trkpt lat="43.77586254684185" lon="10.91065701591301"><ele>73.85714285714286</ele><time>2026-04-06T09:13:48.999Z</time></trkpt><trkpt lat="43.77580338941972" lon="10.910584148376904"><ele>74.14285714285714</ele><time>2026-04-06T09:13:51.999Z</time></trkpt><trkpt lat="43.77574992251256" lon="10.91052522395175"><ele>74.42857142857143</ele><time>2026-04-06T09:13:54.999Z</time></trkpt><trkpt lat="43.77569335090904" lon="10.910466471175033"><ele>74.71428571428571</ele><time>2026-04-06T09:13:57.999Z</time></trkpt><trkpt lat="43.775636526337756" lon="10.910392834814942"><ele>75.0</ele><time>2026-04-06T09:14:00.999Z</time></trkpt><trkpt lat="43.77556964677665" lon="10.91036569828596"><ele>75.0</ele><time>2026-04-06T09:14:03.999Z</time></trkpt><trkpt lat="43.775504323850775" lon="10.910309988439575"><ele>75.0</ele><time>2026-04-06T09:14:06.999Z</time></trkpt><trkpt lat="43.77545262742228" lon="10.910233482448996"><ele>75.0</ele><time>2026-04-06T09:14:09.999Z</time></trkpt><trkpt lat="43.775378443354704" lon="10.910193438563871"><ele>75.0</ele><time>2026-04-06T09:14:12.999Z</time></trkpt><trkpt lat="43.77531867170938" lon="10.910139351517968"><ele>75.0</ele><time>2026-04-06T09:14:15.999Z</time></trkpt><trkpt lat="43.775261221376844" lon="10.910067439756709"><ele>75.0</ele><time>2026-04-06T09:14:18.999Z</time></trkpt><trkpt lat="43.775199400451626" lon="10.910002231436671"><ele>74.99999999999999</ele><time>2026-04-06T09:14:21.999Z</time></trkpt><trkpt lat="43.7751465880276" lon="10.909949705123811"><ele>75.0</ele><time>2026-04-06T09:14:24.999Z</time></trkpt><trkpt lat="43.77509133363541" lon="10.909886601068056"><ele>75.0</ele><time>2026-04-06T09:14:27.999Z</time></trkpt><trkpt lat="43.77503679906931" lon="10.90983090048778"><ele>75.0</ele><time>2026-04-06T09:14:30.999Z</time></trkpt><trkpt lat="43.7749809117813" lon="10.90977138879052"><ele>75.0</ele><time>2026-04-06T09:14:33.999Z</time></trkpt><trkpt lat="43.77492070819109" lon="10.909723249815949"><ele>74.99999999999999</ele><time>2026-04-06T09:14:36.999Z</time></trkpt><trkpt lat="43.774858116326016" lon="10.9096781734532"><ele>75.0</ele><time>2026-04-06T09:14:39.999Z</time></trkpt><trkpt lat="43.774800026492805" lon="10.909615422574868"><ele>74.99999999999999</ele><time>2026-04-06T09:14:42.999Z</time></trkpt><trkpt lat="43.77474342086885" lon="10.909544037497806"><ele>75.0</ele><time>2026-04-06T09:14:45.999Z</time></trkpt><trkpt lat="43.77469873713395" lon="10.909460432639428"><ele>75.0</ele><time>2026-04-06T09:14:48.999Z</time></trkpt><trkpt lat="43.77463250064014" lon="10.909407122021454"><ele>75.0</ele><time>2026-04-06T09:14:51.999Z</time></trkpt><trkpt lat="43.77458114108108" lon="10.909342793293549"><ele>75.0</ele><time>2026-04-06T09:14:54.999Z</time></trkpt><trkpt lat="43.774535705569235" lon="10.909266944532744"><ele>74.99999999999999</ele><time>2026-04-06T09:14:57.998Z</time></trkpt><trkpt lat="43.774475710577754" lon="10.90920530776663"><ele>75.0</ele><time>2026-04-06T09:15:00.998Z</time></trkpt><trkpt lat="43.77440854156115" lon="10.909149305553191"><ele>75.28571428571428</ele><time>2026-04-06T09:15:03.998Z</time></trkpt><trkpt lat="43.77435603344621" lon="10.90909531170507"><ele>75.57142857142857</ele><time>2026-04-06T09:15:06.998Z</time></trkpt><trkpt lat="43.77428975897764" lon="10.909037890262379"><ele>75.85714285714286</ele><time>2026-04-06T09:15:09.998Z</time></trkpt><trkpt lat="43.77424202249118" lon="10.908964646918072"><ele>76.14285714285714</ele><time>2026-04-06T09:15:12.998Z</time></trkpt><trkpt lat="43.77418292744235" lon="10.908900432369887"><ele>76.42857142857143</ele><time>2026-04-06T09:15:16Z</time></trkpt><trkpt lat="43.77412445391793" lon="10.908842818823073"><ele>76.71428571428571</ele><time>2026-04-06T09:15:19Z</time></trkpt><trkpt lat="43.77407616218129" lon="10.908783583952921"><ele>77.0</ele><time>2026-04-06T09:15:22Z</time></trkpt><trkpt lat="43.77402484893116" lon="10.908713357446668"><ele>77.0</ele><time>2026-04-06T09:15:25Z</time></trkpt><trkpt lat="43.77397026313765" lon="10.908645567465225"><ele>77.0</ele><time>2026-04-06T09:15:28Z</time></trkpt><trkpt lat="43.77394047084057" lon="10.90855621437559"><ele>77.0</ele><time>2026-04-06T09:15:31Z</time></trkpt><trkpt lat="43.77389625669612" lon="10.908481582590417"><ele>77.0</ele><time>2026-04-06T09:15:34Z</time></trkpt><trkpt lat="43.77385564043973" lon="10.90840477956388"><ele>77.0</ele><time>2026-04-06T09:15:37Z</time></trkpt><trkpt lat="43.77381453658493" lon="10.908334675574842"><ele>77.0</ele><time>2026-04-06T09:15:40Z</time></trkpt><trkpt lat="43.773777706014506" lon="10.908260829033562"><ele>77.0</ele><time>2026-04-06T09:15:42.999Z</time></trkpt><trkpt lat="43.77375308333834" lon="10.90817052236774"><ele>76.57142857142857</ele><time>2026-04-06T09:15:45.999Z</time></trkpt><trkpt lat="43.77371856905217" lon="10.908082890754596"><ele>76.14285714285714</ele><time>2026-04-06T09:15:48.999Z</time></trkpt><trkpt lat="43.77368726147744" lon="10.907995727477575"><ele>75.71428571428572</ele><time>2026-04-06T09:15:51.999Z</time></trkpt><trkpt lat="43.77365255706692" lon="10.907910200775515"><ele>75.28571428571428</ele><time>2026-04-06T09:15:54.999Z</time></trkpt><trkpt lat="43.77362049273296" lon="10.907824034022898"><ele>74.85714285714286</ele><time>2026-04-06T09:15:57.999Z</time></trkpt><trkpt lat="43.77358268583606" lon="10.907746773666013"><ele>74.42857142857143</ele><time>2026-04-06T09:16:00.999Z</time></trkpt><trkpt lat="43.773544737966354" lon="10.907656093773431"><ele>74.0</ele><time>2026-04-06T09:16:03.999Z</time></trkpt><trkpt lat="43.77350689847709" lon="10.90757537009159"><ele>75.0</ele><time>2026-04-06T09:16:06.999Z</time></trkpt><trkpt lat="43.77345388659667" lon="10.907507091046426"><ele>76.0</ele><time>2026-04-06T09:16:09.999Z</time></trkpt><trkpt lat="43.77340247223092" lon="10.907430765974361"><ele>77.0</ele><time>2026-04-06T09:16:12.999Z</time></trkpt><trkpt lat="43.773352897843914" lon="10.90735732870317"><ele>78.0</ele><time>2026-04-06T09:16:15.999Z</time></trkpt><trkpt lat="43.77331953535676" lon="10.90726235689589"><ele>79.0</ele><time>2026-04-06T09:16:18.999Z</time></trkpt><trkpt lat="43.773264217352484" lon="10.907189914816053"><ele>80.0</ele><time>2026-04-06T09:16:21.999Z</time></trkpt><trkpt lat="43.77321470955713" lon="10.907104673242044"><ele>80.0</ele><time>2026-04-06T09:16:24.999Z</time></trkpt><trkpt lat="43.773159541361004" lon="10.907024396687978"><ele>80.0</ele><time>2026-04-06T09:16:27.999Z</time></trkpt><trkpt lat="43.77312930280539" lon="10.906918057289063"><ele>80.0</ele><time>2026-04-06T09:16:30.999Z</time></trkpt><trkpt lat="43.77307863034105" lon="10.906834148569365"><ele>80.0</ele><time>2026-04-06T09:16:33.999Z</time></trkpt><trkpt lat="43.77303973741074" lon="10.906754951840608"><ele>80.0</ele><time>2026-04-06T09:16:36.999Z</time></trkpt><trkpt lat="43.77299046335418" lon="10.906668770095887"><ele>80.0</ele><time>2026-04-06T09:16:39.999Z</time></trkpt><trkpt lat="43.77295145493218" lon="10.906580698264309"><ele>78.66666666666667</ele><time>2026-04-06T09:16:42.999Z</time></trkpt><trkpt lat="43.77290993334285" lon="10.906484767405212"><ele>77.33333333333334</ele><time>2026-04-06T09:16:45.999Z</time></trkpt><trkpt lat="43.77287468207698" lon="10.90638456736179"><ele>76.0</ele><time>2026-04-06T09:16:48.999Z</time></trkpt><trkpt lat="43.77283076413422" lon="10.906304110689032"><ele>74.66666666666667</ele><time>2026-04-06T09:16:51.999Z</time></trkpt><trkpt lat="43.77277735231244" lon="10.906224059521383"><ele>73.33333333333333</ele><time>2026-04-06T09:16:54.999Z</time></trkpt><trkpt lat="43.77272792675032" lon="10.906143598163698"><ele>72.0</ele><time>2026-04-06T09:16:57.999Z</time></trkpt><trkpt lat="43.77269317586549" lon="10.9060480677928"><ele>72.42857142857143</ele><time>2026-04-06T09:17:00.999Z</time></trkpt><trkpt lat="43.7726488806903" lon="10.905971534797018"><ele>72.85714285714286</ele><time>2026-04-06T09:17:03.998Z</time></trkpt><trkpt lat="43.772614554619246" lon="10.905877893075534"><ele>73.28571428571428</ele><time>2026-04-06T09:17:06.998Z</time></trkpt><trkpt lat="43.77256997157208" lon="10.905790375761681"><ele>73.71428571428572</ele><time>2026-04-06T09:17:09.998Z</time></trkpt><trkpt lat="43.77253542278827" lon="10.905709351403445"><ele>74.14285714285714</ele><time>2026-04-06T09:17:12.998Z</time></trkpt><trkpt lat="43.772502678065166" lon="10.90561604129316"><ele>74.57142857142857</ele><time>2026-04-06T09:17:15.998Z</time></trkpt><trkpt lat="43.77245441615544" lon="10.90553851392924"><ele>75.0</ele><time>2026-04-06T09:17:18.998Z</time></trkpt><trkpt lat="43.77241485292073" lon="10.905459209461142"><ele>75.0</ele><time>2026-04-06T09:17:22Z</time></trkpt><trkpt lat="43.77237012937799" lon="10.905371468369205"><ele>75.0</ele><time>2026-04-06T09:17:25Z</time></trkpt><trkpt lat="43.77232914526738" lon="10.905286552916673"><ele>75.0</ele><time>2026-04-06T09:17:28Z</time></trkpt><trkpt lat="43.772315828119886" lon="10.905180020871112"><ele>75.0</ele><time>2026-04-06T09:17:31Z</time></trkpt><trkpt lat="43.7722737286296" lon="10.905103203666636"><ele>75.0</ele><time>2026-04-06T09:17:34Z</time></trkpt><trkpt lat="43.77223312164919" lon="10.905013604429232"><ele>75.0</ele><time>2026-04-06T09:17:37Z</time></trkpt><trkpt lat="43.77219465080734" lon="10.904925360423317"><ele>74.66666666666667</ele><time>2026-04-06T09:17:40Z</time></trkpt><trkpt lat="43.772150929458775" lon="10.90484577722933"><ele>74.33333333333333</ele><time>2026-04-06T09:17:43Z</time></trkpt><trkpt lat="43.77211408524485" lon="10.904757151154245"><ele>74.0</ele><time>2026-04-06T09:17:46Z</time></trkpt><trkpt lat="43.77207333029867" lon="10.904665987336834"><ele>73.66666666666666</ele><time>2026-04-06T09:17:49Z</time></trkpt><trkpt lat="43.7720271241191" lon="10.904580511816862"><ele>73.33333333333333</ele><time>2026-04-06T09:17:52Z</time></trkpt><trkpt lat="43.77198704655172" lon="10.904488007683057"><ele>73.0</ele><time>2026-04-06T09:17:54.999Z</time></trkpt><trkpt lat="43.771963774286355" lon="10.904379775126227"><ele>73.0</ele><time>2026-04-06T09:17:57.999Z</time></trkpt><trkpt lat="43.77192501273004" lon="10.904291944698388"><ele>73.0</ele><time>2026-04-06T09:18:00.999Z</time></trkpt><trkpt lat="43.77188610614398" lon="10.904195104390856"><ele>73.0</ele><time>2026-04-06T09:18:03.999Z</time></trkpt><trkpt lat="43.77184713590324" lon="10.904102333695047"><ele>73.0</ele><time>2026-04-06T09:18:06.999Z</time></trkpt><trkpt lat="43.77180547638932" lon="10.90401487717768"><ele>73.0</ele><time>2026-04-06T09:18:09.999Z</time></trkpt><trkpt lat="43.77176702738956" lon="10.903920509022532"><ele>73.0</ele><time>2026-04-06T09:18:12.999Z</time></trkpt><trkpt lat="43.77172972132553" lon="10.903826947715023"><ele>73.0</ele><time>2026-04-06T09:18:15.999Z</time></trkpt><trkpt lat="43.771701826087885" lon="10.903730988932542"><ele>73.0</ele><time>2026-04-06T09:18:18.999Z</time></trkpt><trkpt lat="43.77166086900012" lon="10.903644939600133"><ele>73.0</ele><time>2026-04-06T09:18:21.999Z</time></trkpt><trkpt lat="43.771639477314224" lon="10.903546794207593"><ele>73.0</ele><time>2026-04-06T09:18:24.999Z</time></trkpt><trkpt lat="43.77158879487761" lon="10.903463174574357"><ele>73.0</ele><time>2026-04-06T09:18:27.999Z</time></trkpt><trkpt lat="43.77155426510567" lon="10.903363275456467"><ele>73.0</ele><time>2026-04-06T09:18:30.999Z</time></trkpt><trkpt lat="43.77151078380237" lon="10.903281992116035"><ele>74.33333333333333</ele><time>2026-04-06T09:18:33.999Z</time></trkpt><trkpt lat="43.771478833738385" lon="10.903198210446398"><ele>75.66666666666666</ele><time>2026-04-06T09:18:36.999Z</time></trkpt><trkpt lat="43.77144075443872" lon="10.90310026173195"><ele>77.0</ele><time>2026-04-06T09:18:39.999Z</time></trkpt><trkpt lat="43.77140943536919" lon="10.90300611091435"><ele>78.33333333333333</ele><time>2026-04-06T09:18:42.999Z</time></trkpt><trkpt lat="43.771364380489416" lon="10.902927957786563"><ele>79.66666666666667</ele><time>2026-04-06T09:18:45.999Z</time></trkpt><trkpt lat="43.77133522969231" lon="10.902829229849013"><ele>81.0</ele><time>2026-04-06T09:18:48.999Z</time></trkpt><trkpt lat="43.771287444401146" lon="10.902745975909033"><ele>81.0</ele><time>2026-04-06T09:18:51.999Z</time></trkpt><trkpt lat="43.77124218504812" lon="10.902666003172827"><ele>81.0</ele><time>2026-04-06T09:18:54.999Z</time></trkpt><trkpt lat="43.77119897109789" lon="10.90258691646932"><ele>81.0</ele><time>2026-04-06T09:18:57.999Z</time></trkpt><trkpt lat="43.77116456979067" lon="10.902500319442808"><ele>81.0</ele><time>2026-04-06T09:19:00.999Z</time></trkpt><trkpt lat="43.77113273275588" lon="10.90239942688702"><ele>81.0</ele><time>2026-04-06T09:19:03.999Z</time></trkpt><trkpt lat="43.7710965530176" lon="10.90232356782563"><ele>81.0</ele><time>2026-04-06T09:19:06.999Z</time></trkpt><trkpt lat="43.7710662715409" lon="10.90222673255484"><ele>81.0</ele><time>2026-04-06T09:19:09.999Z</time></trkpt><trkpt lat="43.771021754253674" lon="10.90216023919995"><ele>81.14285714285714</ele><time>2026-04-06T09:19:12.999Z</time></trkpt><trkpt lat="43.77099868592008" lon="10.902055228610031"><ele>81.28571428571428</ele><time>2026-04-06T09:19:15.998Z</time></trkpt><trkpt lat="43.770969645935345" lon="10.901966941400756"><ele>81.42857142857142</ele><time>2026-04-06T09:19:18.998Z</time></trkpt><trkpt lat="43.77092251683796" lon="10.901884041684179"><ele>81.57142857142857</ele><time>2026-04-06T09:19:21.998Z</time></trkpt><trkpt lat="43.77087958485366" lon="10.901813045243621"><ele>81.71428571428571</ele><time>2026-04-06T09:19:24.998Z</time></trkpt><trkpt lat="43.7708456661571" lon="10.901718519205971"><ele>81.85714285714285</ele><time>2026-04-06T09:19:28Z</time></trkpt><trkpt lat="43.77081011801458" lon="10.901640773075172"><ele>82.0</ele><time>2026-04-06T09:19:31Z</time></trkpt><trkpt lat="43.770785955586064" lon="10.901554669171386"><ele>81.99999999999999</ele><time>2026-04-06T09:19:34Z</time></trkpt><trkpt lat="43.770756849881295" lon="10.901475097596542"><ele>82.0</ele><time>2026-04-06T09:19:37Z</time></trkpt><trkpt lat="43.77072042772185" lon="10.90139298879026"><ele>82.0</ele><time>2026-04-06T09:19:40Z</time></trkpt><trkpt lat="43.77068182678946" lon="10.901309668604732"><ele>82.0</ele><time>2026-04-06T09:19:43Z</time></trkpt><trkpt lat="43.77063573782271" lon="10.901220982790058"><ele>82.0</ele><time>2026-04-06T09:19:47Z</time></trkpt><trkpt lat="43.77061391558418" lon="10.901118178798772"><ele>81.99999999999999</ele><time>2026-04-06T09:19:50Z</time></trkpt><trkpt lat="43.770575176103335" lon="10.901043932241697"><ele>82.0</ele><time>2026-04-06T09:19:53Z</time></trkpt><trkpt lat="43.770540384192174" lon="10.90095729240395"><ele>81.85714285714285</ele><time>2026-04-06T09:19:56Z</time></trkpt><trkpt lat="43.7705149538868" lon="10.900860442647337"><ele>81.71428571428571</ele><time>2026-04-06T09:19:59Z</time></trkpt><trkpt lat="43.770494014592806" lon="10.900758267323264"><ele>81.57142857142857</ele><time>2026-04-06T09:20:02Z</time></trkpt><trkpt lat="43.77045504926465" lon="10.90066701694381"><ele>81.42857142857142</ele><time>2026-04-06T09:20:04.999Z</time></trkpt><trkpt lat="43.77041112631475" lon="10.900585840274841"><ele>81.28571428571428</ele><time>2026-04-06T09:20:07.999Z</time></trkpt><trkpt lat="43.77036210883368" lon="10.900520713724953"><ele>81.14285714285714</ele><time>2026-04-06T09:20:10.999Z</time></trkpt><trkpt lat="43.770326034459494" lon="10.900432552089084"><ele>81.0</ele><time>2026-04-06T09:20:13.999Z</time></trkpt><trkpt lat="43.77028732888551" lon="10.900351298913991"><ele>81.0</ele><time>2026-04-06T09:20:16.999Z</time></trkpt><trkpt lat="43.77027179202181" lon="10.90024773198948"><ele>81.0</ele><time>2026-04-06T09:20:19.999Z</time></trkpt><trkpt lat="43.7702360885341" lon="10.900165052876027"><ele>81.0</ele><time>2026-04-06T09:20:22.999Z</time></trkpt><trkpt lat="43.77020991817986" lon="10.900072080540244"><ele>81.0</ele><time>2026-04-06T09:20:25.999Z</time></trkpt><trkpt lat="43.770166622633106" lon="10.900000240570485"><ele>81.0</ele><time>2026-04-06T09:20:28.999Z</time></trkpt><trkpt lat="43.770127592957444" lon="10.899920497765324"><ele>81.0</ele><time>2026-04-06T09:20:31.999Z</time></trkpt><trkpt lat="43.770083449972695" lon="10.899829941005997"><ele>81.0</ele><time>2026-04-06T09:20:34.999Z</time></trkpt><trkpt lat="43.7700432195736" lon="10.899727968187051"><ele>81.71428571428572</ele><time>2026-04-06T09:20:38.999Z</time></trkpt><trkpt lat="43.77000032043779" lon="10.899659874242927"><ele>82.42857142857143</ele><time>2026-04-06T09:20:41.999Z</time></trkpt><trkpt lat="43.76996055350454" lon="10.899586553832467"><ele>83.14285714285714</ele><time>2026-04-06T09:20:44.999Z</time></trkpt><trkpt lat="43.76991514219853" lon="10.899510982358366"><ele>83.85714285714286</ele><time>2026-04-06T09:20:47.999Z</time></trkpt><trkpt lat="43.769876135136236" lon="10.899432885386394"><ele>84.57142857142857</ele><time>2026-04-06T09:20:50.999Z</time></trkpt><trkpt lat="43.76982362345032" lon="10.899356728493467"><ele>85.28571428571429</ele><time>2026-04-06T09:20:53.999Z</time></trkpt><trkpt lat="43.76978337936211" lon="10.899275318127447"><ele>86.0</ele><time>2026-04-06T09:20:56.999Z</time></trkpt><trkpt lat="43.769742954827166" lon="10.89919433681249"><ele>86.00000000000001</ele><time>2026-04-06T09:20:59.999Z</time></trkpt><trkpt lat="43.7697331864654" lon="10.899100499095175"><ele>86.0</ele><time>2026-04-06T09:21:02.999Z</time></trkpt><trkpt lat="43.7697388324236" lon="10.89899674792123"><ele>86.0</ele><time>2026-04-06T09:21:05.999Z</time></trkpt><trkpt lat="43.76972570273914" lon="10.89890498889498"><ele>86.0</ele><time>2026-04-06T09:21:08.999Z</time></trkpt><trkpt lat="43.7697176890656" lon="10.898801725243901"><ele>86.0</ele><time>2026-04-06T09:21:11.999Z</time></trkpt><trkpt lat="43.769725545453134" lon="10.898701664664761"><ele>86.00000000000001</ele><time>2026-04-06T09:21:14.999Z</time></trkpt><trkpt lat="43.769710638722096" lon="10.898612975726078"><ele>86.0</ele><time>2026-04-06T09:21:17.998Z</time></trkpt><trkpt lat="43.769706238001476" lon="10.898508777562153"><ele>85.85714285714286</ele><time>2026-04-06T09:21:20.998Z</time></trkpt><trkpt lat="43.769720252581834" lon="10.898405347486461"><ele>85.71428571428572</ele><time>2026-04-06T09:21:23.998Z</time></trkpt><trkpt lat="43.76971540984973" lon="10.898306294822122"><ele>85.57142857142858</ele><time>2026-04-06T09:21:26.998Z</time></trkpt><trkpt lat="43.769701491671064" lon="10.898211741211375"><ele>85.42857142857143</ele><time>2026-04-06T09:21:29.998Z</time></trkpt><trkpt lat="43.76969420675187" lon="10.89811081564081"><ele>85.28571428571428</ele><time>2026-04-06T09:21:33Z</time></trkpt><trkpt lat="43.76969357389173" lon="10.898008067560243"><ele>85.14285714285715</ele><time>2026-04-06T09:21:36Z</time></trkpt><trkpt lat="43.7697051819891" lon="10.89791191616593"><ele>85.0</ele><time>2026-04-06T09:21:39Z</time></trkpt><trkpt lat="43.76972486047293" lon="10.89781673072602"><ele>85.0</ele><time>2026-04-06T09:21:42Z</time></trkpt><trkpt lat="43.76971920914213" lon="10.897710331640823"><ele>85.0</ele><time>2026-04-06T09:21:45Z</time></trkpt><trkpt lat="43.769732991829514" lon="10.897612654405693"><ele>85.0</ele><time>2026-04-06T09:21:48Z</time></trkpt><trkpt lat="43.769748479179256" lon="10.897519578136203"><ele>85.0</ele><time>2026-04-06T09:21:51Z</time></trkpt><trkpt lat="43.76976058942528" lon="10.89741753194752"><ele>85.0</ele><time>2026-04-06T09:21:54Z</time></trkpt><trkpt lat="43.769753939174095" lon="10.897325567767485"><ele>85.0</ele><time>2026-04-06T09:21:57Z</time></trkpt><trkpt lat="43.76972344604827" lon="10.897240767949791"><ele>85.0</ele><time>2026-04-06T09:22:00Z</time></trkpt><trkpt lat="43.76972059507848" lon="10.89713677452101"><ele>85.0</ele><time>2026-04-06T09:22:03Z</time></trkpt><trkpt lat="43.769732634516174" lon="10.897025719100952"><ele>85.0</ele><time>2026-04-06T09:22:06Z</time></trkpt><trkpt lat="43.76976217853458" lon="10.896917898112324"><ele>85.0</ele><time>2026-04-06T09:22:08.999Z</time></trkpt><trkpt lat="43.76979744635214" lon="10.89681790905101"><ele>85.0</ele><time>2026-04-06T09:22:11.999Z</time></trkpt><trkpt lat="43.76982725196757" lon="10.896720791699886"><ele>85.0</ele><time>2026-04-06T09:22:14.999Z</time></trkpt><trkpt lat="43.769842153245264" lon="10.89661916292063"><ele>85.0</ele><time>2026-04-06T09:22:17.999Z</time></trkpt><trkpt lat="43.769883287207996" lon="10.896521244123173"><ele>84.83333333333333</ele><time>2026-04-06T09:22:20.999Z</time></trkpt><trkpt lat="43.769912415600466" lon="10.896406192425829"><ele>84.66666666666666</ele><time>2026-04-06T09:22:23.999Z</time></trkpt><trkpt lat="43.76991648353089" lon="10.896282864349894"><ele>84.5</ele><time>2026-04-06T09:22:26.999Z</time></trkpt><trkpt lat="43.76991653238014" lon="10.896176046773942"><ele>84.33333333333333</ele><time>2026-04-06T09:22:29.999Z</time></trkpt><trkpt lat="43.769920625850766" lon="10.896064091139072"><ele>84.16666666666667</ele><time>2026-04-06T09:22:32.999Z</time></trkpt><trkpt lat="43.769937269669626" lon="10.895947334916832"><ele>84.0</ele><time>2026-04-06T09:22:35.999Z</time></trkpt><trkpt lat="43.769954898451424" lon="10.895840248754727"><ele>83.83333333333333</ele><time>2026-04-06T09:22:38.999Z</time></trkpt><trkpt lat="43.76996401443434" lon="10.895719960374358"><ele>83.66666666666667</ele><time>2026-04-06T09:22:41.999Z</time></trkpt><trkpt lat="43.76996817647294" lon="10.895605213152756"><ele>83.5</ele><time>2026-04-06T09:22:44.999Z</time></trkpt><trkpt lat="43.76997554760541" lon="10.895495191500327"><ele>83.33333333333334</ele><time>2026-04-06T09:22:47.999Z</time></trkpt><trkpt lat="43.76998089018363" lon="10.895390583230807"><ele>83.16666666666667</ele><time>2026-04-06T09:22:50.999Z</time></trkpt><trkpt lat="43.76999895507217" lon="10.895278244735529"><ele>83.0</ele><time>2026-04-06T09:22:53.999Z</time></trkpt><trkpt lat="43.77001755398107" lon="10.895174374009159"><ele>82.85714285714285</ele><time>2026-04-06T09:22:56.999Z</time></trkpt><trkpt lat="43.77004282261209" lon="10.895065190688378"><ele>82.71428571428572</ele><time>2026-04-06T09:22:59.999Z</time></trkpt><trkpt lat="43.770056494071355" lon="10.894962436291785"><ele>82.57142857142857</ele><time>2026-04-06T09:23:02.999Z</time></trkpt><trkpt lat="43.77007197069382" lon="10.894859031133503"><ele>82.42857142857142</ele><time>2026-04-06T09:23:05.999Z</time></trkpt><trkpt lat="43.77007823083709" lon="10.894761052569743"><ele>82.28571428571428</ele><time>2026-04-06T09:23:08.999Z</time></trkpt><trkpt lat="43.770096252825276" lon="10.894672339530457"><ele>82.14285714285714</ele><time>2026-04-06T09:23:11.999Z</time></trkpt><trkpt lat="43.77011275796885" lon="10.89458206649029"><ele>82.0</ele><time>2026-04-06T09:23:14.999Z</time></trkpt><trkpt lat="43.770124353094346" lon="10.894495889542606"><ele>81.99999999999999</ele><time>2026-04-06T09:23:17.999Z</time></trkpt><trkpt lat="43.77014986007978" lon="10.894412925380053"><ele>82.0</ele><time>2026-04-06T09:23:20.999Z</time></trkpt><trkpt lat="43.770159395269225" lon="10.894317410081927"><ele>82.0</ele><time>2026-04-06T09:23:23.998Z</time></trkpt><trkpt lat="43.7701775191447" lon="10.894222256864357"><ele>82.0</ele><time>2026-04-06T09:23:26.998Z</time></trkpt><trkpt lat="43.770189550390256" lon="10.894127537237615"><ele>82.0</ele><time>2026-04-06T09:23:29.998Z</time></trkpt><trkpt lat="43.77019887315437" lon="10.89401408312269"><ele>81.99999999999999</ele><time>2026-04-06T09:23:33.998Z</time></trkpt><trkpt lat="43.77020537434854" lon="10.893923321156777"><ele>82.0</ele><time>2026-04-06T09:23:36.998Z</time></trkpt><trkpt lat="43.770222030593665" lon="10.893835835082907"><ele>82.42857142857142</ele><time>2026-04-06T09:23:40Z</time></trkpt><trkpt lat="43.77022955520651" lon="10.893736435170037"><ele>82.85714285714286</ele><time>2026-04-06T09:23:43Z</time></trkpt><trkpt lat="43.770240326656456" lon="10.893645294193195"><ele>83.28571428571428</ele><time>2026-04-06T09:23:46Z</time></trkpt><trkpt lat="43.77025071150712" lon="10.893558594764322"><ele>83.71428571428571</ele><time>2026-04-06T09:23:49Z</time></trkpt><trkpt lat="43.77025804438494" lon="10.893468616036333"><ele>84.14285714285714</ele><time>2026-04-06T09:23:52Z</time></trkpt><trkpt lat="43.77026681592192" lon="10.893379109886627"><ele>84.57142857142857</ele><time>2026-04-06T09:23:55Z</time></trkpt><trkpt lat="43.77028047816637" lon="10.893284454309523"><ele>85.0</ele><time>2026-04-06T09:23:58Z</time></trkpt><trkpt lat="43.77029399315403" lon="10.893175286109672"><ele>85.57142857142857</ele><time>2026-04-06T09:24:02Z</time></trkpt><trkpt lat="43.77030338516263" lon="10.893089080431132"><ele>86.14285714285714</ele><time>2026-04-06T09:24:05Z</time></trkpt><trkpt lat="43.77031380590569" lon="10.893001542637"><ele>86.71428571428571</ele><time>2026-04-06T09:24:08Z</time></trkpt><trkpt lat="43.77032088587971" lon="10.892887750976502"><ele>87.28571428571428</ele><time>2026-04-06T09:24:12Z</time></trkpt><trkpt lat="43.770325335327676" lon="10.892777647598551"><ele>87.85714285714286</ele><time>2026-04-06T09:24:15.999Z</time></trkpt><trkpt lat="43.770327940964265" lon="10.892676230486215"><ele>88.42857142857142</ele><time>2026-04-06T09:24:18.999Z</time></trkpt><trkpt lat="43.77033391716374" lon="10.892562144834601"><ele>89.0</ele><time>2026-04-06T09:24:22.999Z</time></trkpt><trkpt lat="43.77031161407089" lon="10.892473681225589"><ele>88.99999999999999</ele><time>2026-04-06T09:24:25.999Z</time></trkpt><trkpt lat="43.77030724909281" lon="10.892384893271768"><ele>89.0</ele><time>2026-04-06T09:24:28.999Z</time></trkpt><trkpt lat="43.7702922998475" lon="10.89229962496785"><ele>89.0</ele><time>2026-04-06T09:24:31.999Z</time></trkpt><trkpt lat="43.77026690309822" lon="10.892215583522097"><ele>89.0</ele><time>2026-04-06T09:24:34.999Z</time></trkpt><trkpt lat="43.77023377747995" lon="10.892139436172695"><ele>89.0</ele><time>2026-04-06T09:24:37.999Z</time></trkpt><trkpt lat="43.77020646690831" lon="10.89205532046379"><ele>88.99999999999999</ele><time>2026-04-06T09:24:40.999Z</time></trkpt><trkpt lat="43.77017533916696" lon="10.891976208327685"><ele>89.0</ele><time>2026-04-06T09:24:43.999Z</time></trkpt><trkpt lat="43.770137671322075" lon="10.891894988692611"><ele>88.71428571428571</ele><time>2026-04-06T09:24:46.999Z</time></trkpt><trkpt lat="43.77009527610185" lon="10.89182167518001"><ele>88.42857142857143</ele><time>2026-04-06T09:24:49.999Z</time></trkpt><trkpt lat="43.77005166061349" lon="10.89174321835887"><ele>88.14285714285714</ele><time>2026-04-06T09:24:52.999Z</time></trkpt><trkpt lat="43.770023992426665" lon="10.89165117451394"><ele>87.85714285714286</ele><time>2026-04-06T09:24:55.999Z</time></trkpt><trkpt lat="43.76998420296624" lon="10.891549963097399"><ele>87.57142857142857</ele><time>2026-04-06T09:24:59.999Z</time></trkpt><trkpt lat="43.769955278760165" lon="10.891468410207098"><ele>87.28571428571428</ele><time>2026-04-06T09:25:02.999Z</time></trkpt><trkpt lat="43.76992442019649" lon="10.891378019530848"><ele>87.0</ele><time>2026-04-06T09:25:05.999Z</time></trkpt><trkpt lat="43.769898328739764" lon="10.89129676937618"><ele>87.0</ele><time>2026-04-06T09:25:08.999Z</time></trkpt><trkpt lat="43.769876091938535" lon="10.891202039617133"><ele>87.0</ele><time>2026-04-06T09:25:11.999Z</time></trkpt><trkpt lat="43.76983302805706" lon="10.891132117519408"><ele>87.0</ele><time>2026-04-06T09:25:14.999Z</time></trkpt><trkpt lat="43.76979031745665" lon="10.891053961625278"><ele>87.0</ele><time>2026-04-06T09:25:17.999Z</time></trkpt><trkpt lat="43.769738948790504" lon="10.890980214423308"><ele>87.0</ele><time>2026-04-06T09:25:20.999Z</time></trkpt><trkpt lat="43.769676956767135" lon="10.890930769007536"><ele>87.0</ele><time>2026-04-06T09:25:23.999Z</time></trkpt><trkpt lat="43.76961255898294" lon="10.890870940085247"><ele>87.0</ele><time>2026-04-06T09:25:26.998Z</time></trkpt><trkpt lat="43.769553431006926" lon="10.890805755418313"><ele>87.16666666666667</ele><time>2026-04-06T09:25:29.998Z</time></trkpt><trkpt lat="43.769495821564085" lon="10.89073894349559"><ele>87.33333333333333</ele><time>2026-04-06T09:25:32.998Z</time></trkpt><trkpt lat="43.769421003047334" lon="10.890691336347553"><ele>87.5</ele><time>2026-04-06T09:25:35.998Z</time></trkpt><trkpt lat="43.76935192447982" lon="10.89064615458638"><ele>87.66666666666666</ele><time>2026-04-06T09:25:38.998Z</time></trkpt><trkpt lat="43.7692798920159" lon="10.890623654710277"><ele>87.83333333333333</ele><time>2026-04-06T09:25:41.998Z</time></trkpt><trkpt lat="43.76920683193061" lon="10.89057465545939"><ele>88.0</ele><time>2026-04-06T09:25:45Z</time></trkpt><trkpt lat="43.7691294976264" lon="10.890528593730517"><ele>88.0</ele><time>2026-04-06T09:25:48Z</time></trkpt><trkpt lat="43.76905041863836" lon="10.890501875225537"><ele>88.0</ele><time>2026-04-06T09:25:51Z</time></trkpt><trkpt lat="43.76897800402484" lon="10.890472983732533"><ele>88.0</ele><time>2026-04-06T09:25:54Z</time></trkpt><trkpt lat="43.76890357261201" lon="10.890446237864202"><ele>88.0</ele><time>2026-04-06T09:25:57Z</time></trkpt><trkpt lat="43.76882857335491" lon="10.89041094787502"><ele>88.0</ele><time>2026-04-06T09:26:00Z</time></trkpt><trkpt lat="43.76876055143373" lon="10.890380236753451"><ele>88.0</ele><time>2026-04-06T09:26:03Z</time></trkpt><trkpt lat="43.76868411381286" lon="10.890342951917999"><ele>88.0</ele><time>2026-04-06T09:26:06Z</time></trkpt><trkpt lat="43.76861411037439" lon="10.890300020106226"><ele>88.0</ele><time>2026-04-06T09:26:09Z</time></trkpt><trkpt lat="43.76853714966098" lon="10.890255370685212"><ele>88.0</ele><time>2026-04-06T09:26:11.999Z</time></trkpt><trkpt lat="43.76846671331738" lon="10.890229856102833"><ele>88.0</ele><time>2026-04-06T09:26:14.999Z</time></trkpt><trkpt lat="43.7683937465171" lon="10.890203862946661"><ele>88.0</ele><time>2026-04-06T09:26:17.999Z</time></trkpt><trkpt lat="43.76831721410577" lon="10.890173422333772"><ele>88.0</ele><time>2026-04-06T09:26:20.999Z</time></trkpt><trkpt lat="43.768247476584236" lon="10.890121157765808"><ele>87.71428571428572</ele><time>2026-04-06T09:26:23.999Z</time></trkpt><trkpt lat="43.76817338863812" lon="10.89008972106395"><ele>87.42857142857143</ele><time>2026-04-06T09:26:26.999Z</time></trkpt><trkpt lat="43.76810266106008" lon="10.89007470423378"><ele>87.14285714285714</ele><time>2026-04-06T09:26:29.999Z</time></trkpt><trkpt lat="43.76803173594556" lon="10.890049536879461"><ele>86.85714285714286</ele><time>2026-04-06T09:26:32.999Z</time></trkpt><trkpt lat="43.767963408898915" lon="10.889999653740148"><ele>86.57142857142857</ele><time>2026-04-06T09:26:35.999Z</time></trkpt><trkpt lat="43.7678947439022" lon="10.889971191539672"><ele>86.28571428571429</ele><time>2026-04-06T09:26:38.999Z</time></trkpt><trkpt lat="43.76782542637837" lon="10.889939137581832"><ele>86.0</ele><time>2026-04-06T09:26:41.999Z</time></trkpt><trkpt lat="43.7677509495035" lon="10.889890109458701"><ele>86.71428571428572</ele><time>2026-04-06T09:26:44.999Z</time></trkpt><trkpt lat="43.767681479237986" lon="10.889856322092387"><ele>87.42857142857143</ele><time>2026-04-06T09:26:47.999Z</time></trkpt><trkpt lat="43.76761778450807" lon="10.889822433694514"><ele>88.14285714285714</ele><time>2026-04-06T09:26:50.999Z</time></trkpt><trkpt lat="43.76755217164373" lon="10.889798525288848"><ele>88.85714285714286</ele><time>2026-04-06T09:26:53.999Z</time></trkpt><trkpt lat="43.7674890569317" lon="10.889759203870014"><ele>89.57142857142857</ele><time>2026-04-06T09:26:56.999Z</time></trkpt><trkpt lat="43.76741807670897" lon="10.889710046620639"><ele>90.28571428571429</ele><time>2026-04-06T09:26:59.999Z</time></trkpt><trkpt lat="43.76734637404607" lon="10.889673514258956"><ele>91.0</ele><time>2026-04-06T09:27:02.999Z</time></trkpt><trkpt lat="43.76728201634503" lon="10.889650993194197"><ele>91.0</ele><time>2026-04-06T09:27:05.999Z</time></trkpt><trkpt lat="43.76721383313913" lon="10.889620044856699"><ele>91.0</ele><time>2026-04-06T09:27:08.999Z</time></trkpt><trkpt lat="43.767144934380966" lon="10.889575780202122"><ele>91.0</ele><time>2026-04-06T09:27:11.999Z</time></trkpt><trkpt lat="43.767078308766045" lon="10.889553115899334"><ele>91.0</ele><time>2026-04-06T09:27:14.999Z</time></trkpt><trkpt lat="43.767010749071936" lon="10.889514357724051"><ele>91.0</ele><time>2026-04-06T09:27:17.999Z</time></trkpt><trkpt lat="43.7669444059603" lon="10.889478139393084"><ele>91.0</ele><time>2026-04-06T09:27:20.999Z</time></trkpt><trkpt lat="43.76687598154917" lon="10.889436568447337"><ele>91.0</ele><time>2026-04-06T09:27:23.998Z</time></trkpt><trkpt lat="43.766806070209526" lon="10.889407811206596"><ele>91.28571428571429</ele><time>2026-04-06T09:27:26.998Z</time></trkpt><trkpt lat="43.76673453833749" lon="10.889391987974834"><ele>91.57142857142857</ele><time>2026-04-06T09:27:29.998Z</time></trkpt><trkpt lat="43.76667222807236" lon="10.889364779456216"><ele>91.85714285714286</ele><time>2026-04-06T09:27:32.998Z</time></trkpt><trkpt lat="43.76660897194951" lon="10.889333984975437"><ele>92.14285714285714</ele><time>2026-04-06T09:27:35.998Z</time></trkpt><trkpt lat="43.76653888608122" lon="10.88929624786356"><ele>92.42857142857143</ele><time>2026-04-06T09:27:38.998Z</time></trkpt><trkpt lat="43.766471070608766" lon="10.889259183923532"><ele>92.71428571428572</ele><time>2026-04-06T09:27:41.998Z</time></trkpt><trkpt lat="43.766406782262585" lon="10.889228606684934"><ele>93.0</ele><time>2026-04-06T09:27:44.998Z</time></trkpt><trkpt lat="43.76633833801784" lon="10.88919944371652"><ele>93.00000000000001</ele><time>2026-04-06T09:27:47.998Z</time></trkpt><trkpt lat="43.76627154977209" lon="10.889155696039454"><ele>93.0</ele><time>2026-04-06T09:27:51Z</time></trkpt><trkpt lat="43.76620675590764" lon="10.889101786265309"><ele>93.0</ele><time>2026-04-06T09:27:54Z</time></trkpt><trkpt lat="43.76614815066978" lon="10.889054288020727"><ele>93.0</ele><time>2026-04-06T09:27:57Z</time></trkpt><trkpt lat="43.76608859783493" lon="10.889020990239164"><ele>93.0</ele><time>2026-04-06T09:28:00Z</time></trkpt><trkpt lat="43.766025658357066" lon="10.888979280243024"><ele>93.00000000000001</ele><time>2026-04-06T09:28:03Z</time></trkpt><trkpt lat="43.76596323212199" lon="10.888928755806173"><ele>93.0</ele><time>2026-04-06T09:28:06Z</time></trkpt><trkpt lat="43.76590201687816" lon="10.888869717922905"><ele>93.00000000000001</ele><time>2026-04-06T09:28:09Z</time></trkpt><trkpt lat="43.76584508893126" lon="10.888811180915999"><ele>93.0</ele><time>2026-04-06T09:28:11.999Z</time></trkpt><trkpt lat="43.76578780748829" lon="10.888770557216228"><ele>93.0</ele><time>2026-04-06T09:28:14.999Z</time></trkpt><trkpt lat="43.76572985155327" lon="10.888731745099385"><ele>93.0</ele><time>2026-04-06T09:28:17.999Z</time></trkpt><trkpt lat="43.76566916535749" lon="10.888693534623226"><ele>93.0</ele><time>2026-04-06T09:28:20.999Z</time></trkpt><trkpt lat="43.76560795146457" lon="10.888636120016207"><ele>93.00000000000001</ele><time>2026-04-06T09:28:23.999Z</time></trkpt><trkpt lat="43.765554789464694" lon="10.88858374665166"><ele>93.0</ele><time>2026-04-06T09:28:26.999Z</time></trkpt><trkpt lat="43.765508871677156" lon="10.888520530930332"><ele>93.00000000000001</ele><time>2026-04-06T09:28:29.999Z</time></trkpt><trkpt lat="43.76545487435008" lon="10.888467375825885"><ele>93.0</ele><time>2026-04-06T09:28:32.999Z</time></trkpt><trkpt lat="43.76540832167055" lon="10.888391895524085"><ele>93.0</ele><time>2026-04-06T09:28:35.999Z</time></trkpt><trkpt lat="43.765359981946325" lon="10.888329122103201"><ele>93.0</ele><time>2026-04-06T09:28:38.999Z</time></trkpt><trkpt lat="43.76530754088202" lon="10.888274208418762"><ele>93.0</ele><time>2026-04-06T09:28:41.999Z</time></trkpt><trkpt lat="43.76525611321616" lon="10.888186162107592"><ele>93.00000000000001</ele><time>2026-04-06T09:28:44.999Z</time></trkpt><trkpt lat="43.765205302056025" lon="10.8881153682672"><ele>93.0</ele><time>2026-04-06T09:28:47.999Z</time></trkpt><trkpt lat="43.76515401253526" lon="10.88805772156525"><ele>93.00000000000001</ele><time>2026-04-06T09:28:50.999Z</time></trkpt><trkpt lat="43.76511831843249" lon="10.887972024866615"><ele>93.0</ele><time>2026-04-06T09:28:53.999Z</time></trkpt><trkpt lat="43.765075390219174" lon="10.887898727762483"><ele>93.0</ele><time>2026-04-06T09:28:56.999Z</time></trkpt><trkpt lat="43.76503011635418" lon="10.88780082376383"><ele>93.0</ele><time>2026-04-06T09:29:00.999Z</time></trkpt><trkpt lat="43.764987132941265" lon="10.887703368002706"><ele>93.0</ele><time>2026-04-06T09:29:04.999Z</time></trkpt><trkpt lat="43.76494073881007" lon="10.887642793581183"><ele>93.00000000000001</ele><time>2026-04-06T09:29:07.999Z</time></trkpt><trkpt lat="43.764893752912805" lon="10.887574812454812"><ele>93.0</ele><time>2026-04-06T09:29:10.999Z</time></trkpt><trkpt lat="43.76484373371098" lon="10.88748612465448"><ele>93.14285714285715</ele><time>2026-04-06T09:29:14.999Z</time></trkpt><trkpt lat="43.764811853233546" lon="10.887401608680323"><ele>93.28571428571429</ele><time>2026-04-06T09:29:17.999Z</time></trkpt><trkpt lat="43.76477171493252" lon="10.887326173875671"><ele>93.42857142857143</ele><time>2026-04-06T09:29:20.999Z</time></trkpt><trkpt lat="43.76472972712664" lon="10.887245642886358"><ele>93.57142857142858</ele><time>2026-04-06T09:29:23.999Z</time></trkpt><trkpt lat="43.76468701172669" lon="10.887172649679556"><ele>93.71428571428571</ele><time>2026-04-06T09:29:26.998Z</time></trkpt><trkpt lat="43.76466186361694" lon="10.887085975309665"><ele>93.85714285714286</ele><time>2026-04-06T09:29:29.998Z</time></trkpt><trkpt lat="43.76462267987462" lon="10.887006155538288"><ele>94.0</ele><time>2026-04-06T09:29:32.998Z</time></trkpt><trkpt lat="43.76458895001248" lon="10.886927536187153"><ele>94.0</ele><time>2026-04-06T09:29:35.998Z</time></trkpt><trkpt lat="43.76456361961179" lon="10.886833631749228"><ele>94.0</ele><time>2026-04-06T09:29:38.998Z</time></trkpt><trkpt lat="43.76453402934762" lon="10.886744925471614"><ele>94.0</ele><time>2026-04-06T09:29:41.998Z</time></trkpt><trkpt lat="43.764491699703704" lon="10.886667787188141"><ele>94.0</ele><time>2026-04-06T09:29:44.998Z</time></trkpt><trkpt lat="43.764429270504785" lon="10.886607506600294"><ele>94.0</ele><time>2026-04-06T09:29:47.998Z</time></trkpt><trkpt lat="43.7643503602096" lon="10.886652590825612"><ele>94.0</ele><time>2026-04-06T09:29:50.998Z</time></trkpt><trkpt lat="43.76429561474216" lon="10.886736429246593"><ele>94.42857142857143</ele><time>2026-04-06T09:29:53.998Z</time></trkpt><trkpt lat="43.76423728912261" lon="10.886795020563625"><ele>94.85714285714286</ele><time>2026-04-06T09:29:57Z</time></trkpt><trkpt lat="43.764184619963224" lon="10.886862423141414"><ele>95.28571428571428</ele><time>2026-04-06T09:30:00Z</time></trkpt><trkpt lat="43.76414207942125" lon="10.886936989231847"><ele>95.71428571428572</ele><time>2026-04-06T09:30:03Z</time></trkpt><trkpt lat="43.764101853311296" lon="10.887024224592857"><ele>96.14285714285715</ele><time>2026-04-06T09:30:06Z</time></trkpt><trkpt lat="43.76404476519962" lon="10.887103299141858"><ele>96.57142857142857</ele><time>2026-04-06T09:30:09Z</time></trkpt><trkpt lat="43.76400124217433" lon="10.887178726429667"><ele>97.0</ele><time>2026-04-06T09:30:12Z</time></trkpt><trkpt lat="43.76394830989124" lon="10.887244310059677"><ele>97.00000000000001</ele><time>2026-04-06T09:30:15Z</time></trkpt><trkpt lat="43.76390785411003" lon="10.887326755042638"><ele>97.0</ele><time>2026-04-06T09:30:18Z</time></trkpt><trkpt lat="43.76387765161118" lon="10.887416046709749"><ele>97.0</ele><time>2026-04-06T09:30:21Z</time></trkpt><trkpt lat="43.76381807580208" lon="10.887492907500407"><ele>97.0</ele><time>2026-04-06T09:30:23.999Z</time></trkpt><trkpt lat="43.76378011961869" lon="10.887585406501792"><ele>97.00000000000001</ele><time>2026-04-06T09:30:26.999Z</time></trkpt><trkpt lat="43.76373889310978" lon="10.887678250636505"><ele>97.0</ele><time>2026-04-06T09:30:29.999Z</time></trkpt><trkpt lat="43.76369693323155" lon="10.887769163422965"><ele>96.50000000000001</ele><time>2026-04-06T09:30:32.999Z</time></trkpt><trkpt lat="43.76364029327049" lon="10.887840939320252"><ele>96.0</ele><time>2026-04-06T09:30:35.999Z</time></trkpt><trkpt lat="43.76359330642309" lon="10.887930092379685"><ele>95.5</ele><time>2026-04-06T09:30:38.999Z</time></trkpt><trkpt lat="43.763543808376674" lon="10.888014554136976"><ele>95.0</ele><time>2026-04-06T09:30:41.999Z</time></trkpt><trkpt lat="43.76350454711909" lon="10.888108272905159"><ele>94.5</ele><time>2026-04-06T09:30:44.999Z</time></trkpt><trkpt lat="43.76347677044925" lon="10.888210681033273"><ele>94.0</ele><time>2026-04-06T09:30:47.999Z</time></trkpt><trkpt lat="43.76343092310156" lon="10.888292179276254"><ele>93.83333333333333</ele><time>2026-04-06T09:30:50.999Z</time></trkpt><trkpt lat="43.763383634361695" lon="10.888377403842991"><ele>93.66666666666666</ele><time>2026-04-06T09:30:53.999Z</time></trkpt><trkpt lat="43.76333954126226" lon="10.888467420260264"><ele>93.5</ele><time>2026-04-06T09:30:56.999Z</time></trkpt><trkpt lat="43.76327976814716" lon="10.88855327721445"><ele>93.33333333333333</ele><time>2026-04-06T09:30:59.999Z</time></trkpt><trkpt lat="43.76322593706976" lon="10.888629994499837"><ele>93.16666666666667</ele><time>2026-04-06T09:31:02.999Z</time></trkpt><trkpt lat="43.76317918680804" lon="10.888715324852292"><ele>93.0</ele><time>2026-04-06T09:31:05.999Z</time></trkpt><trkpt lat="43.76313348174586" lon="10.8887859898944"><ele>92.33333333333333</ele><time>2026-04-06T09:31:08.999Z</time></trkpt><trkpt lat="43.763082670087016" lon="10.888872444418325"><ele>91.66666666666667</ele><time>2026-04-06T09:31:11.999Z</time></trkpt><trkpt lat="43.76302796443921" lon="10.888960020036098"><ele>91.0</ele><time>2026-04-06T09:31:14.999Z</time></trkpt><trkpt lat="43.76298287886896" lon="10.889033855291814"><ele>90.33333333333334</ele><time>2026-04-06T09:31:17.999Z</time></trkpt><trkpt lat="43.76293573435485" lon="10.889105473696812"><ele>89.66666666666667</ele><time>2026-04-06T09:31:20.999Z</time></trkpt><trkpt lat="43.762891193917596" lon="10.889185236587238"><ele>89.0</ele><time>2026-04-06T09:31:23.999Z</time></trkpt><trkpt lat="43.76283159611525" lon="10.889266344671718"><ele>88.85714285714285</ele><time>2026-04-06T09:31:26.999Z</time></trkpt><trkpt lat="43.76278704117938" lon="10.88934469154159"><ele>88.71428571428571</ele><time>2026-04-06T09:31:29.999Z</time></trkpt><trkpt lat="43.76273863912257" lon="10.889407019418877"><ele>88.57142857142857</ele><time>2026-04-06T09:31:32.999Z</time></trkpt><trkpt lat="43.7626860908712" lon="10.889485146551332"><ele>88.42857142857142</ele><time>2026-04-06T09:31:35.999Z</time></trkpt><trkpt lat="43.76264001062812" lon="10.889560686450205"><ele>88.28571428571428</ele><time>2026-04-06T09:31:38.998Z</time></trkpt><trkpt lat="43.762589248252" lon="10.889629446630149"><ele>88.14285714285714</ele><time>2026-04-06T09:31:41.998Z</time></trkpt><trkpt lat="43.76252834099528" lon="10.889692111175926"><ele>88.0</ele><time>2026-04-06T09:31:44.998Z</time></trkpt><trkpt lat="43.76248322417258" lon="10.889766068291049"><ele>88.0</ele><time>2026-04-06T09:31:47.998Z</time></trkpt><trkpt lat="43.76244080279792" lon="10.889843970422037"><ele>88.0</ele><time>2026-04-06T09:31:50.998Z</time></trkpt><trkpt lat="43.762388603470036" lon="10.889908905078988"><ele>88.0</ele><time>2026-04-06T09:31:53.998Z</time></trkpt><trkpt lat="43.762344189067186" lon="10.889993836411998"><ele>88.0</ele><time>2026-04-06T09:31:56.998Z</time></trkpt><trkpt lat="43.762296109152764" lon="10.890064187255438"><ele>88.0</ele><time>2026-04-06T09:31:59.998Z</time></trkpt><trkpt lat="43.7622355350353" lon="10.89013072418571"><ele>88.0</ele><time>2026-04-06T09:32:03Z</time></trkpt><trkpt lat="43.76218764776698" lon="10.890208628311122"><ele>88.0</ele><time>2026-04-06T09:32:06Z</time></trkpt><trkpt lat="43.76213066862699" lon="10.890269229721897"><ele>88.14285714285714</ele><time>2026-04-06T09:32:09Z</time></trkpt><trkpt lat="43.76208310736783" lon="10.89034794357534"><ele>88.28571428571428</ele><time>2026-04-06T09:32:12Z</time></trkpt><trkpt lat="43.762033407175636" lon="10.890411177459422"><ele>88.42857142857142</ele><time>2026-04-06T09:32:15Z</time></trkpt><trkpt lat="43.76198580966244" lon="10.890481690051441"><ele>88.57142857142857</ele><time>2026-04-06T09:32:18Z</time></trkpt><trkpt lat="43.761939133135535" lon="10.890572739928984"><ele>88.71428571428571</ele><time>2026-04-06T09:32:22Z</time></trkpt><trkpt lat="43.76190802819448" lon="10.890657958744223"><ele>88.85714285714285</ele><time>2026-04-06T09:32:25Z</time></trkpt><trkpt lat="43.76187030989843" lon="10.890737994282505"><ele>89.0</ele><time>2026-04-06T09:32:28Z</time></trkpt><trkpt lat="43.761830677390435" lon="10.89082130673073"><ele>88.99999999999999</ele><time>2026-04-06T09:32:31Z</time></trkpt><trkpt lat="43.76178677115689" lon="10.89089461205407"><ele>89.0</ele><time>2026-04-06T09:32:33.999Z</time></trkpt><trkpt lat="43.76175977281708" lon="10.890978353732233"><ele>89.0</ele><time>2026-04-06T09:32:36.999Z</time></trkpt><trkpt lat="43.761734355753305" lon="10.891072276372459"><ele>89.0</ele><time>2026-04-06T09:32:39.999Z</time></trkpt><trkpt lat="43.76172183469179" lon="10.89117783290001"><ele>89.0</ele><time>2026-04-06T09:32:42.999Z</time></trkpt><trkpt lat="43.7616916748492" lon="10.891278683521142"><ele>88.99999999999999</ele><time>2026-04-06T09:32:45.999Z</time></trkpt><trkpt lat="43.76166162668493" lon="10.89136510215774"><ele>89.0</ele><time>2026-04-06T09:32:48.999Z</time></trkpt><trkpt lat="43.76164722035687" lon="10.891466414349322"><ele>88.83333333333334</ele><time>2026-04-06T09:32:51.999Z</time></trkpt><trkpt lat="43.76161493825107" lon="10.891565459003603"><ele>88.66666666666667</ele><time>2026-04-06T09:32:54.999Z</time></trkpt><trkpt lat="43.7615966229995" lon="10.89165773950675"><ele>88.5</ele><time>2026-04-06T09:32:57.999Z</time></trkpt><trkpt lat="43.7615580857852" lon="10.891760292534487"><ele>88.33333333333333</ele><time>2026-04-06T09:33:00.999Z</time></trkpt><trkpt lat="43.7615303346731" lon="10.891861110490122"><ele>88.16666666666666</ele><time>2026-04-06T09:33:03.999Z</time></trkpt><trkpt lat="43.76149057849767" lon="10.89195399930348"><ele>88.0</ele><time>2026-04-06T09:33:06.999Z</time></trkpt><trkpt lat="43.76146410134385" lon="10.892051330652837"><ele>88.0</ele><time>2026-04-06T09:33:09.999Z</time></trkpt><trkpt lat="43.76144473614318" lon="10.892141640714854"><ele>88.0</ele><time>2026-04-06T09:33:12.999Z</time></trkpt><trkpt lat="43.7614208760723" lon="10.892239567621973"><ele>88.0</ele><time>2026-04-06T09:33:15.999Z</time></trkpt><trkpt lat="43.76139074076005" lon="10.892343427290228"><ele>88.0</ele><time>2026-04-06T09:33:18.999Z</time></trkpt><trkpt lat="43.76137892752519" lon="10.892452317006788"><ele>88.0</ele><time>2026-04-06T09:33:21.999Z</time></trkpt><trkpt lat="43.761335415386895" lon="10.892541056545625"><ele>88.0</ele><time>2026-04-06T09:33:24.999Z</time></trkpt><trkpt lat="43.76134032811318" lon="10.892657465860374"><ele>87.5</ele><time>2026-04-06T09:33:27.999Z</time></trkpt><trkpt lat="43.76132413336073" lon="10.892762909772031"><ele>87.0</ele><time>2026-04-06T09:33:30.999Z</time></trkpt><trkpt lat="43.761319865553354" lon="10.892874846295916"><ele>86.5</ele><time>2026-04-06T09:33:33.999Z</time></trkpt><trkpt lat="43.76131149099968" lon="10.89299014811579"><ele>86.0</ele><time>2026-04-06T09:33:36.999Z</time></trkpt><trkpt lat="43.7612867063384" lon="10.893101308012588"><ele>85.5</ele><time>2026-04-06T09:33:39.999Z</time></trkpt><trkpt lat="43.76127185373347" lon="10.893201588151001"><ele>85.0</ele><time>2026-04-06T09:33:42.999Z</time></trkpt><trkpt lat="43.76125093394344" lon="10.89329922631601"><ele>85.0</ele><time>2026-04-06T09:33:45.999Z</time></trkpt><trkpt lat="43.76124231334169" lon="10.8934102996978"><ele>85.0</ele><time>2026-04-06T09:33:48.998Z</time></trkpt><trkpt lat="43.76123072274786" lon="10.893520486847383"><ele>85.0</ele><time>2026-04-06T09:33:51.998Z</time></trkpt><trkpt lat="43.76121867086765" lon="10.893629553497146"><ele>85.0</ele><time>2026-04-06T09:33:54.998Z</time></trkpt><trkpt lat="43.7612028193527" lon="10.893743440327412"><ele>85.0</ele><time>2026-04-06T09:33:57.998Z</time></trkpt><trkpt lat="43.761195784857286" lon="10.893859396314516"><ele>85.0</ele><time>2026-04-06T09:34:00.998Z</time></trkpt><trkpt lat="43.76118834658563" lon="10.893968889603801"><ele>85.14285714285715</ele><time>2026-04-06T09:34:03.998Z</time></trkpt><trkpt lat="43.76118796740419" lon="10.894059766008468"><ele>85.28571428571428</ele><time>2026-04-06T09:34:06.998Z</time></trkpt><trkpt lat="43.76118284864364" lon="10.894158074928956"><ele>85.42857142857143</ele><time>2026-04-06T09:34:11Z</time></trkpt><trkpt lat="43.76117841786109" lon="10.894257647809354"><ele>85.57142857142858</ele><time>2026-04-06T09:34:15Z</time></trkpt><trkpt lat="43.76117728466062" lon="10.894349468331121"><ele>85.71428571428572</ele><time>2026-04-06T09:34:18Z</time></trkpt><trkpt lat="43.76117438139939" lon="10.894452183848934"><ele>85.85714285714286</ele><time>2026-04-06T09:34:21Z</time></trkpt><trkpt lat="43.7611724563837" lon="10.894554635521631"><ele>86.0</ele><time>2026-04-06T09:34:24Z</time></trkpt><trkpt lat="43.761169257824996" lon="10.894667248349833"><ele>86.0</ele><time>2026-04-06T09:34:27Z</time></trkpt><trkpt lat="43.76116062254795" lon="10.894762717284957"><ele>86.0</ele><time>2026-04-06T09:34:30Z</time></trkpt><trkpt lat="43.76115703492744" lon="10.894888682555358"><ele>86.0</ele><time>2026-04-06T09:34:33Z</time></trkpt><trkpt lat="43.76114953891541" lon="10.894983487230988"><ele>86.0</ele><time>2026-04-06T09:34:35Z</time></trkpt><trkpt lat="43.761155474788666" lon="10.895074594490913"><ele>86.0</ele><time>2026-04-06T09:34:36.999Z</time></trkpt><trkpt lat="43.76116831621496" lon="10.895177213669625"><ele>86.0</ele><time>2026-04-06T09:34:38.999Z</time></trkpt><trkpt lat="43.7611689683415" lon="10.895305146992685"><ele>85.33333333333334</ele><time>2026-04-06T09:34:41.999Z</time></trkpt><trkpt lat="43.76116098698587" lon="10.895391748066247"><ele>84.66666666666667</ele><time>2026-04-06T09:34:43.999Z</time></trkpt><trkpt lat="43.761160101340494" lon="10.895479005070204"><ele>84.0</ele><time>2026-04-06T09:34:45.999Z</time></trkpt><trkpt lat="43.7611684351668" lon="10.895616122629542"><ele>83.33333333333333</ele><time>2026-04-06T09:34:48.999Z</time></trkpt><trkpt lat="43.76116073814679" lon="10.895734089558347"><ele>82.66666666666666</ele><time>2026-04-06T09:34:51.999Z</time></trkpt><trkpt lat="43.76116040516511" lon="10.895850143683223"><ele>82.0</ele><time>2026-04-06T09:34:54.999Z</time></trkpt><trkpt lat="43.76116516870464" lon="10.895947473190688"><ele>81.5</ele><time>2026-04-06T09:34:56.999Z</time></trkpt><trkpt lat="43.76115455585719" lon="10.896044916300594"><ele>81.0</ele><time>2026-04-06T09:34:59.999Z</time></trkpt><trkpt lat="43.76115583156294" lon="10.896164809674023"><ele>80.5</ele><time>2026-04-06T09:35:02.999Z</time></trkpt><trkpt lat="43.761141892888155" lon="10.89628712803664"><ele>80.0</ele><time>2026-04-06T09:35:05.999Z</time></trkpt><trkpt lat="43.76113252267189" lon="10.896407397135937"><ele>79.5</ele><time>2026-04-06T09:35:08.999Z</time></trkpt><trkpt lat="43.761116814351986" lon="10.896495535765741"><ele>79.0</ele><time>2026-04-06T09:35:10.999Z</time></trkpt><trkpt lat="43.76110812506672" lon="10.896582861722033"><ele>79.00000000000001</ele><time>2026-04-06T09:35:12.999Z</time></trkpt><trkpt lat="43.76109191472755" lon="10.896678492083202"><ele>79.0</ele><time>2026-04-06T09:35:14.999Z</time></trkpt><trkpt lat="43.761093651883456" lon="10.896779959143531"><ele>79.0</ele><time>2026-04-06T09:35:17.999Z</time></trkpt><trkpt lat="43.76108191299106" lon="10.896869084655357"><ele>79.0</ele><time>2026-04-06T09:35:19.999Z</time></trkpt><trkpt lat="43.76106583625416" lon="10.896959060980869"><ele>79.0</ele><time>2026-04-06T09:35:21.999Z</time></trkpt><trkpt lat="43.76106145555496" lon="10.897062927257027"><ele>79.00000000000001</ele><time>2026-04-06T09:35:24.999Z</time></trkpt><trkpt lat="43.76106313429496" lon="10.897166302472181"><ele>79.0</ele><time>2026-04-06T09:35:27.999Z</time></trkpt><trkpt lat="43.76105041922523" lon="10.897269690149876"><ele>79.16666666666666</ele><time>2026-04-06T09:35:29.999Z</time></trkpt><trkpt lat="43.76104070454962" lon="10.897378838262586"><ele>79.33333333333333</ele><time>2026-04-06T09:35:32.999Z</time></trkpt><trkpt lat="43.76102447390323" lon="10.897488241032361"><ele>79.5</ele><time>2026-04-06T09:35:35.999Z</time></trkpt><trkpt lat="43.76100036979133" lon="10.897601119649037"><ele>79.66666666666667</ele><time>2026-04-06T09:35:38.999Z</time></trkpt><trkpt lat="43.76098442955189" lon="10.89771618070783"><ele>79.83333333333334</ele><time>2026-04-06T09:35:41.999Z</time></trkpt><trkpt lat="43.76096590281318" lon="10.89781093549369"><ele>80.0</ele><time>2026-04-06T09:35:43.999Z</time></trkpt><trkpt lat="43.76095462492395" lon="10.897927755226306"><ele>80.83333333333334</ele><time>2026-04-06T09:35:46.999Z</time></trkpt><trkpt lat="43.760939592088455" lon="10.898053440157334"><ele>81.66666666666667</ele><time>2026-04-06T09:35:49.999Z</time></trkpt><trkpt lat="43.76095446721013" lon="10.898157222946498"><ele>82.5</ele><time>2026-04-06T09:35:52.998Z</time></trkpt><trkpt lat="43.76097775026353" lon="10.898243442990532"><ele>83.33333333333333</ele><time>2026-04-06T09:35:55.998Z</time></trkpt><trkpt lat="43.76098280978902" lon="10.89834691543053"><ele>84.16666666666666</ele><time>2026-04-06T09:35:58.998Z</time></trkpt><trkpt lat="43.76099784774367" lon="10.898451934743651"><ele>85.0</ele><time>2026-04-06T09:36:01.998Z</time></trkpt><trkpt lat="43.760998157419934" lon="10.898554218873937"><ele>85.0</ele><time>2026-04-06T09:36:04.998Z</time></trkpt><trkpt lat="43.76100273628626" lon="10.898644025331214"><ele>85.0</ele><time>2026-04-06T09:36:07.998Z</time></trkpt><trkpt lat="43.76097216338371" lon="10.898742619843478"><ele>85.0</ele><time>2026-04-06T09:36:10.998Z</time></trkpt><trkpt lat="43.760941216695116" lon="10.898835286934963"><ele>85.0</ele><time>2026-04-06T09:36:13.999Z</time></trkpt><trkpt lat="43.760929823255964" lon="10.89892239842201"><ele>85.0</ele><time>2026-04-06T09:36:16.999Z</time></trkpt><trkpt lat="43.76090003410036" lon="10.899014345841325"><ele>85.0</ele><time>2026-04-06T09:36:19.999Z</time></trkpt><trkpt lat="43.760868878786546" lon="10.899124058501355"><ele>85.0</ele><time>2026-04-06T09:36:22.999Z</time></trkpt><trkpt lat="43.76082826568784" lon="10.899222776416286"><ele>83.85714285714286</ele><time>2026-04-06T09:36:25.999Z</time></trkpt><trkpt lat="43.76079292151069" lon="10.899309724093225"><ele>82.71428571428571</ele><time>2026-04-06T09:36:28.999Z</time></trkpt><trkpt lat="43.76076409568697" lon="10.899389763153764"><ele>81.57142857142857</ele><time>2026-04-06T09:36:31.999Z</time></trkpt><trkpt lat="43.76071716289369" lon="10.899448033261482"><ele>80.42857142857143</ele><time>2026-04-06T09:36:33.999Z</time></trkpt><trkpt lat="43.76066193244442" lon="10.89950110110421"><ele>79.28571428571428</ele><time>2026-04-06T09:36:36.999Z</time></trkpt><trkpt lat="43.76061302373363" lon="10.899572992203119"><ele>78.14285714285714</ele><time>2026-04-06T09:36:39.999Z</time></trkpt><trkpt lat="43.76054302068996" lon="10.899626443414705"><ele>77.0</ele><time>2026-04-06T09:36:42.999Z</time></trkpt><trkpt lat="43.76048431748779" lon="10.899672240836603"><ele>77.0</ele><time>2026-04-06T09:36:45.999Z</time></trkpt><trkpt lat="43.76041287245958" lon="10.899703528162165"><ele>77.0</ele><time>2026-04-06T09:36:48.999Z</time></trkpt><trkpt lat="43.760323680598894" lon="10.899686384458668"><ele>77.0</ele><time>2026-04-06T09:36:51.999Z</time></trkpt><trkpt lat="43.76024498338443" lon="10.899709123183088"><ele>77.0</ele><time>2026-04-06T09:36:54.999Z</time></trkpt><trkpt lat="43.76016097840464" lon="10.899710341178114"><ele>77.0</ele><time>2026-04-06T09:36:57.999Z</time></trkpt><trkpt lat="43.760091459289605" lon="10.899767478739852"><ele>77.0</ele><time>2026-04-06T09:37:00.999Z</time></trkpt><trkpt lat="43.76000775432863" lon="10.899777947815485"><ele>76.16666666666667</ele><time>2026-04-06T09:37:03.999Z</time></trkpt><trkpt lat="43.75993922703321" lon="10.899826294625653"><ele>75.33333333333334</ele><time>2026-04-06T09:37:06.999Z</time></trkpt><trkpt lat="43.75987548163849" lon="10.899803490285981"><ele>74.5</ele><time>2026-04-06T09:37:08.999Z</time></trkpt><trkpt lat="43.759807262431195" lon="10.899781973098179"><ele>73.66666666666667</ele><time>2026-04-06T09:37:11.999Z</time></trkpt><trkpt lat="43.75973702711389" lon="10.899768552415713"><ele>72.83333333333333</ele><time>2026-04-06T09:37:13.999Z</time></trkpt><trkpt lat="43.759662156561966" lon="10.899814422921732"><ele>72.0</ele><time>2026-04-06T09:37:16.999Z</time></trkpt><trkpt lat="43.75963289157146" lon="10.899946712695199"><ele>72.0</ele><time>2026-04-06T09:37:19.999Z</time></trkpt><trkpt lat="43.75960756584068" lon="10.900047391270096"><ele>72.0</ele><time>2026-04-06T09:37:22.999Z</time></trkpt><trkpt lat="43.75957903639993" lon="10.900152959819618"><ele>72.0</ele><time>2026-04-06T09:37:25.999Z</time></trkpt><trkpt lat="43.759557295633535" lon="10.900245546406808"><ele>72.0</ele><time>2026-04-06T09:37:27.999Z</time></trkpt><trkpt lat="43.75953601784903" lon="10.900353076214547"><ele>72.0</ele><time>2026-04-06T09:37:30.999Z</time></trkpt><trkpt lat="43.75951601060688" lon="10.900455298574935"><ele>72.0</ele><time>2026-04-06T09:37:33.999Z</time></trkpt><trkpt lat="43.75950290357667" lon="10.900561469117262"><ele>70.83333333333333</ele><time>2026-04-06T09:37:36.999Z</time></trkpt><trkpt lat="43.75947617551946" lon="10.900662418790436"><ele>69.66666666666667</ele><time>2026-04-06T09:37:39.999Z</time></trkpt><trkpt lat="43.759455753491615" lon="10.900785621378452"><ele>68.5</ele><time>2026-04-06T09:37:42.999Z</time></trkpt><trkpt lat="43.75945492258065" lon="10.900894751527686"><ele>67.33333333333334</ele><time>2026-04-06T09:37:45.999Z</time></trkpt><trkpt lat="43.75942906410185" lon="10.900996481330186"><ele>66.16666666666667</ele><time>2026-04-06T09:37:48.998Z</time></trkpt><trkpt lat="43.759407070917945" lon="10.901088212454175"><ele>65.0</ele><time>2026-04-06T09:37:51.998Z</time></trkpt><trkpt lat="43.759369492025705" lon="10.901188771814947"><ele>63.16666666666667</ele><time>2026-04-06T09:37:54.998Z</time></trkpt><trkpt lat="43.75933530449413" lon="10.901298516232325"><ele>61.333333333333336</ele><time>2026-04-06T09:37:57.998Z</time></trkpt><trkpt lat="43.75927854435367" lon="10.901390525179304"><ele>59.5</ele><time>2026-04-06T09:38:00.998Z</time></trkpt><trkpt lat="43.75921172817123" lon="10.901468053147452"><ele>57.66666666666667</ele><time>2026-04-06T09:38:03.998Z</time></trkpt><trkpt lat="43.75917811425941" lon="10.90157806414736"><ele>55.833333333333336</ele><time>2026-04-06T09:38:06.998Z</time></trkpt><trkpt lat="43.75913593471976" lon="10.901668360418567"><ele>54.0</ele><time>2026-04-06T09:38:09.998Z</time></trkpt><trkpt lat="43.75908023791939" lon="10.901742559223225"><ele>53.57142857142857</ele><time>2026-04-06T09:38:12.998Z</time></trkpt><trkpt lat="43.759043524841275" lon="10.90181374558604"><ele>53.14285714285714</ele><time>2026-04-06T09:38:14.998Z</time></trkpt><trkpt lat="43.75899414828856" lon="10.90191173206392"><ele>52.714285714285715</ele><time>2026-04-06T09:38:17.998Z</time></trkpt><trkpt lat="43.75894187604787" lon="10.901997482795638"><ele>52.285714285714285</ele><time>2026-04-06T09:38:21Z</time></trkpt><trkpt lat="43.75888851226169" lon="10.902078853048646"><ele>51.85714285714286</ele><time>2026-04-06T09:38:24Z</time></trkpt><trkpt lat="43.758857921576244" lon="10.902155923875675"><ele>51.42857142857143</ele><time>2026-04-06T09:38:26Z</time></trkpt><trkpt lat="43.758830168692334" lon="10.90224010460667"><ele>51.0</ele><time>2026-04-06T09:38:28Z</time></trkpt><trkpt lat="43.75879063459441" lon="10.902323635265727"><ele>51.0</ele><time>2026-04-06T09:38:31Z</time></trkpt><trkpt lat="43.75875704072816" lon="10.902400051340466"><ele>51.0</ele><time>2026-04-06T09:38:33Z</time></trkpt><trkpt lat="43.75871373913333" lon="10.902516344847687"><ele>51.0</ele><time>2026-04-06T09:38:36Z</time></trkpt><trkpt lat="43.758690624408494" lon="10.902633079482998"><ele>51.0</ele><time>2026-04-06T09:38:39Z</time></trkpt><trkpt lat="43.75866121360771" lon="10.902712229560558"><ele>51.0</ele><time>2026-04-06T09:38:41Z</time></trkpt><trkpt lat="43.758642426852575" lon="10.902800163848736"><ele>51.0</ele><time>2026-04-06T09:38:42.999Z</time></trkpt><trkpt lat="43.75862502747529" lon="10.902892704748254"><ele>51.0</ele><time>2026-04-06T09:38:45.999Z</time></trkpt><trkpt lat="43.75859998847007" lon="10.902977886275956"><ele>49.5</ele><time>2026-04-06T09:38:47.999Z</time></trkpt><trkpt lat="43.75855027552221" lon="10.903077803545528"><ele>48.0</ele><time>2026-04-06T09:38:50.999Z</time></trkpt><trkpt lat="43.75851247729373" lon="10.90318938272417"><ele>46.5</ele><time>2026-04-06T09:38:53.999Z</time></trkpt><trkpt lat="43.758480155722" lon="10.903300107473987"><ele>45.0</ele><time>2026-04-06T09:38:56.999Z</time></trkpt><trkpt lat="43.75844337166413" lon="10.90338972458146"><ele>43.5</ele><time>2026-04-06T09:38:59.999Z</time></trkpt><trkpt lat="43.75840849399546" lon="10.903476403375056"><ele>42.0</ele><time>2026-04-06T09:39:01.999Z</time></trkpt><trkpt lat="43.758379985898834" lon="10.903586173322642"><ele>40.333333333333336</ele><time>2026-04-06T09:39:04.999Z</time></trkpt><trkpt lat="43.75833828183386" lon="10.903685886166393"><ele>38.666666666666664</ele><time>2026-04-06T09:39:07.999Z</time></trkpt><trkpt lat="43.7582998415105" lon="10.903799226693673"><ele>37.0</ele><time>2026-04-06T09:39:10.999Z</time></trkpt><trkpt lat="43.75827597983803" lon="10.903928593140094"><ele>35.33333333333333</ele><time>2026-04-06T09:39:13.999Z</time></trkpt><trkpt lat="43.75826200692621" lon="10.904053523769335"><ele>33.666666666666664</ele><time>2026-04-06T09:39:16.999Z</time></trkpt><trkpt lat="43.75825640271247" lon="10.904144436536104"><ele>32.0</ele><time>2026-04-06T09:39:18.999Z</time></trkpt><trkpt lat="43.758246306036774" lon="10.904233997561933"><ele>31.666666666666664</ele><time>2026-04-06T09:39:20.999Z</time></trkpt><trkpt lat="43.758217658935955" lon="10.904356744136816"><ele>31.333333333333332</ele><time>2026-04-06T09:39:23.999Z</time></trkpt><trkpt lat="43.7581920241968" lon="10.904459439686107"><ele>31.0</ele><time>2026-04-06T09:39:26.999Z</time></trkpt><trkpt lat="43.75815213590555" lon="10.904550664475343"><ele>30.666666666666664</ele><time>2026-04-06T09:39:29.999Z</time></trkpt><trkpt lat="43.75809830085877" lon="10.904602568701108"><ele>30.333333333333332</ele><time>2026-04-06T09:39:32.999Z</time></trkpt><trkpt lat="43.75802322333091" lon="10.904584831058864"><ele>30.0</ele><time>2026-04-06T09:39:35.999Z</time></trkpt><trkpt lat="43.75794724156414" lon="10.904576742115117"><ele>30.0</ele><time>2026-04-06T09:39:38.999Z</time></trkpt><trkpt lat="43.75786737462273" lon="10.904549730514027"><ele>30.0</ele><time>2026-04-06T09:39:41.999Z</time></trkpt><trkpt lat="43.757791986708895" lon="10.904543752488019"><ele>30.0</ele><time>2026-04-06T09:39:44.999Z</time></trkpt><trkpt lat="43.75771359879937" lon="10.904531811325633"><ele>30.0</ele><time>2026-04-06T09:39:47.999Z</time></trkpt><trkpt lat="43.757639960506594" lon="10.904539153610962"><ele>30.0</ele><time>2026-04-06T09:39:50.999Z</time></trkpt><trkpt lat="43.75755901510483" lon="10.904555642160023"><ele>30.0</ele><time>2026-04-06T09:39:53.999Z</time></trkpt><trkpt lat="43.757494671680604" lon="10.904531060254595"><ele>30.0</ele><time>2026-04-06T09:39:55.999Z</time></trkpt><trkpt lat="43.757418704300996" lon="10.904533157681739"><ele>30.0</ele><time>2026-04-06T09:39:58.999Z</time></trkpt><trkpt lat="43.75733445083509" lon="10.904528499916658"><ele>30.0</ele><time>2026-04-06T09:40:01.999Z</time></trkpt><trkpt lat="43.757253679296355" lon="10.904524352294983"><ele>30.0</ele><time>2026-04-06T09:40:04.998Z</time></trkpt><trkpt lat="43.757177858546704" lon="10.904498318751005"><ele>30.0</ele><time>2026-04-06T09:40:07.998Z</time></trkpt><trkpt lat="43.7570984107508" lon="10.90449730695769"><ele>30.0</ele><time>2026-04-06T09:40:10.998Z</time></trkpt><trkpt lat="43.7570116950578" lon="10.904520914023353"><ele>30.0</ele><time>2026-04-06T09:40:13.998Z</time></trkpt><trkpt lat="43.75696323128182" lon="10.90458407010833"><ele>30.0</ele><time>2026-04-06T09:40:15.998Z</time></trkpt><trkpt lat="43.75695716217382" lon="10.904674076710007"><ele>30.0</ele><time>2026-04-06T09:40:17.998Z</time></trkpt><trkpt lat="43.756936213621636" lon="10.904757288160107"><ele>30.0</ele><time>2026-04-06T09:40:19.998Z</time></trkpt><trkpt lat="43.756901712950736" lon="10.904860254450185"><ele>30.0</ele><time>2026-04-06T09:40:22.998Z</time></trkpt><trkpt lat="43.75687420812477" lon="10.904960598605621"><ele>30.0</ele><time>2026-04-06T09:40:26Z</time></trkpt><trkpt lat="43.756846223238966" lon="10.905065544293244"><ele>30.0</ele><time>2026-04-06T09:40:29Z</time></trkpt><trkpt lat="43.756819203085726" lon="10.90516391703369"><ele>29.857142857142858</ele><time>2026-04-06T09:40:32Z</time></trkpt><trkpt lat="43.756788713510474" lon="10.905249790561593"><ele>29.714285714285715</ele><time>2026-04-06T09:40:35Z</time></trkpt><trkpt lat="43.75677072013625" lon="10.905346726516404"><ele>29.571428571428573</ele><time>2026-04-06T09:40:38Z</time></trkpt><trkpt lat="43.756771816214396" lon="10.905444422051632"><ele>29.42857142857143</ele><time>2026-04-06T09:40:41Z</time></trkpt><trkpt lat="43.75672353690813" lon="10.90552684884549"><ele>29.285714285714285</ele><time>2026-04-06T09:40:44Z</time></trkpt><trkpt lat="43.756696043292536" lon="10.905623622585104"><ele>29.142857142857146</ele><time>2026-04-06T09:40:47Z</time></trkpt><trkpt lat="43.7566779200048" lon="10.905717781689976"><ele>29.000000000000004</ele><time>2026-04-06T09:40:50Z</time></trkpt><trkpt lat="43.756637119425875" lon="10.90582721129753"><ele>28.999999999999996</ele><time>2026-04-06T09:40:54Z</time></trkpt><trkpt lat="43.75661416953139" lon="10.905914981160427"><ele>29.0</ele><time>2026-04-06T09:40:56.999Z</time></trkpt><trkpt lat="43.75659066360748" lon="10.906003238525358"><ele>29.0</ele><time>2026-04-06T09:40:59.999Z</time></trkpt><trkpt lat="43.75655696679218" lon="10.906105206962211"><ele>29.0</ele><time>2026-04-06T09:41:02.999Z</time></trkpt><trkpt lat="43.756533604569476" lon="10.906200318437373"><ele>28.999999999999996</ele><time>2026-04-06T09:41:05.999Z</time></trkpt><trkpt lat="43.75650675834974" lon="10.90629190906104"><ele>29.0</ele><time>2026-04-06T09:41:08.999Z</time></trkpt><trkpt lat="43.756465892022106" lon="10.906403818502039"><ele>29.000000000000004</ele><time>2026-04-06T09:41:12.999Z</time></trkpt><trkpt lat="43.7564103622759" lon="10.906483650128738"><ele>29.0</ele><time>2026-04-06T09:41:16.999Z</time></trkpt><trkpt lat="43.756380745757994" lon="10.90656755137334"><ele>29.000000000000004</ele><time>2026-04-06T09:41:19.999Z</time></trkpt><trkpt lat="43.75632849850259" lon="10.906619406149728"><ele>29.000000000000004</ele><time>2026-04-06T09:41:22.999Z</time></trkpt><trkpt lat="43.756328804018544" lon="10.906711363152688"><ele>29.0</ele><time>2026-04-06T09:41:25.999Z</time></trkpt><trkpt lat="43.75632306564114" lon="10.906799106818832"><ele>29.000000000000004</ele><time>2026-04-06T09:41:29.999Z</time></trkpt><trkpt lat="43.756329466402185" lon="10.906891264630312"><ele>29.000000000000004</ele><time>2026-04-06T09:41:39.999Z</time></trkpt><trkpt lat="43.75625541701451" lon="10.906876523657528"><ele>29.285714285714292</ele><time>2026-04-06T09:41:44.999Z</time></trkpt><trkpt lat="43.756212552312796" lon="10.906956787462516"><ele>29.571428571428573</ele><time>2026-04-06T09:41:48.999Z</time></trkpt><trkpt lat="43.75617927858622" lon="10.907036342314447"><ele>29.85714285714286</ele><time>2026-04-06T09:41:51.999Z</time></trkpt><trkpt lat="43.75614432759347" lon="10.90712887039308"><ele>30.142857142857146</ele><time>2026-04-06T09:41:54.999Z</time></trkpt><trkpt lat="43.756096319428885" lon="10.907202881345693"><ele>30.42857142857143</ele><time>2026-04-06T09:41:57.999Z</time></trkpt><trkpt lat="43.756059723985196" lon="10.907282702350285"><ele>30.714285714285715</ele><time>2026-04-06T09:42:00.999Z</time></trkpt><trkpt lat="43.756024390055785" lon="10.907378014239248"><ele>31.0</ele><time>2026-04-06T09:42:03.999Z</time></trkpt><trkpt lat="43.75599876895537" lon="10.90746064280224"><ele>31.0</ele><time>2026-04-06T09:42:06.999Z</time></trkpt><trkpt lat="43.75596591656125" lon="10.907542661345422"><ele>31.000000000000004</ele><time>2026-04-06T09:42:10.999Z</time></trkpt><trkpt lat="43.75591434952798" lon="10.907629555423222"><ele>31.0</ele><time>2026-04-06T09:42:14.998Z</time></trkpt><trkpt lat="43.7558448349948" lon="10.907646003697524"><ele>31.0</ele><time>2026-04-06T09:42:18.998Z</time></trkpt><trkpt lat="43.75577856866441" lon="10.907662740230451"><ele>31.000000000000004</ele><time>2026-04-06T09:42:21.998Z</time></trkpt><trkpt lat="43.755705731136835" lon="10.90767342283824"><ele>31.0</ele><time>2026-04-06T09:42:24.998Z</time></trkpt><trkpt lat="43.755626562941664" lon="10.907688986090541"><ele>31.0</ele><time>2026-04-06T09:42:27.998Z</time></trkpt><trkpt lat="43.75555814042628" lon="10.907745807916006"><ele>31.166666666666668</ele><time>2026-04-06T09:42:31Z</time></trkpt><trkpt lat="43.75554195749889" lon="10.907833480443749"><ele>31.333333333333336</ele><time>2026-04-06T09:42:33Z</time></trkpt><trkpt lat="43.755537737240125" lon="10.907954702836832"><ele>31.5</ele><time>2026-04-06T09:42:36Z</time></trkpt><trkpt lat="43.75553340751797" lon="10.908066166765948"><ele>31.666666666666664</ele><time>2026-04-06T09:42:39Z</time></trkpt><trkpt lat="43.75556204638494" lon="10.908168578544682"><ele>31.833333333333332</ele><time>2026-04-06T09:42:42Z</time></trkpt><trkpt lat="43.75558424157767" lon="10.908268420156984"><ele>32.0</ele><time>2026-04-06T09:42:45Z</time></trkpt><trkpt lat="43.75559676535046" lon="10.908385922507255"><ele>32.14285714285714</ele><time>2026-04-06T09:42:48Z</time></trkpt><trkpt lat="43.75561947930315" lon="10.908476960359483"><ele>32.285714285714285</ele><time>2026-04-06T09:42:51Z</time></trkpt><trkpt lat="43.75563751443068" lon="10.908587078619913"><ele>32.42857142857143</ele><time>2026-04-06T09:42:54Z</time></trkpt><trkpt lat="43.75564402537188" lon="10.908686999611733"><ele>32.57142857142857</ele><time>2026-04-06T09:42:57Z</time></trkpt><trkpt lat="43.755654965418714" lon="10.908782690426436"><ele>32.714285714285715</ele><time>2026-04-06T09:42:59.999Z</time></trkpt><trkpt lat="43.75567650049628" lon="10.908886884349071"><ele>32.857142857142854</ele><time>2026-04-06T09:43:02.999Z</time></trkpt><trkpt lat="43.75570225661977" lon="10.908972525155878"><ele>33.0</ele><time>2026-04-06T09:43:05.999Z</time></trkpt><trkpt lat="43.75571051124681" lon="10.909081738782199"><ele>33.0</ele><time>2026-04-06T09:43:08.999Z</time></trkpt><trkpt lat="43.755725467452166" lon="10.909182146052391"><ele>33.0</ele><time>2026-04-06T09:43:11.999Z</time></trkpt><trkpt lat="43.75575779488808" lon="10.909277862990248"><ele>33.0</ele><time>2026-04-06T09:43:14.999Z</time></trkpt><trkpt lat="43.75578678305615" lon="10.909362112991767"><ele>33.0</ele><time>2026-04-06T09:43:17.999Z</time></trkpt><trkpt lat="43.755805176220925" lon="10.90946574597839"><ele>33.0</ele><time>2026-04-06T09:43:20.999Z</time></trkpt><trkpt lat="43.75582563724692" lon="10.90955116264869"><ele>33.0</ele><time>2026-04-06T09:43:23.999Z</time></trkpt><trkpt lat="43.755842334123436" lon="10.909666926942167"><ele>33.0</ele><time>2026-04-06T09:43:26.999Z</time></trkpt><trkpt lat="43.75584610142515" lon="10.909766533295626"><ele>32.857142857142854</ele><time>2026-04-06T09:43:29.999Z</time></trkpt><trkpt lat="43.755839875978594" lon="10.909862075524973"><ele>32.714285714285715</ele><time>2026-04-06T09:43:32.999Z</time></trkpt><trkpt lat="43.755854032953515" lon="10.909950451400114"><ele>32.57142857142857</ele><time>2026-04-06T09:43:35.999Z</time></trkpt><trkpt lat="43.75586351380394" lon="10.91004410219184"><ele>32.42857142857143</ele><time>2026-04-06T09:43:38.999Z</time></trkpt><trkpt lat="43.755880574446344" lon="10.910150392028502"><ele>32.285714285714285</ele><time>2026-04-06T09:43:41.999Z</time></trkpt><trkpt lat="43.755891495226166" lon="10.91025425183144"><ele>32.14285714285714</ele><time>2026-04-06T09:43:44.999Z</time></trkpt><trkpt lat="43.7559189760858" lon="10.910356254829342"><ele>32.0</ele><time>2026-04-06T09:43:47.999Z</time></trkpt><trkpt lat="43.75595961147105" lon="10.910441064625967"><ele>32.0</ele><time>2026-04-06T09:43:50.999Z</time></trkpt><trkpt lat="43.75598479133373" lon="10.910525065469525"><ele>31.999999999999996</ele><time>2026-04-06T09:43:53.999Z</time></trkpt><trkpt lat="43.75601333887829" lon="10.910614892584249"><ele>32.0</ele><time>2026-04-06T09:43:56.999Z</time></trkpt><trkpt lat="43.75602089657993" lon="10.910707994128323"><ele>32.0</ele><time>2026-04-06T09:43:59.999Z</time></trkpt><trkpt lat="43.756032872403516" lon="10.91080834386774"><ele>31.999999999999996</ele><time>2026-04-06T09:44:02.999Z</time></trkpt><trkpt lat="43.75605708659689" lon="10.910897681258994"><ele>32.0</ele><time>2026-04-06T09:44:05.999Z</time></trkpt><trkpt lat="43.756058663404374" lon="10.911017737664752"><ele>32.0</ele><time>2026-04-06T09:44:09.999Z</time></trkpt><trkpt lat="43.75605091766401" lon="10.911111638283266"><ele>32.42857142857143</ele><time>2026-04-06T09:44:12.999Z</time></trkpt><trkpt lat="43.75605949294123" lon="10.911209593345848"><ele>32.857142857142854</ele><time>2026-04-06T09:44:15.999Z</time></trkpt><trkpt lat="43.756062047648925" lon="10.911307637763905"><ele>33.285714285714285</ele><time>2026-04-06T09:44:18.998Z</time></trkpt><trkpt lat="43.75606975594732" lon="10.911411230722786"><ele>33.714285714285715</ele><time>2026-04-06T09:44:21.998Z</time></trkpt><trkpt lat="43.75608042021135" lon="10.911506817518816"><ele>34.14285714285714</ele><time>2026-04-06T09:44:24.998Z</time></trkpt><trkpt lat="43.756092365347094" lon="10.911602450872742"><ele>34.57142857142857</ele><time>2026-04-06T09:44:27.998Z</time></trkpt><trkpt lat="43.75611346278105" lon="10.911704539715924"><ele>35.0</ele><time>2026-04-06T09:44:30.998Z</time></trkpt><trkpt lat="43.7561488329539" lon="10.911804641606965"><ele>35.0</ele><time>2026-04-06T09:44:33.998Z</time></trkpt><trkpt lat="43.75614275662373" lon="10.911911972333325"><ele>35.0</ele><time>2026-04-06T09:44:37Z</time></trkpt><trkpt lat="43.75615632915399" lon="10.912015626161537"><ele>35.0</ele><time>2026-04-06T09:44:40Z</time></trkpt><trkpt lat="43.75616510406113" lon="10.91210752166497"><ele>35.0</ele><time>2026-04-06T09:44:43Z</time></trkpt><trkpt lat="43.75616965469827" lon="10.912222032180258"><ele>35.0</ele><time>2026-04-06T09:44:46Z</time></trkpt><trkpt lat="43.756203192709805" lon="10.912335662083834"><ele>35.0</ele><time>2026-04-06T09:44:49Z</time></trkpt><trkpt lat="43.756218681445404" lon="10.91243650420817"><ele>35.0</ele><time>2026-04-06T09:44:52Z</time></trkpt><trkpt lat="43.75622945167374" lon="10.912534411219134"><ele>35.0</ele><time>2026-04-06T09:44:55Z</time></trkpt><trkpt lat="43.756250719209824" lon="10.912634849463066"><ele>35.0</ele><time>2026-04-06T09:44:58Z</time></trkpt><trkpt lat="43.75625540952898" lon="10.912737646858146"><ele>35.0</ele><time>2026-04-06T09:45:01Z</time></trkpt><trkpt lat="43.75627262124174" lon="10.912834135123369"><ele>35.0</ele><time>2026-04-06T09:45:04Z</time></trkpt><trkpt lat="43.756290981191185" lon="10.912931354577161"><ele>35.0</ele><time>2026-04-06T09:45:06.999Z</time></trkpt><trkpt lat="43.756290081343465" lon="10.913022186269048"><ele>35.0</ele><time>2026-04-06T09:45:09.999Z</time></trkpt><trkpt lat="43.75627809661433" lon="10.913112164609778"><ele>35.0</ele><time>2026-04-06T09:45:12.999Z</time></trkpt><trkpt lat="43.75626564920075" lon="10.913205651190259"><ele>35.0</ele><time>2026-04-06T09:45:15.999Z</time></trkpt><trkpt lat="43.75628400469196" lon="10.913300785850803"><ele>35.0</ele><time>2026-04-06T09:45:18.999Z</time></trkpt><trkpt lat="43.75627663110096" lon="10.91339518526571"><ele>35.0</ele><time>2026-04-06T09:45:21.999Z</time></trkpt><trkpt lat="43.75628460534639" lon="10.913492006290758"><ele>35.0</ele><time>2026-04-06T09:45:24.999Z</time></trkpt><trkpt lat="43.75629929825764" lon="10.913594592481486"><ele>35.0</ele><time>2026-04-06T09:45:27.999Z</time></trkpt><trkpt lat="43.75627645870263" lon="10.913698387850028"><ele>35.0</ele><time>2026-04-06T09:45:31.999Z</time></trkpt><trkpt lat="43.75626602631291" lon="10.913794762054424"><ele>35.42857142857143</ele><time>2026-04-06T09:45:34.999Z</time></trkpt><trkpt lat="43.75628298071692" lon="10.913901815090139"><ele>35.85714285714286</ele><time>2026-04-06T09:45:37.999Z</time></trkpt><trkpt lat="43.756271249473265" lon="10.913996149566946"><ele>36.285714285714285</ele><time>2026-04-06T09:45:41.999Z</time></trkpt><trkpt lat="43.75628980935694" lon="10.914096356059973"><ele>36.714285714285715</ele><time>2026-04-06T09:45:44.999Z</time></trkpt><trkpt lat="43.75627285578557" lon="10.91419041108237"><ele>37.142857142857146</ele><time>2026-04-06T09:45:47.999Z</time></trkpt><trkpt lat="43.75627160201112" lon="10.91428167158653"><ele>37.57142857142857</ele><time>2026-04-06T09:45:50.999Z</time></trkpt><trkpt lat="43.7562703935907" lon="10.914370790918351"><ele>38.0</ele><time>2026-04-06T09:45:53.999Z</time></trkpt><trkpt lat="43.75627348608683" lon="10.914472952497716"><ele>38.42857142857142</ele><time>2026-04-06T09:45:56.999Z</time></trkpt><trkpt lat="43.75627046739439" lon="10.914563558760038"><ele>38.85714285714286</ele><time>2026-04-06T09:45:59.999Z</time></trkpt><trkpt lat="43.75627446371729" lon="10.91467821393096"><ele>39.285714285714285</ele><time>2026-04-06T09:46:02.999Z</time></trkpt><trkpt lat="43.75625081379262" lon="10.914768539418922"><ele>39.71428571428571</ele><time>2026-04-06T09:46:06.999Z</time></trkpt><trkpt lat="43.75620886458097" lon="10.914848664977065"><ele>40.14285714285714</ele><time>2026-04-06T09:46:09.999Z</time></trkpt><trkpt lat="43.7561656932046" lon="10.914925221701473"><ele>40.57142857142857</ele><time>2026-04-06T09:46:13.999Z</time></trkpt><trkpt lat="43.756102446554685" lon="10.914912791871918"><ele>41.0</ele><time>2026-04-06T09:46:16.999Z</time></trkpt><trkpt lat="43.75601926745986" lon="10.91490079742819"><ele>39.99999999999999</ele><time>2026-04-06T09:46:20.999Z</time></trkpt><trkpt lat="43.755943747901" lon="10.914853091293313"><ele>39.0</ele><time>2026-04-06T09:46:24.999Z</time></trkpt><trkpt lat="43.755880689903925" lon="10.914812691823542"><ele>38.0</ele><time>2026-04-06T09:46:27.998Z</time></trkpt><trkpt lat="43.75581443037525" lon="10.914784895947971"><ele>37.0</ele><time>2026-04-06T09:46:30.998Z</time></trkpt><trkpt lat="43.7557430568902" lon="10.91473561807524"><ele>36.0</ele><time>2026-04-06T09:46:34.998Z</time></trkpt><trkpt lat="43.75567703503429" lon="10.914706691098942"><ele>34.99999999999999</ele><time>2026-04-06T09:46:37.998Z</time></trkpt><trkpt lat="43.755619055843326" lon="10.91466565852167"><ele>34.0</ele><time>2026-04-06T09:46:40.998Z</time></trkpt><trkpt lat="43.755550459478904" lon="10.914643596388148"><ele>34.0</ele><time>2026-04-06T09:46:44Z</time></trkpt><trkpt lat="43.755486534383415" lon="10.914631954769183"><ele>34.0</ele><time>2026-04-06T09:46:47Z</time></trkpt><trkpt lat="43.75540765093746" lon="10.914638522997171"><ele>34.0</ele><time>2026-04-06T09:46:50Z</time></trkpt><trkpt lat="43.755324746522874" lon="10.91466126301856"><ele>34.0</ele><time>2026-04-06T09:46:53Z</time></trkpt><trkpt lat="43.75524945640399" lon="10.914699268826048"><ele>34.0</ele><time>2026-04-06T09:46:56Z</time></trkpt><trkpt lat="43.75517612000577" lon="10.914756488308365"><ele>34.0</ele><time>2026-04-06T09:46:59Z</time></trkpt><trkpt lat="43.75511811001963" lon="10.914830797394174"><ele>34.333333333333336</ele><time>2026-04-06T09:47:02Z</time></trkpt><trkpt lat="43.75506452884907" lon="10.914892403446176"><ele>34.66666666666667</ele><time>2026-04-06T09:47:05Z</time></trkpt><trkpt lat="43.75500779900979" lon="10.914961575870683"><ele>35.0</ele><time>2026-04-06T09:47:08Z</time></trkpt><trkpt lat="43.75498053451605" lon="10.915060166303542"><ele>35.333333333333336</ele><time>2026-04-06T09:47:11Z</time></trkpt><trkpt lat="43.754928505570966" lon="10.91512985422675"><ele>35.666666666666664</ele><time>2026-04-06T09:47:13.999Z</time></trkpt><trkpt lat="43.75489788362238" lon="10.915234543934622"><ele>36.0</ele><time>2026-04-06T09:47:17.999Z</time></trkpt><trkpt lat="43.75484098239372" lon="10.915303234420824"><ele>36.142857142857146</ele><time>2026-04-06T09:47:20.999Z</time></trkpt><trkpt lat="43.75478997605466" lon="10.915369679404536"><ele>36.285714285714285</ele><time>2026-04-06T09:47:23.999Z</time></trkpt><trkpt lat="43.75473868599854" lon="10.915445039941268"><ele>36.42857142857143</ele><time>2026-04-06T09:47:27.999Z</time></trkpt><trkpt lat="43.754694299888435" lon="10.915528538833843"><ele>36.57142857142857</ele><time>2026-04-06T09:47:31.999Z</time></trkpt><trkpt lat="43.75465028726793" lon="10.915611543380301"><ele>36.714285714285715</ele><time>2026-04-06T09:47:35.999Z</time></trkpt><trkpt lat="43.75459650554458" lon="10.91566903068335"><ele>36.85714285714286</ele><time>2026-04-06T09:47:39.999Z</time></trkpt><trkpt lat="43.75456104308229" lon="10.915765749904562"><ele>37.0</ele><time>2026-04-06T09:47:43.999Z</time></trkpt><trkpt lat="43.75452210590183" lon="10.915840040274865"><ele>37.0</ele><time>2026-04-06T09:47:47.999Z</time></trkpt><trkpt lat="43.754477094736444" lon="10.91591915500858"><ele>37.0</ele><time>2026-04-06T09:47:52.999Z</time></trkpt><trkpt lat="43.754438516161414" lon="10.915999649250478"><ele>37.0</ele><time>2026-04-06T09:47:56.999Z</time></trkpt><trkpt lat="43.75440670526399" lon="10.91607547530649"><ele>37.0</ele><time>2026-04-06T09:48:00.999Z</time></trkpt><trkpt lat="43.754363984150466" lon="10.916162615471839"><ele>37.0</ele><time>2026-04-06T09:48:05.999Z</time></trkpt><trkpt lat="43.754322923422045" lon="10.91625149860487"><ele>37.0</ele><time>2026-04-06T09:48:09.999Z</time></trkpt><trkpt lat="43.754281402019615" lon="10.91633133109556"><ele>37.0</ele><time>2026-04-06T09:48:14.999Z</time></trkpt><trkpt lat="43.7542355025517" lon="10.916407648301414"><ele>38.142857142857146</ele><time>2026-04-06T09:48:18.999Z</time></trkpt><trkpt lat="43.75418656488002" lon="10.916492136668838"><ele>39.285714285714285</ele><time>2026-04-06T09:48:23.999Z</time></trkpt><trkpt lat="43.754133113733246" lon="10.916548499470737"><ele>40.42857142857143</ele><time>2026-04-06T09:48:27.999Z</time></trkpt><trkpt lat="43.75410299338084" lon="10.916639826566062"><ele>41.57142857142857</ele><time>2026-04-06T09:48:33.998Z</time></trkpt><trkpt lat="43.75405611455528" lon="10.916722938825275"><ele>42.714285714285715</ele><time>2026-04-06T09:48:37.998Z</time></trkpt><trkpt lat="43.75402732051773" lon="10.916822101527798"><ele>43.857142857142854</ele><time>2026-04-06T09:48:42.998Z</time></trkpt><trkpt lat="43.75399513332244" lon="10.916901149483943"><ele>45.0</ele><time>2026-04-06T09:48:46.998Z</time></trkpt><trkpt lat="43.75397244460514" lon="10.916990636151885"><ele>45.42857142857142</ele><time>2026-04-06T09:48:52Z</time></trkpt><trkpt lat="43.75392577615931" lon="10.917070639515163"><ele>45.85714285714286</ele><time>2026-04-06T09:48:57Z</time></trkpt><trkpt lat="43.75389907568482" lon="10.917159870333284"><ele>46.285714285714285</ele><time>2026-04-06T09:49:02Z</time></trkpt><trkpt lat="43.75385759578436" lon="10.917241209150072"><ele>46.71428571428571</ele><time>2026-04-06T09:49:08Z</time></trkpt><trkpt lat="43.753826224186504" lon="10.917322193664653"><ele>47.14285714285714</ele><time>2026-04-06T09:49:13Z</time></trkpt><trkpt lat="43.753801924659946" lon="10.917403839077988"><ele>47.57142857142857</ele><time>2026-04-06T09:49:18Z</time></trkpt><trkpt lat="43.75376734840755" lon="10.917485906988352"><ele>48.0</ele><time>2026-04-06T09:49:23Z</time></trkpt><trkpt lat="43.753725294857624" lon="10.917569563384"><ele>48.42857142857142</ele><time>2026-04-06T09:49:28.999Z</time></trkpt><trkpt lat="43.75369372753466" lon="10.917664715465483"><ele>48.857142857142854</ele><time>2026-04-06T09:49:34.999Z</time></trkpt><trkpt lat="43.75365400713825" lon="10.9177370392555"><ele>49.285714285714285</ele><time>2026-04-06T09:49:39.999Z</time></trkpt><trkpt lat="43.753611168349934" lon="10.91782241041778"><ele>49.71428571428571</ele><time>2026-04-06T09:49:45.999Z</time></trkpt><trkpt lat="43.7535765707072" lon="10.91791304524599"><ele>50.142857142857146</ele><time>2026-04-06T09:49:51.999Z</time></trkpt><trkpt lat="43.75354424353261" lon="10.91801178544881"><ele>50.57142857142857</ele><time>2026-04-06T09:49:57.999Z</time></trkpt><trkpt lat="43.75350598199706" lon="10.918088473741731"><ele>51.0</ele><time>2026-04-06T09:50:03.999Z</time></trkpt><trkpt lat="43.753467166980855" lon="10.91816834469089"><ele>52.85714285714286</ele><time>2026-04-06T09:50:08.999Z</time></trkpt><trkpt lat="43.753417584820625" lon="10.918250934507636"><ele>54.714285714285715</ele><time>2026-04-06T09:50:14.999Z</time></trkpt><trkpt lat="43.75338327465188" lon="10.91832762278091"><ele>56.57142857142857</ele><time>2026-04-06T09:50:19.999Z</time></trkpt><trkpt lat="43.75334897105689" lon="10.918413455889286"><ele>58.42857142857143</ele><time>2026-04-06T09:50:24.999Z</time></trkpt><trkpt lat="43.75331991699179" lon="10.918500408754369"><ele>60.28571428571428</ele><time>2026-04-06T09:50:29.999Z</time></trkpt><trkpt lat="43.75328452764207" lon="10.918586996424443"><ele>62.14285714285714</ele><time>2026-04-06T09:50:34.999Z</time></trkpt><trkpt lat="43.753252206363" lon="10.918674283014413"><ele>64.0</ele><time>2026-04-06T09:50:39.999Z</time></trkpt><trkpt lat="43.75321516436391" lon="10.918745884549963"><ele>64.42857142857143</ele><time>2026-04-06T09:50:43.999Z</time></trkpt><trkpt lat="43.753209682777744" lon="10.91883288614885"><ele>64.85714285714285</ele><time>2026-04-06T09:50:47.998Z</time></trkpt><trkpt lat="43.75316522459196" lon="10.918907581591492"><ele>65.28571428571428</ele><time>2026-04-06T09:50:52.998Z</time></trkpt><trkpt lat="43.753129405155036" lon="10.918998642724532"><ele>65.71428571428571</ele><time>2026-04-06T09:50:59Z</time></trkpt><trkpt lat="43.753083396676836" lon="10.919077454883764"><ele>66.14285714285714</ele><time>2026-04-06T09:51:04Z</time></trkpt><trkpt lat="43.753043495061256" lon="10.919146855827917"><ele>66.57142857142857</ele><time>2026-04-06T09:51:08Z</time></trkpt><trkpt lat="43.753020791856684" lon="10.919228857591435"><ele>67.0</ele><time>2026-04-06T09:51:12Z</time></trkpt><trkpt lat="43.75296018415701" lon="10.919299106654234"><ele>67.14285714285714</ele><time>2026-04-06T09:51:17Z</time></trkpt><trkpt lat="43.75291667203703" lon="10.919362230520994"><ele>67.28571428571428</ele><time>2026-04-06T09:51:22Z</time></trkpt><trkpt lat="43.75287455621378" lon="10.919435389992644"><ele>67.42857142857142</ele><time>2026-04-06T09:51:26Z</time></trkpt><trkpt lat="43.75284293201845" lon="10.919529132334715"><ele>67.57142857142857</ele><time>2026-04-06T09:51:29.999Z</time></trkpt><trkpt lat="43.75280822438031" lon="10.919613158650709"><ele>67.71428571428571</ele><time>2026-04-06T09:51:33.999Z</time></trkpt><trkpt lat="43.75277443632018" lon="10.919708230713143"><ele>67.85714285714285</ele><time>2026-04-06T09:51:38.999Z</time></trkpt><trkpt lat="43.75273680718666" lon="10.919798224815265"><ele>68.0</ele><time>2026-04-06T09:51:43.999Z</time></trkpt><trkpt lat="43.75268977767385" lon="10.919866684103466"><ele>69.71428571428571</ele><time>2026-04-06T09:51:47.999Z</time></trkpt><trkpt lat="43.7526618908102" lon="10.919950778388678"><ele>71.42857142857143</ele><time>2026-04-06T09:51:51.999Z</time></trkpt><trkpt lat="43.75260855762435" lon="10.9200241822426"><ele>73.14285714285714</ele><time>2026-04-06T09:51:55.999Z</time></trkpt><trkpt lat="43.752564059559774" lon="10.92010939915214"><ele>74.85714285714286</ele><time>2026-04-06T09:52:00.999Z</time></trkpt><trkpt lat="43.75250542324811" lon="10.920168882784496"><ele>76.57142857142857</ele><time>2026-04-06T09:52:04.999Z</time></trkpt><trkpt lat="43.75244067611097" lon="10.920229621788078"><ele>78.28571428571428</ele><time>2026-04-06T09:52:10.999Z</time></trkpt><trkpt lat="43.75239261474434" lon="10.920302999224804"><ele>80.0</ele><time>2026-04-06T09:52:15.999Z</time></trkpt><trkpt lat="43.75232859952336" lon="10.920365243440969"><ele>80.42857142857143</ele><time>2026-04-06T09:52:20.999Z</time></trkpt><trkpt lat="43.75228120640853" lon="10.92044432041891"><ele>80.85714285714286</ele><time>2026-04-06T09:52:24.999Z</time></trkpt><trkpt lat="43.752259736367165" lon="10.920549242752754"><ele>81.28571428571428</ele><time>2026-04-06T09:52:29.999Z</time></trkpt><trkpt lat="43.75225771416788" lon="10.920646482263335"><ele>81.71428571428572</ele><time>2026-04-06T09:52:33.999Z</time></trkpt><trkpt lat="43.75226715540796" lon="10.92074352566369"><ele>82.14285714285715</ele><time>2026-04-06T09:52:37.999Z</time></trkpt><trkpt lat="43.75226859368101" lon="10.920840446124169"><ele>82.57142857142857</ele><time>2026-04-06T09:52:41.999Z</time></trkpt><trkpt lat="43.75227755262445" lon="10.920937814945502"><ele>83.0</ele><time>2026-04-06T09:52:45.999Z</time></trkpt><trkpt lat="43.75227329788663" lon="10.92103090622309"><ele>83.14285714285714</ele><time>2026-04-06T09:52:49.998Z</time></trkpt><trkpt lat="43.75227031399841" lon="10.921132643647134"><ele>83.28571428571429</ele><time>2026-04-06T09:52:53.998Z</time></trkpt><trkpt lat="43.7522770546006" lon="10.921232235474578"><ele>83.42857142857143</ele><time>2026-04-06T09:52:57.998Z</time></trkpt><trkpt lat="43.752258669005464" lon="10.921316148434345"><ele>83.57142857142857</ele><time>2026-04-06T09:53:01Z</time></trkpt><trkpt lat="43.75225833811815" lon="10.9214127872689"><ele>83.71428571428572</ele><time>2026-04-06T09:53:05Z</time></trkpt><trkpt lat="43.75225361575784" lon="10.921517401568924"><ele>83.85714285714286</ele><time>2026-04-06T09:53:09Z</time></trkpt><trkpt lat="43.75223271760385" lon="10.921620801955553"><ele>84.0</ele><time>2026-04-06T09:53:13Z</time></trkpt><trkpt lat="43.75220744545874" lon="10.921720648341475"><ele>83.71428571428571</ele><time>2026-04-06T09:53:17Z</time></trkpt><trkpt lat="43.75220575754368" lon="10.921820547443227"><ele>83.42857142857143</ele><time>2026-04-06T09:53:21Z</time></trkpt><trkpt lat="43.75219486096079" lon="10.921916231640465"><ele>83.14285714285714</ele><time>2026-04-06T09:53:25Z</time></trkpt><trkpt lat="43.752184579256756" lon="10.922009587855674"><ele>82.85714285714286</ele><time>2026-04-06T09:53:28Z</time></trkpt><trkpt lat="43.75216858208451" lon="10.922108918635642"><ele>82.57142857142857</ele><time>2026-04-06T09:53:32Z</time></trkpt><trkpt lat="43.752141595195205" lon="10.922192782249041"><ele>82.28571428571428</ele><time>2026-04-06T09:53:34.999Z</time></trkpt><trkpt lat="43.75212391338128" lon="10.922279290001002"><ele>82.0</ele><time>2026-04-06T09:53:38.999Z</time></trkpt><trkpt lat="43.752083943393195" lon="10.922365555151327"><ele>81.99999999999999</ele><time>2026-04-06T09:53:42.999Z</time></trkpt><trkpt lat="43.75204375824726" lon="10.922434061092403"><ele>82.0</ele><time>2026-04-06T09:53:46.999Z</time></trkpt><trkpt lat="43.751992982551464" lon="10.922513191363961"><ele>82.0</ele><time>2026-04-06T09:53:50.999Z</time></trkpt><trkpt lat="43.75196282446037" lon="10.922613017800185"><ele>82.0</ele><time>2026-04-06T09:53:54.999Z</time></trkpt><trkpt lat="43.751929925868836" lon="10.922688813846042"><ele>82.0</ele><time>2026-04-06T09:53:57.999Z</time></trkpt><trkpt lat="43.751894802714986" lon="10.92276827409117"><ele>81.99999999999999</ele><time>2026-04-06T09:54:00.999Z</time></trkpt><trkpt lat="43.75188785077153" lon="10.922863345731466"><ele>82.0</ele><time>2026-04-06T09:54:03.999Z</time></trkpt><trkpt lat="43.75185107239492" lon="10.922945779757459"><ele>83.66666666666666</ele><time>2026-04-06T09:54:07.999Z</time></trkpt><trkpt lat="43.75183175906586" lon="10.923043902753408"><ele>85.33333333333333</ele><time>2026-04-06T09:54:11.999Z</time></trkpt><trkpt lat="43.7518180694185" lon="10.923140235334731"><ele>87.0</ele><time>2026-04-06T09:54:15.999Z</time></trkpt><trkpt lat="43.75179017516667" lon="10.923238790085065"><ele>88.66666666666667</ele><time>2026-04-06T09:54:19.999Z</time></trkpt><trkpt lat="43.751779212208845" lon="10.92335333092223"><ele>90.33333333333334</ele><time>2026-04-06T09:54:23.999Z</time></trkpt><trkpt lat="43.751748504423006" lon="10.923453433486475"><ele>92.0</ele><time>2026-04-06T09:54:27.999Z</time></trkpt><trkpt lat="43.751713224645684" lon="10.923559079763693"><ele>92.71428571428572</ele><time>2026-04-06T09:54:31.999Z</time></trkpt><trkpt lat="43.7517045064718" lon="10.923663305427254"><ele>93.42857142857142</ele><time>2026-04-06T09:54:35.999Z</time></trkpt><trkpt lat="43.751693636980534" lon="10.923768043086094"><ele>94.14285714285714</ele><time>2026-04-06T09:54:39.999Z</time></trkpt><trkpt lat="43.75170035194941" lon="10.923855119278771"><ele>94.85714285714286</ele><time>2026-04-06T09:54:42.999Z</time></trkpt><trkpt lat="43.75171085365092" lon="10.92396463857075"><ele>95.57142857142858</ele><time>2026-04-06T09:54:46.999Z</time></trkpt><trkpt lat="43.75171345905205" lon="10.92407192358124"><ele>96.28571428571428</ele><time>2026-04-06T09:54:50.999Z</time></trkpt><trkpt lat="43.75171655418512" lon="10.92417088569305"><ele>97.0</ele><time>2026-04-06T09:54:54.999Z</time></trkpt><trkpt lat="43.75169656736368" lon="10.924281289644648"><ele>97.14285714285714</ele><time>2026-04-06T09:54:59.998Z</time></trkpt><trkpt lat="43.7516825745394" lon="10.924389529799237"><ele>97.28571428571429</ele><time>2026-04-06T09:55:04.998Z</time></trkpt><trkpt lat="43.75165837182022" lon="10.924481533492145"><ele>97.42857142857143</ele><time>2026-04-06T09:55:09Z</time></trkpt><trkpt lat="43.751661843620674" lon="10.924580706983706"><ele>97.57142857142857</ele><time>2026-04-06T09:55:13Z</time></trkpt><trkpt lat="43.751634822346695" lon="10.924688427058449"><ele>97.71428571428572</ele><time>2026-04-06T09:55:18Z</time></trkpt><trkpt lat="43.75160122278904" lon="10.924769946113448"><ele>97.85714285714286</ele><time>2026-04-06T09:55:23Z</time></trkpt><trkpt lat="43.75156433454391" lon="10.924857880837004"><ele>98.0</ele><time>2026-04-06T09:55:27Z</time></trkpt><trkpt lat="43.751529567277565" lon="10.924937221981562"><ele>98.0</ele><time>2026-04-06T09:55:30Z</time></trkpt><trkpt lat="43.751537639415254" lon="10.925035303512795"><ele>98.0</ele><time>2026-04-06T09:55:33Z</time></trkpt><trkpt lat="43.75156244483987" lon="10.92513103958417"><ele>98.0</ele><time>2026-04-06T09:55:36Z</time></trkpt><trkpt lat="43.75156531142716" lon="10.925234270783792"><ele>98.0</ele><time>2026-04-06T09:55:39Z</time></trkpt><trkpt lat="43.751587430594384" lon="10.92532014258331"><ele>98.0</ele><time>2026-04-06T09:55:42Z</time></trkpt><trkpt lat="43.751619314110016" lon="10.92541506557382"><ele>98.0</ele><time>2026-04-06T09:55:45Z</time></trkpt><trkpt lat="43.75166086816646" lon="10.925504509821689"><ele>98.0</ele><time>2026-04-06T09:55:47.999Z</time></trkpt><trkpt lat="43.751675179721936" lon="10.925595963881705"><ele>97.28571428571429</ele><time>2026-04-06T09:55:50.999Z</time></trkpt><trkpt lat="43.75166900031338" lon="10.925691043340185"><ele>96.57142857142857</ele><time>2026-04-06T09:55:53.999Z</time></trkpt><trkpt lat="43.75168116853258" lon="10.925785720254558"><ele>95.85714285714286</ele><time>2026-04-06T09:55:56.999Z</time></trkpt><trkpt lat="43.75170093948962" lon="10.92590001241597"><ele>95.14285714285714</ele><time>2026-04-06T09:55:59.999Z</time></trkpt><trkpt lat="43.75169178616307" lon="10.92599337499211"><ele>94.42857142857143</ele><time>2026-04-06T09:56:02.999Z</time></trkpt><trkpt lat="43.75171322566385" lon="10.926088349415348"><ele>93.71428571428572</ele><time>2026-04-06T09:56:05.999Z</time></trkpt><trkpt lat="43.75171631214511" lon="10.926178205360007"><ele>93.0</ele><time>2026-04-06T09:56:07.999Z</time></trkpt><trkpt lat="43.7517126589752" lon="10.92627912551677"><ele>92.0</ele><time>2026-04-06T09:56:10.999Z</time></trkpt><trkpt lat="43.751716326488236" lon="10.926373944644975"><ele>91.0</ele><time>2026-04-06T09:56:13.999Z</time></trkpt><trkpt lat="43.751701206488825" lon="10.926467392267384"><ele>90.0</ele><time>2026-04-06T09:56:16.999Z</time></trkpt><trkpt lat="43.75169039026479" lon="10.926578472088888"><ele>89.0</ele><time>2026-04-06T09:56:19.999Z</time></trkpt><trkpt lat="43.75171084257792" lon="10.926688067233659"><ele>88.0</ele><time>2026-04-06T09:56:22.999Z</time></trkpt><trkpt lat="43.75169781841436" lon="10.926786119191041"><ele>87.0</ele><time>2026-04-06T09:56:25.999Z</time></trkpt><trkpt lat="43.751672383515164" lon="10.926888545643132"><ele>86.33333333333333</ele><time>2026-04-06T09:56:28.999Z</time></trkpt><trkpt lat="43.751668329688115" lon="10.926982730384587"><ele>85.66666666666667</ele><time>2026-04-06T09:56:31.999Z</time></trkpt><trkpt lat="43.751676774991985" lon="10.927096070611652"><ele>85.0</ele><time>2026-04-06T09:56:34.999Z</time></trkpt><trkpt lat="43.7516819390273" lon="10.927208441657587"><ele>84.33333333333334</ele><time>2026-04-06T09:56:37.999Z</time></trkpt><trkpt lat="43.7516765389316" lon="10.927315739252037"><ele>83.66666666666667</ele><time>2026-04-06T09:56:40.999Z</time></trkpt><trkpt lat="43.751695274818715" lon="10.927411832895007"><ele>83.0</ele><time>2026-04-06T09:56:43.999Z</time></trkpt><trkpt lat="43.75170071265253" lon="10.927515732309496"><ele>82.66666666666667</ele><time>2026-04-06T09:56:46.999Z</time></trkpt><trkpt lat="43.75171233492194" lon="10.927606649033644"><ele>82.33333333333334</ele><time>2026-04-06T09:56:49.999Z</time></trkpt><trkpt lat="43.75171312556138" lon="10.927731829069803"><ele>82.0</ele><time>2026-04-06T09:56:53.999Z</time></trkpt><trkpt lat="43.75168888240111" lon="10.927822738354214"><ele>81.66666666666667</ele><time>2026-04-06T09:56:56.999Z</time></trkpt><trkpt lat="43.751684050165714" lon="10.927927059755342"><ele>81.33333333333333</ele><time>2026-04-06T09:56:59.999Z</time></trkpt><trkpt lat="43.75168658937868" lon="10.928041795505356"><ele>81.0</ele><time>2026-04-06T09:57:02.999Z</time></trkpt><trkpt lat="43.75168812571852" lon="10.928160445151612"><ele>81.0</ele><time>2026-04-06T09:57:05.999Z</time></trkpt><trkpt lat="43.75169376731773" lon="10.928279000393056"><ele>81.0</ele><time>2026-04-06T09:57:08.999Z</time></trkpt><trkpt lat="43.75171199985776" lon="10.92839257849704"><ele>81.0</ele><time>2026-04-06T09:57:11.998Z</time></trkpt><trkpt lat="43.751733135367594" lon="10.928496573663224"><ele>81.0</ele><time>2026-04-06T09:57:15Z</time></trkpt><trkpt lat="43.75173187176347" lon="10.928608583013263"><ele>81.0</ele><time>2026-04-06T09:57:18Z</time></trkpt><trkpt lat="43.7517479865739" lon="10.928726546306246"><ele>81.0</ele><time>2026-04-06T09:57:21Z</time></trkpt><trkpt lat="43.75177322880379" lon="10.928832593187307"><ele>80.83333333333333</ele><time>2026-04-06T09:57:24Z</time></trkpt><trkpt lat="43.75179032072289" lon="10.928946343656222"><ele>80.66666666666667</ele><time>2026-04-06T09:57:27Z</time></trkpt><trkpt lat="43.75180677152397" lon="10.929062258620066"><ele>80.5</ele><time>2026-04-06T09:57:30Z</time></trkpt><trkpt lat="43.75183613043483" lon="10.929169309965358"><ele>80.33333333333334</ele><time>2026-04-06T09:57:33Z</time></trkpt><trkpt lat="43.75186427572117" lon="10.929272356701995"><ele>80.16666666666667</ele><time>2026-04-06T09:57:36Z</time></trkpt><trkpt lat="43.75187692152909" lon="10.929374185095027"><ele>80.0</ele><time>2026-04-06T09:57:39Z</time></trkpt><trkpt lat="43.75189702914731" lon="10.929479230882023"><ele>80.0</ele><time>2026-04-06T09:57:42Z</time></trkpt><trkpt lat="43.75192634902599" lon="10.929576393688635"><ele>80.0</ele><time>2026-04-06T09:57:45Z</time></trkpt><trkpt lat="43.75193156196783" lon="10.929688193029904"><ele>80.0</ele><time>2026-04-06T09:57:48Z</time></trkpt><trkpt lat="43.75198034084731" lon="10.929748640541954"><ele>80.0</ele><time>2026-04-06T09:57:50Z</time></trkpt><trkpt lat="43.75206558428504" lon="10.929711225786322"><ele>80.0</ele><time>2026-04-06T09:57:51.999Z</time></trkpt><trkpt lat="43.752128851754755" lon="10.929651548320187"><ele>80.0</ele><time>2026-04-06T09:57:54.999Z</time></trkpt><trkpt lat="43.752190195804545" lon="10.92961841820096"><ele>80.0</ele><time>2026-04-06T09:57:57.999Z</time></trkpt><trkpt lat="43.752264307218795" lon="10.92957982240618"><ele>80.0</ele><time>2026-04-06T09:58:00.999Z</time></trkpt><trkpt lat="43.752331857380405" lon="10.929523673663669"><ele>80.0</ele><time>2026-04-06T09:58:04.999Z</time></trkpt><trkpt lat="43.75240016847464" lon="10.929500672838449"><ele>80.0</ele><time>2026-04-06T09:58:07.999Z</time></trkpt><trkpt lat="43.75247428991997" lon="10.929452824462185"><ele>80.0</ele><time>2026-04-06T09:58:11.999Z</time></trkpt><trkpt lat="43.75255843111866" lon="10.929417776889457"><ele>80.0</ele><time>2026-04-06T09:58:15.999Z</time></trkpt><trkpt lat="43.75261567555127" lon="10.929351128216577"><ele>80.0</ele><time>2026-04-06T09:58:19.999Z</time></trkpt><trkpt lat="43.75268096700679" lon="10.929298616575435"><ele>80.0</ele><time>2026-04-06T09:58:23.999Z</time></trkpt><trkpt lat="43.752757732780054" lon="10.929272947761453"><ele>80.0</ele><time>2026-04-06T09:58:27.999Z</time></trkpt><trkpt lat="43.7528353595337" lon="10.929251762421284"><ele>80.0</ele><time>2026-04-06T09:58:31.999Z</time></trkpt><trkpt lat="43.75289823338977" lon="10.929207564237263"><ele>80.0</ele><time>2026-04-06T09:58:35.999Z</time></trkpt><trkpt lat="43.75296914684295" lon="10.929169238975994"><ele>80.0</ele><time>2026-04-06T09:58:39.999Z</time></trkpt><trkpt lat="43.75303482452178" lon="10.929121965862278"><ele>80.5</ele><time>2026-04-06T09:58:42.999Z</time></trkpt><trkpt lat="43.75309975267098" lon="10.929066349087746"><ele>81.0</ele><time>2026-04-06T09:58:46.999Z</time></trkpt><trkpt lat="43.75316142586314" lon="10.92899969590216"><ele>81.5</ele><time>2026-04-06T09:58:50.999Z</time></trkpt><trkpt lat="43.75321666440736" lon="10.928956036470103"><ele>82.0</ele><time>2026-04-06T09:58:53.999Z</time></trkpt><trkpt lat="43.75328954023527" lon="10.928918781979577"><ele>82.5</ele><time>2026-04-06T09:58:57.999Z</time></trkpt><trkpt lat="43.753357839661035" lon="10.928876597489294"><ele>83.0</ele><time>2026-04-06T09:59:01.999Z</time></trkpt><trkpt lat="43.753437724239426" lon="10.928840703160754"><ele>83.0</ele><time>2026-04-06T09:59:05.999Z</time></trkpt><trkpt lat="43.753517799746504" lon="10.928810614570809"><ele>83.0</ele><time>2026-04-06T09:59:09.999Z</time></trkpt><trkpt lat="43.7535852546353" lon="10.928793481837793"><ele>83.0</ele><time>2026-04-06T09:59:12.999Z</time></trkpt><trkpt lat="43.75365031048988" lon="10.928778451553084"><ele>83.0</ele><time>2026-04-06T09:59:15.998Z</time></trkpt><trkpt lat="43.75371465866455" lon="10.928744889374633"><ele>83.0</ele><time>2026-04-06T09:59:19Z</time></trkpt><trkpt lat="43.753787001512926" lon="10.928717045444834"><ele>83.0</ele><time>2026-04-06T09:59:22Z</time></trkpt><trkpt lat="43.75385336474773" lon="10.928680140021777"><ele>83.0</ele><time>2026-04-06T09:59:25Z</time></trkpt><trkpt lat="43.75391064819499" lon="10.928631812626511"><ele>83.83333333333334</ele><time>2026-04-06T09:59:28Z</time></trkpt><trkpt lat="43.75396672214852" lon="10.928579889322735"><ele>84.66666666666667</ele><time>2026-04-06T09:59:31Z</time></trkpt><trkpt lat="43.75402370103493" lon="10.928529289469779"><ele>85.5</ele><time>2026-04-06T09:59:34Z</time></trkpt><trkpt lat="43.75409711530312" lon="10.928465461780073"><ele>86.33333333333333</ele><time>2026-04-06T09:59:38Z</time></trkpt><trkpt lat="43.75416679415332" lon="10.928410426942893"><ele>87.16666666666666</ele><time>2026-04-06T09:59:42Z</time></trkpt><trkpt lat="43.75423188614137" lon="10.928342901555359"><ele>88.0</ele><time>2026-04-06T09:59:46Z</time></trkpt><trkpt lat="43.75428863790947" lon="10.928288205672851"><ele>88.0</ele><time>2026-04-06T09:59:49Z</time></trkpt><trkpt lat="43.75436951998958" lon="10.928259663106777"><ele>88.0</ele><time>2026-04-06T09:59:53Z</time></trkpt><trkpt lat="43.75443558639444" lon="10.928213473726904"><ele>88.0</ele><time>2026-04-06T09:59:57Z</time></trkpt><trkpt lat="43.754479817929244" lon="10.928143614505116"><ele>88.0</ele><time>2026-04-06T09:59:59.999Z</time></trkpt><trkpt lat="43.754533419881916" lon="10.928096813995774"><ele>88.0</ele><time>2026-04-06T10:00:02.999Z</time></trkpt><trkpt lat="43.754595176820395" lon="10.928074621636542"><ele>88.0</ele><time>2026-04-06T10:00:05.999Z</time></trkpt><trkpt lat="43.7546713913926" lon="10.928052067266343"><ele>88.0</ele><time>2026-04-06T10:00:09.999Z</time></trkpt><trkpt lat="43.75473439424012" lon="10.928041142252377"><ele>87.14285714285714</ele><time>2026-04-06T10:00:12.999Z</time></trkpt><trkpt lat="43.75479823358466" lon="10.928019329863789"><ele>86.28571428571428</ele><time>2026-04-06T10:00:15.999Z</time></trkpt><trkpt lat="43.7548611326428" lon="10.92800068406498"><ele>85.42857142857142</ele><time>2026-04-06T10:00:18.999Z</time></trkpt><trkpt lat="43.75494078284456" lon="10.928031460979373"><ele>84.57142857142857</ele><time>2026-04-06T10:00:22.999Z</time></trkpt><trkpt lat="43.755007976542885" lon="10.928021135034781"><ele>83.71428571428571</ele><time>2026-04-06T10:00:25.999Z</time></trkpt><trkpt lat="43.75508747853373" lon="10.928035977158912"><ele>82.85714285714285</ele><time>2026-04-06T10:00:29.999Z</time></trkpt><trkpt lat="43.75515981165783" lon="10.9280767585043"><ele>82.0</ele><time>2026-04-06T10:00:33.999Z</time></trkpt><trkpt lat="43.755221999012605" lon="10.928123998975384"><ele>81.99999999999999</ele><time>2026-04-06T10:00:36.999Z</time></trkpt><trkpt lat="43.755279690289925" lon="10.928179497323873"><ele>82.0</ele><time>2026-04-06T10:00:39.999Z</time></trkpt><trkpt lat="43.755334176739886" lon="10.928243200287524"><ele>82.0</ele><time>2026-04-06T10:00:42.999Z</time></trkpt><trkpt lat="43.75539280602302" lon="10.928309345898318"><ele>82.0</ele><time>2026-04-06T10:00:45.999Z</time></trkpt><trkpt lat="43.75543743090652" lon="10.928374955313116"><ele>82.0</ele><time>2026-04-06T10:00:48.999Z</time></trkpt><trkpt lat="43.75549566033183" lon="10.928423780123326"><ele>81.99999999999999</ele><time>2026-04-06T10:00:51.999Z</time></trkpt><trkpt lat="43.75556506759044" lon="10.92844569270234"><ele>82.0</ele><time>2026-04-06T10:00:54.999Z</time></trkpt><trkpt lat="43.755625879312674" lon="10.928499733648872"><ele>81.99999999999999</ele><time>2026-04-06T10:00:57.999Z</time></trkpt><trkpt lat="43.75569203570721" lon="10.92854009219944"><ele>82.0</ele><time>2026-04-06T10:01:00.999Z</time></trkpt><trkpt lat="43.75575053048543" lon="10.92859956761497"><ele>82.0</ele><time>2026-04-06T10:01:03.999Z</time></trkpt><trkpt lat="43.75582257066515" lon="10.928643806038709"><ele>82.0</ele><time>2026-04-06T10:01:07.999Z</time></trkpt><trkpt lat="43.75588922617285" lon="10.928669703689064"><ele>82.0</ele><time>2026-04-06T10:01:10.999Z</time></trkpt><trkpt lat="43.75595971048924" lon="10.928706657131276"><ele>81.99999999999999</ele><time>2026-04-06T10:01:13.999Z</time></trkpt><trkpt lat="43.75602874125303" lon="10.928736578820786"><ele>82.0</ele><time>2026-04-06T10:01:16.999Z</time></trkpt><trkpt lat="43.75609193870935" lon="10.928770496966415"><ele>83.14285714285714</ele><time>2026-04-06T10:01:19.999Z</time></trkpt><trkpt lat="43.75615514408775" lon="10.928774284500326"><ele>84.28571428571428</ele><time>2026-04-06T10:01:22.999Z</time></trkpt><trkpt lat="43.75623125314996" lon="10.928809862984183"><ele>85.42857142857142</ele><time>2026-04-06T10:01:27Z</time></trkpt><trkpt lat="43.75630762795625" lon="10.92882345815981"><ele>86.57142857142857</ele><time>2026-04-06T10:01:30Z</time></trkpt><trkpt lat="43.75637277810762" lon="10.928837475865143"><ele>87.71428571428572</ele><time>2026-04-06T10:01:33Z</time></trkpt><trkpt lat="43.75644484185166" lon="10.928858835465894"><ele>88.85714285714285</ele><time>2026-04-06T10:01:36Z</time></trkpt><trkpt lat="43.7565198282712" lon="10.92886182502232"><ele>90.0</ele><time>2026-04-06T10:01:40Z</time></trkpt><trkpt lat="43.756590680859716" lon="10.928886396677"><ele>90.0</ele><time>2026-04-06T10:01:43Z</time></trkpt><trkpt lat="43.75665402779007" lon="10.928922824323678"><ele>90.0</ele><time>2026-04-06T10:01:46Z</time></trkpt><trkpt lat="43.7567264176179" lon="10.928941199473911"><ele>90.0</ele><time>2026-04-06T10:01:49Z</time></trkpt><trkpt lat="43.756796021519705" lon="10.928948177209755"><ele>90.0</ele><time>2026-04-06T10:01:52Z</time></trkpt><trkpt lat="43.75686141685668" lon="10.928958783313282"><ele>90.0</ele><time>2026-04-06T10:01:55Z</time></trkpt><trkpt lat="43.756935298669205" lon="10.928977869181942"><ele>90.0</ele><time>2026-04-06T10:01:58Z</time></trkpt><trkpt lat="43.75701208617654" lon="10.928975622483106"><ele>90.0</ele><time>2026-04-06T10:02:01Z</time></trkpt><trkpt lat="43.75709082061003" lon="10.928953190801893"><ele>90.14285714285714</ele><time>2026-04-06T10:02:05Z</time></trkpt><trkpt lat="43.75717263631727" lon="10.928957236942018"><ele>90.28571428571429</ele><time>2026-04-06T10:02:07.999Z</time></trkpt><trkpt lat="43.7572358097215" lon="10.928956690345714"><ele>90.42857142857143</ele><time>2026-04-06T10:02:10.999Z</time></trkpt><trkpt lat="43.75731339532636" lon="10.928945472375522"><ele>90.57142857142857</ele><time>2026-04-06T10:02:13.999Z</time></trkpt><trkpt lat="43.75737881852641" lon="10.928958511604273"><ele>90.71428571428572</ele><time>2026-04-06T10:02:16.999Z</time></trkpt><trkpt lat="43.75744541954452" lon="10.928975931359483"><ele>90.85714285714286</ele><time>2026-04-06T10:02:19.999Z</time></trkpt><trkpt lat="43.75751985988413" lon="10.928984071138835"><ele>91.0</ele><time>2026-04-06T10:02:22.999Z</time></trkpt><trkpt lat="43.75758524412304" lon="10.928964743707477"><ele>91.0</ele><time>2026-04-06T10:02:25.999Z</time></trkpt><trkpt lat="43.7576572549389" lon="10.928968872707781"><ele>91.0</ele><time>2026-04-06T10:02:28.999Z</time></trkpt><trkpt lat="43.757721532104696" lon="10.928971247611127"><ele>91.0</ele><time>2026-04-06T10:02:31.999Z</time></trkpt><trkpt lat="43.75780557661494" lon="10.928957243685062"><ele>91.0</ele><time>2026-04-06T10:02:35.999Z</time></trkpt><trkpt lat="43.75788494489655" lon="10.928929385119288"><ele>91.0</ele><time>2026-04-06T10:02:38.999Z</time></trkpt><trkpt lat="43.75795092904798" lon="10.928914910649944"><ele>91.0</ele><time>2026-04-06T10:02:41.999Z</time></trkpt><trkpt lat="43.75800220208745" lon="10.928845153123127"><ele>91.0</ele><time>2026-04-06T10:02:44.999Z</time></trkpt><trkpt lat="43.758073773316006" lon="10.928806533789928"><ele>91.0</ele><time>2026-04-06T10:02:47.999Z</time></trkpt><trkpt lat="43.758143181975086" lon="10.928745878262708"><ele>91.0</ele><time>2026-04-06T10:02:51.999Z</time></trkpt><trkpt lat="43.758210552910136" lon="10.928703294297843"><ele>91.0</ele><time>2026-04-06T10:02:54.999Z</time></trkpt><trkpt lat="43.758273566164554" lon="10.92866443956823"><ele>91.0</ele><time>2026-04-06T10:02:57.999Z</time></trkpt><trkpt lat="43.75834306479773" lon="10.928624839052329"><ele>91.0</ele><time>2026-04-06T10:03:00.999Z</time></trkpt><trkpt lat="43.758402329234606" lon="10.928576453173369"><ele>91.0</ele><time>2026-04-06T10:03:03.999Z</time></trkpt><trkpt lat="43.75846680535463" lon="10.928554928476572"><ele>91.0</ele><time>2026-04-06T10:03:06.999Z</time></trkpt><trkpt lat="43.7585491096031" lon="10.928507522800414"><ele>90.57142857142857</ele><time>2026-04-06T10:03:10.999Z</time></trkpt><trkpt lat="43.75862737276847" lon="10.928493852125712"><ele>90.14285714285714</ele><time>2026-04-06T10:03:13.999Z</time></trkpt><trkpt lat="43.75869041965413" lon="10.928436609614257"><ele>89.71428571428572</ele><time>2026-04-06T10:03:16.999Z</time></trkpt><trkpt lat="43.758752103771066" lon="10.928389352480139"><ele>89.28571428571428</ele><time>2026-04-06T10:03:19.999Z</time></trkpt><trkpt lat="43.758825411731245" lon="10.92834208417551"><ele>88.85714285714286</ele><time>2026-04-06T10:03:23.999Z</time></trkpt><trkpt lat="43.75889533974421" lon="10.928318346565561"><ele>88.42857142857143</ele><time>2026-04-06T10:03:26.999Z</time></trkpt><trkpt lat="43.75895655006138" lon="10.928286345579808"><ele>88.0</ele><time>2026-04-06T10:03:29.999Z</time></trkpt><trkpt lat="43.759024357107286" lon="10.928249798709256"><ele>88.0</ele><time>2026-04-06T10:03:33Z</time></trkpt><trkpt lat="43.75908537418364" lon="10.928222185044943"><ele>88.0</ele><time>2026-04-06T10:03:36Z</time></trkpt><trkpt lat="43.759139275279146" lon="10.928170827169343"><ele>88.0</ele><time>2026-04-06T10:03:39Z</time></trkpt><trkpt lat="43.759207500815826" lon="10.928132352938912"><ele>88.0</ele><time>2026-04-06T10:03:42Z</time></trkpt><trkpt lat="43.75928085115177" lon="10.928096551041444"><ele>88.0</ele><time>2026-04-06T10:03:45Z</time></trkpt><trkpt lat="43.75933973731547" lon="10.928030475621677"><ele>88.0</ele><time>2026-04-06T10:03:48Z</time></trkpt><trkpt lat="43.759403189666315" lon="10.927988848453118"><ele>88.0</ele><time>2026-04-06T10:03:51Z</time></trkpt><trkpt lat="43.75948108321591" lon="10.92793302616686"><ele>86.16666666666666</ele><time>2026-04-06T10:03:55Z</time></trkpt><trkpt lat="43.75955150555003" lon="10.927895143074172"><ele>84.33333333333333</ele><time>2026-04-06T10:03:59Z</time></trkpt><trkpt lat="43.75962275338054" lon="10.927841924677661"><ele>82.5</ele><time>2026-04-06T10:04:03Z</time></trkpt><trkpt lat="43.759692943609124" lon="10.927811877409457"><ele>80.66666666666667</ele><time>2026-04-06T10:04:06Z</time></trkpt><trkpt lat="43.75977028314087" lon="10.92778763367178"><ele>78.83333333333334</ele><time>2026-04-06T10:04:09Z</time></trkpt><trkpt lat="43.759828983470385" lon="10.927727614986692"><ele>77.0</ele><time>2026-04-06T10:04:12Z</time></trkpt><trkpt lat="43.759903069881126" lon="10.927691664361085"><ele>77.0</ele><time>2026-04-06T10:04:15Z</time></trkpt><trkpt lat="43.759961473549204" lon="10.92762365986959"><ele>77.0</ele><time>2026-04-06T10:04:18Z</time></trkpt><trkpt lat="43.76001020923614" lon="10.927566127409643"><ele>77.0</ele><time>2026-04-06T10:04:21Z</time></trkpt><trkpt lat="43.76007604134189" lon="10.927513067800213"><ele>77.0</ele><time>2026-04-06T10:04:23.999Z</time></trkpt><trkpt lat="43.76012707815521" lon="10.927440154594294"><ele>77.0</ele><time>2026-04-06T10:04:26.999Z</time></trkpt><trkpt lat="43.760187427186764" lon="10.927370569595002"><ele>77.0</ele><time>2026-04-06T10:04:29.999Z</time></trkpt><trkpt lat="43.76025056587321" lon="10.927307750291924"><ele>77.0</ele><time>2026-04-06T10:04:32.999Z</time></trkpt><trkpt lat="43.76030488575577" lon="10.927230714031408"><ele>77.66666666666667</ele><time>2026-04-06T10:04:35.999Z</time></trkpt><trkpt lat="43.76036569444437" lon="10.927160283295498"><ele>78.33333333333334</ele><time>2026-04-06T10:04:38.999Z</time></trkpt><trkpt lat="43.76041840895395" lon="10.927084935043917"><ele>79.0</ele><time>2026-04-06T10:04:41.999Z</time></trkpt><trkpt lat="43.76047488794102" lon="10.927011310486321"><ele>79.66666666666667</ele><time>2026-04-06T10:04:44.999Z</time></trkpt><trkpt lat="43.760523534037986" lon="10.926932089564465"><ele>80.33333333333333</ele><time>2026-04-06T10:04:47.999Z</time></trkpt><trkpt lat="43.76057021672486" lon="10.926853632293675"><ele>81.0</ele><time>2026-04-06T10:04:50.999Z</time></trkpt><trkpt lat="43.76061641009112" lon="10.92677796335129"><ele>82.8</ele><time>2026-04-06T10:04:53.999Z</time></trkpt><trkpt lat="43.760684302793024" lon="10.926713930598348"><ele>84.6</ele><time>2026-04-06T10:04:56.999Z</time></trkpt><trkpt lat="43.76073320142366" lon="10.926658782069229"><ele>86.4</ele><time>2026-04-06T10:04:59.999Z</time></trkpt><trkpt lat="43.76080998811902" lon="10.926631587173786"><ele>88.2</ele><time>2026-04-06T10:05:03.999Z</time></trkpt><trkpt lat="43.76088739802199" lon="10.926576738865936"><ele>90.0</ele><time>2026-04-06T10:05:07.999Z</time></trkpt><trkpt lat="43.76106563497442" lon="10.92652213963716"><ele>90.28571428571428</ele><time>2026-04-06T10:05:16.999Z</time></trkpt><trkpt lat="43.761142636872265" lon="10.926511041584229"><ele>90.57142857142858</ele><time>2026-04-06T10:05:20.999Z</time></trkpt><trkpt lat="43.76121537618194" lon="10.926491839997498"><ele>90.85714285714286</ele><time>2026-04-06T10:05:24.999Z</time></trkpt><trkpt lat="43.76129394150784" lon="10.926493774239784"><ele>91.14285714285714</ele><time>2026-04-06T10:05:28.999Z</time></trkpt><trkpt lat="43.76137156195765" lon="10.926490118451943"><ele>91.42857142857142</ele><time>2026-04-06T10:05:32.999Z</time></trkpt><trkpt lat="43.76144609029837" lon="10.926468293300033"><ele>91.71428571428572</ele><time>2026-04-06T10:05:37Z</time></trkpt><trkpt lat="43.76149989502741" lon="10.92642251672559"><ele>92.0</ele><time>2026-04-06T10:05:40Z</time></trkpt><trkpt lat="43.76157968514377" lon="10.926403307410077"><ele>92.0</ele><time>2026-04-06T10:05:44Z</time></trkpt><trkpt lat="43.76165309123802" lon="10.926375255819764"><ele>92.0</ele><time>2026-04-06T10:05:48Z</time></trkpt><trkpt lat="43.761719708547695" lon="10.92634486832019"><ele>92.0</ele><time>2026-04-06T10:05:53Z</time></trkpt><trkpt lat="43.76178394068207" lon="10.92636251512799"><ele>92.0</ele><time>2026-04-06T10:05:58Z</time></trkpt><trkpt lat="43.76185318620806" lon="10.926347359915798"><ele>92.0</ele><time>2026-04-06T10:06:03Z</time></trkpt><trkpt lat="43.76192668029679" lon="10.926351358332122"><ele>92.0</ele><time>2026-04-06T10:06:07Z</time></trkpt><trkpt lat="43.76198770350166" lon="10.926406914763314"><ele>92.0</ele><time>2026-04-06T10:06:12Z</time></trkpt><trkpt lat="43.76204777506491" lon="10.926436377861531"><ele>92.28571428571429</ele><time>2026-04-06T10:06:16Z</time></trkpt><trkpt lat="43.762091791126934" lon="10.926500536151261"><ele>92.57142857142857</ele><time>2026-04-06T10:06:20Z</time></trkpt><trkpt lat="43.76215114512448" lon="10.926551320068278"><ele>92.85714285714286</ele><time>2026-04-06T10:06:24Z</time></trkpt><trkpt lat="43.76220946409139" lon="10.92661016100849"><ele>93.14285714285714</ele><time>2026-04-06T10:06:27.999Z</time></trkpt><trkpt lat="43.76228603088519" lon="10.92664703613252"><ele>93.42857142857142</ele><time>2026-04-06T10:06:31.999Z</time></trkpt><trkpt lat="43.76235886369576" lon="10.926694142351925"><ele>93.71428571428571</ele><time>2026-04-06T10:06:35.999Z</time></trkpt><trkpt lat="43.762387899104446" lon="10.926772846448964"><ele>94.0</ele><time>2026-04-06T10:06:38.999Z</time></trkpt><trkpt lat="43.762450281492214" lon="10.926839657877801"><ele>93.66666666666666</ele><time>2026-04-06T10:06:42.999Z</time></trkpt><trkpt lat="43.76252689222789" lon="10.926872482405267"><ele>93.33333333333333</ele><time>2026-04-06T10:06:46.999Z</time></trkpt><trkpt lat="43.76257820048267" lon="10.926937965913012"><ele>93.0</ele><time>2026-04-06T10:06:49.999Z</time></trkpt><trkpt lat="43.76264067315922" lon="10.92697133721698"><ele>92.66666666666667</ele><time>2026-04-06T10:06:52.999Z</time></trkpt><trkpt lat="43.76271395947744" lon="10.927018021613884"><ele>92.33333333333334</ele><time>2026-04-06T10:06:56.999Z</time></trkpt><trkpt lat="43.76278292014755" lon="10.927072042959066"><ele>92.0</ele><time>2026-04-06T10:07:00.999Z</time></trkpt><trkpt lat="43.76285799695397" lon="10.927132305198919"><ele>92.0</ele><time>2026-04-06T10:07:04.999Z</time></trkpt><trkpt lat="43.76291498773346" lon="10.927171541596595"><ele>92.0</ele><time>2026-04-06T10:07:07.999Z</time></trkpt><trkpt lat="43.76299894185363" lon="10.92720182867207"><ele>92.0</ele><time>2026-04-06T10:07:11.999Z</time></trkpt><trkpt lat="43.76306221817011" lon="10.927210130327554"><ele>92.0</ele><time>2026-04-06T10:07:14.999Z</time></trkpt><trkpt lat="43.7631260287906" lon="10.92723948002766"><ele>92.0</ele><time>2026-04-06T10:07:17.999Z</time></trkpt><trkpt lat="43.76318325613461" lon="10.927286144454152"><ele>92.0</ele><time>2026-04-06T10:07:20.999Z</time></trkpt><trkpt lat="43.763244385804995" lon="10.927330168495992"><ele>92.0</ele><time>2026-04-06T10:07:23.999Z</time></trkpt><trkpt lat="43.76331113606815" lon="10.927353101762726"><ele>92.0</ele><time>2026-04-06T10:07:26.999Z</time></trkpt><trkpt lat="43.76336539707918" lon="10.927425660027973"><ele>92.0</ele><time>2026-04-06T10:07:29.999Z</time></trkpt><trkpt lat="43.763433889519426" lon="10.927466712542884"><ele>92.0</ele><time>2026-04-06T10:07:32.999Z</time></trkpt><trkpt lat="43.763515589064134" lon="10.92748862403631"><ele>92.0</ele><time>2026-04-06T10:07:35.999Z</time></trkpt><trkpt lat="43.76359686398271" lon="10.927507697955399"><ele>92.0</ele><time>2026-04-06T10:07:38.999Z</time></trkpt><trkpt lat="43.76368106626545" lon="10.927538971050694"><ele>92.0</ele><time>2026-04-06T10:07:41.999Z</time></trkpt><trkpt lat="43.76375855859153" lon="10.927557598846601"><ele>92.28571428571429</ele><time>2026-04-06T10:07:45Z</time></trkpt><trkpt lat="43.76382406180993" lon="10.927597447941437"><ele>92.57142857142857</ele><time>2026-04-06T10:07:48Z</time></trkpt><trkpt lat="43.76388719657892" lon="10.927638180602179"><ele>92.85714285714286</ele><time>2026-04-06T10:07:51Z</time></trkpt><trkpt lat="43.763964664306066" lon="10.92765066933203"><ele>93.14285714285714</ele><time>2026-04-06T10:07:54Z</time></trkpt><trkpt lat="43.76403226586945" lon="10.927676501492089"><ele>93.42857142857142</ele><time>2026-04-06T10:07:57Z</time></trkpt><trkpt lat="43.76409818782225" lon="10.927701438636019"><ele>93.71428571428571</ele><time>2026-04-06T10:08:00Z</time></trkpt><trkpt lat="43.76417157764761" lon="10.927753142197234"><ele>94.0</ele><time>2026-04-06T10:08:03Z</time></trkpt><trkpt lat="43.7642379870184" lon="10.92778751130998"><ele>94.0</ele><time>2026-04-06T10:08:06Z</time></trkpt><trkpt lat="43.76430765694775" lon="10.927809501192435"><ele>94.0</ele><time>2026-04-06T10:08:09Z</time></trkpt><trkpt lat="43.764370967044464" lon="10.927844213024136"><ele>94.0</ele><time>2026-04-06T10:08:12Z</time></trkpt><trkpt lat="43.76441349698128" lon="10.927922576372776"><ele>94.0</ele><time>2026-04-06T10:08:15Z</time></trkpt><trkpt lat="43.76447401971802" lon="10.927951995372359"><ele>94.0</ele><time>2026-04-06T10:08:18Z</time></trkpt><trkpt lat="43.76453687612847" lon="10.927981273904061"><ele>94.0</ele><time>2026-04-06T10:08:20.999Z</time></trkpt><trkpt lat="43.7646132818056" lon="10.928023913176967"><ele>94.0</ele><time>2026-04-06T10:08:24.999Z</time></trkpt><trkpt lat="43.76467464900179" lon="10.92806975575784"><ele>94.28571428571428</ele><time>2026-04-06T10:08:27.999Z</time></trkpt><trkpt lat="43.76474050333184" lon="10.928091015567716"><ele>94.57142857142857</ele><time>2026-04-06T10:08:30.999Z</time></trkpt><trkpt lat="43.76480208487827" lon="10.928118925082872"><ele>94.85714285714286</ele><time>2026-04-06T10:08:33.999Z</time></trkpt><trkpt lat="43.76486794498991" lon="10.92814425099067"><ele>95.14285714285714</ele><time>2026-04-06T10:08:36.999Z</time></trkpt><trkpt lat="43.76493996181019" lon="10.92819473533899"><ele>95.42857142857143</ele><time>2026-04-06T10:08:39.999Z</time></trkpt><trkpt lat="43.76499849587196" lon="10.928239208698804"><ele>95.71428571428571</ele><time>2026-04-06T10:08:42.999Z</time></trkpt><trkpt lat="43.7650620093581" lon="10.928288570415353"><ele>96.0</ele><time>2026-04-06T10:08:45.999Z</time></trkpt><trkpt lat="43.7651293303583" lon="10.928307538877464"><ele>95.99999999999999</ele><time>2026-04-06T10:08:48.999Z</time></trkpt><trkpt lat="43.76519091774233" lon="10.92833673211302"><ele>96.0</ele><time>2026-04-06T10:08:51.999Z</time></trkpt><trkpt lat="43.76526661738542" lon="10.928370431415857"><ele>96.0</ele><time>2026-04-06T10:08:55.999Z</time></trkpt><trkpt lat="43.76533747046617" lon="10.928392984566688"><ele>96.0</ele><time>2026-04-06T10:08:58.999Z</time></trkpt><trkpt lat="43.765414898024666" lon="10.928430345098036"><ele>96.0</ele><time>2026-04-06T10:09:02.999Z</time></trkpt><trkpt lat="43.76549305890808" lon="10.928432906742424"><ele>95.99999999999999</ele><time>2026-04-06T10:09:06.999Z</time></trkpt><trkpt lat="43.765555830585484" lon="10.928475895316765"><ele>96.0</ele><time>2026-04-06T10:09:10.999Z</time></trkpt><trkpt lat="43.765639244857354" lon="10.928519152031084"><ele>95.83333333333333</ele><time>2026-04-06T10:09:14.999Z</time></trkpt><trkpt lat="43.765721714606464" lon="10.928544192569996"><ele>95.66666666666667</ele><time>2026-04-06T10:09:18.999Z</time></trkpt><trkpt lat="43.765790200484346" lon="10.928581018437665"><ele>95.5</ele><time>2026-04-06T10:09:22.999Z</time></trkpt><trkpt lat="43.76586637231523" lon="10.928624173285696"><ele>95.33333333333334</ele><time>2026-04-06T10:09:26.999Z</time></trkpt><trkpt lat="43.76592804531481" lon="10.928645457362022"><ele>95.16666666666667</ele><time>2026-04-06T10:09:29.999Z</time></trkpt><trkpt lat="43.76600942968657" lon="10.928668873671011"><ele>95.0</ele><time>2026-04-06T10:09:33.999Z</time></trkpt><trkpt lat="43.766067637006344" lon="10.928707370707317"><ele>94.16666666666667</ele><time>2026-04-06T10:09:36.999Z</time></trkpt><trkpt lat="43.766143193344654" lon="10.928739815601016"><ele>93.33333333333334</ele><time>2026-04-06T10:09:40.999Z</time></trkpt><trkpt lat="43.76621158107676" lon="10.928751489533228"><ele>92.5</ele><time>2026-04-06T10:09:43.998Z</time></trkpt><trkpt lat="43.7662650721738" lon="10.928797788669161"><ele>91.66666666666667</ele><time>2026-04-06T10:09:46.998Z</time></trkpt><trkpt lat="43.76634651105413" lon="10.928842077819247"><ele>90.83333333333333</ele><time>2026-04-06T10:09:51Z</time></trkpt><trkpt lat="43.766417056396925" lon="10.928884155341235"><ele>90.0</ele><time>2026-04-06T10:09:55Z</time></trkpt><trkpt lat="43.76648139028668" lon="10.928939313243486"><ele>90.0</ele><time>2026-04-06T10:09:58Z</time></trkpt><trkpt lat="43.76656138024952" lon="10.928972981666801"><ele>90.0</ele><time>2026-04-06T10:10:02Z</time></trkpt><trkpt lat="43.766647107394796" lon="10.929018053626033"><ele>90.0</ele><time>2026-04-06T10:10:06Z</time></trkpt><trkpt lat="43.76670663098281" lon="10.92906748180096"><ele>90.0</ele><time>2026-04-06T10:10:09Z</time></trkpt><trkpt lat="43.76678463927139" lon="10.929096669442997"><ele>90.0</ele><time>2026-04-06T10:10:13Z</time></trkpt><trkpt lat="43.76686274757832" lon="10.929126361681206"><ele>90.0</ele><time>2026-04-06T10:10:17Z</time></trkpt><trkpt lat="43.76692845088002" lon="10.929144879798008"><ele>89.71428571428571</ele><time>2026-04-06T10:10:20Z</time></trkpt><trkpt lat="43.76699837763298" lon="10.92919658107965"><ele>89.42857142857143</ele><time>2026-04-06T10:10:24Z</time></trkpt><trkpt lat="43.76707666191014" lon="10.929246772163939"><ele>89.14285714285714</ele><time>2026-04-06T10:10:28Z</time></trkpt><trkpt lat="43.76713802012885" lon="10.929268633876102"><ele>88.85714285714286</ele><time>2026-04-06T10:10:30.999Z</time></trkpt><trkpt lat="43.767203579393076" lon="10.929309741617574"><ele>88.57142857142857</ele><time>2026-04-06T10:10:33.999Z</time></trkpt><trkpt lat="43.767273117258306" lon="10.929326367223657"><ele>88.28571428571429</ele><time>2026-04-06T10:10:36.999Z</time></trkpt><trkpt lat="43.76733956181387" lon="10.92938062778072"><ele>88.0</ele><time>2026-04-06T10:10:40.999Z</time></trkpt><trkpt lat="43.767397584140014" lon="10.9294144967149"><ele>87.66666666666666</ele><time>2026-04-06T10:10:43.999Z</time></trkpt><trkpt lat="43.76747068507023" lon="10.929454227439974"><ele>87.33333333333333</ele><time>2026-04-06T10:10:47.999Z</time></trkpt><trkpt lat="43.76753237806057" lon="10.929503049595233"><ele>87.0</ele><time>2026-04-06T10:10:50.999Z</time></trkpt><trkpt lat="43.76759999817087" lon="10.929534159792448"><ele>86.66666666666667</ele><time>2026-04-06T10:10:53.999Z</time></trkpt><trkpt lat="43.7676795429018" lon="10.929575395533309"><ele>86.33333333333334</ele><time>2026-04-06T10:10:57.999Z</time></trkpt><trkpt lat="43.76775087142991" lon="10.929602137173212"><ele>86.0</ele><time>2026-04-06T10:11:00.999Z</time></trkpt><trkpt lat="43.76783887597972" lon="10.92963402030651"><ele>87.00000000000001</ele><time>2026-04-06T10:11:04.999Z</time></trkpt><trkpt lat="43.76791894281959" lon="10.929668611776847"><ele>88.0</ele><time>2026-04-06T10:11:08.999Z</time></trkpt><trkpt lat="43.767983080598356" lon="10.929657185749592"><ele>89.0</ele><time>2026-04-06T10:11:11.999Z</time></trkpt><trkpt lat="43.76805900102666" lon="10.929662591678962"><ele>90.0</ele><time>2026-04-06T10:11:15.999Z</time></trkpt><trkpt lat="43.768135782672495" lon="10.929653444285035"><ele>91.0</ele><time>2026-04-06T10:11:19.999Z</time></trkpt><trkpt lat="43.76820026066037" lon="10.929634807255148"><ele>92.00000000000001</ele><time>2026-04-06T10:11:23.999Z</time></trkpt><trkpt lat="43.76826737014428" lon="10.929628584911136"><ele>93.0</ele><time>2026-04-06T10:11:27.999Z</time></trkpt><trkpt lat="43.768335129955595" lon="10.929634572389393"><ele>93.00000000000001</ele><time>2026-04-06T10:11:30.999Z</time></trkpt><trkpt lat="43.76840636307445" lon="10.929626713045288"><ele>93.0</ele><time>2026-04-06T10:11:34.999Z</time></trkpt><trkpt lat="43.76847661178107" lon="10.929627453359386"><ele>93.0</ele><time>2026-04-06T10:11:39.999Z</time></trkpt><trkpt lat="43.76854860374447" lon="10.929611340559473"><ele>93.0</ele><time>2026-04-06T10:11:44.999Z</time></trkpt><trkpt lat="43.768621740717194" lon="10.929604550281825"><ele>93.0</ele><time>2026-04-06T10:11:49.999Z</time></trkpt><trkpt lat="43.76869265961831" lon="10.929635335631609"><ele>93.00000000000001</ele><time>2026-04-06T10:11:56Z</time></trkpt><trkpt lat="43.76875333373589" lon="10.929673811931078"><ele>93.0</ele><time>2026-04-06T10:12:02Z</time></trkpt><trkpt lat="43.76881604120349" lon="10.92971157289737"><ele>93.00000000000001</ele><time>2026-04-06T10:12:07Z</time></trkpt><trkpt lat="43.76875501532074" lon="10.929664200138358"><ele>93.0</ele><time>2026-04-06T10:12:17Z</time></trkpt><trkpt lat="43.76868972775394" lon="10.929647053425755"><ele>93.0</ele><time>2026-04-06T10:12:23Z</time></trkpt><trkpt lat="43.76861589329203" lon="10.929627244427792"><ele>93.0</ele><time>2026-04-06T10:12:28Z</time></trkpt><trkpt lat="43.7685470001868" lon="10.929619992961406"><ele>93.0</ele><time>2026-04-06T10:12:33Z</time></trkpt><trkpt lat="43.76848090401164" lon="10.929608151542489"><ele>93.00000000000001</ele><time>2026-04-06T10:12:38Z</time></trkpt><trkpt lat="43.768417263569" lon="10.929608159240725"><ele>93.0</ele><time>2026-04-06T10:12:41.999Z</time></trkpt><trkpt lat="43.76834091347714" lon="10.929616789285022"><ele>93.00000000000001</ele><time>2026-04-06T10:12:46.999Z</time></trkpt><trkpt lat="43.7682757273859" lon="10.929610948415762"><ele>93.0</ele><time>2026-04-06T10:12:50.999Z</time></trkpt><trkpt lat="43.76821372491213" lon="10.929574987860349"><ele>93.0</ele><time>2026-04-06T10:12:55.999Z</time></trkpt><trkpt lat="43.76814547083514" lon="10.929584072596576"><ele>93.0</ele><time>2026-04-06T10:13:00.999Z</time></trkpt><trkpt lat="43.76807369967472" lon="10.929595812715503"><ele>93.0</ele><time>2026-04-06T10:13:07.999Z</time></trkpt><trkpt lat="43.76801182026194" lon="10.929613670345164"><ele>93.00000000000001</ele><time>2026-04-06T10:13:12.999Z</time></trkpt><trkpt lat="43.76794845481311" lon="10.92963439602773"><ele>93.0</ele><time>2026-04-06T10:13:17.999Z</time></trkpt><trkpt lat="43.767949612160265" lon="10.929723236556976"><ele>93.00000000000001</ele><time>2026-04-06T10:13:23.999Z</time></trkpt><trkpt lat="43.767994928632724" lon="10.929801084480362"><ele>93.0</ele><time>2026-04-06T10:13:29.999Z</time></trkpt><trkpt lat="43.76804837431016" lon="10.929866871339842"><ele>93.0</ele><time>2026-04-06T10:13:34.999Z</time></trkpt><trkpt lat="43.768090710890995" lon="10.929943348247265"><ele>93.0</ele><time>2026-04-06T10:13:39.999Z</time></trkpt><trkpt lat="43.76813138764421" lon="10.930031556477942"><ele>93.0</ele><time>2026-04-06T10:13:44.999Z</time></trkpt><trkpt lat="43.76817328908021" lon="10.930118621087072"><ele>93.00000000000001</ele><time>2026-04-06T10:13:49.999Z</time></trkpt><trkpt lat="43.76821640580829" lon="10.930206710639009"><ele>93.0</ele><time>2026-04-06T10:13:54.999Z</time></trkpt><trkpt lat="43.76825934468315" lon="10.930292521686095"><ele>92.85714285714286</ele><time>2026-04-06T10:13:59.999Z</time></trkpt><trkpt lat="43.76828577985502" lon="10.930383539614597"><ele>92.71428571428572</ele><time>2026-04-06T10:14:05Z</time></trkpt><trkpt lat="43.76831044757408" lon="10.930480650848407"><ele>92.57142857142858</ele><time>2026-04-06T10:14:10Z</time></trkpt><trkpt lat="43.76833418996009" lon="10.930584777164476"><ele>92.42857142857143</ele><time>2026-04-06T10:14:15Z</time></trkpt><trkpt lat="43.76836912619722" lon="10.930681902228146"><ele>92.28571428571428</ele><time>2026-04-06T10:14:20Z</time></trkpt><trkpt lat="43.768388521831795" lon="10.930776893209199"><ele>92.14285714285715</ele><time>2026-04-06T10:14:25Z</time></trkpt><trkpt lat="43.768431410494834" lon="10.930863247340946"><ele>92.0</ele><time>2026-04-06T10:14:30Z</time></trkpt><trkpt lat="43.76846100299276" lon="10.930952276404177"><ele>92.28571428571429</ele><time>2026-04-06T10:14:35Z</time></trkpt><trkpt lat="43.76849185415228" lon="10.931040922121701"><ele>92.57142857142857</ele><time>2026-04-06T10:14:40Z</time></trkpt><trkpt lat="43.768506670635134" lon="10.931142870408495"><ele>92.85714285714286</ele><time>2026-04-06T10:14:44.999Z</time></trkpt><trkpt lat="43.76853172786628" lon="10.931227218015612"><ele>93.14285714285714</ele><time>2026-04-06T10:14:49.999Z</time></trkpt><trkpt lat="43.768558741917786" lon="10.93131327402121"><ele>93.42857142857142</ele><time>2026-04-06T10:14:54.999Z</time></trkpt><trkpt lat="43.76860566914553" lon="10.931395226606247"><ele>93.71428571428571</ele><time>2026-04-06T10:14:59.999Z</time></trkpt><trkpt lat="43.768607034051904" lon="10.931488260518638"><ele>94.0</ele><time>2026-04-06T10:15:03.999Z</time></trkpt><trkpt lat="43.76863756675318" lon="10.931581697778247"><ele>94.0</ele><time>2026-04-06T10:15:08.999Z</time></trkpt><trkpt lat="43.76866070027451" lon="10.931665471069508"><ele>94.0</ele><time>2026-04-06T10:15:12.999Z</time></trkpt><trkpt lat="43.768671510584056" lon="10.931751603598261"><ele>94.0</ele><time>2026-04-06T10:15:17.999Z</time></trkpt><trkpt lat="43.76868745817693" lon="10.931841573053475"><ele>94.0</ele><time>2026-04-06T10:15:21.999Z</time></trkpt><trkpt lat="43.7687273339001" lon="10.931918749802852"><ele>94.0</ele><time>2026-04-06T10:15:25.999Z</time></trkpt><trkpt lat="43.76876736190345" lon="10.931990228003341"><ele>94.0</ele><time>2026-04-06T10:15:29.999Z</time></trkpt><trkpt lat="43.768807158163106" lon="10.93205816069594"><ele>94.0</ele><time>2026-04-06T10:15:33.999Z</time></trkpt><trkpt lat="43.76886855017601" lon="10.932088999706075"><ele>92.85714285714286</ele><time>2026-04-06T10:15:38.999Z</time></trkpt><trkpt lat="43.768930651800424" lon="10.932139983762733"><ele>91.71428571428571</ele><time>2026-04-06T10:15:43.999Z</time></trkpt><trkpt lat="43.768989963545295" lon="10.93221089248927"><ele>90.57142857142858</ele><time>2026-04-06T10:15:49.999Z</time></trkpt><trkpt lat="43.76904831339094" lon="10.932258446233845"><ele>89.42857142857143</ele><time>2026-04-06T10:15:53.999Z</time></trkpt><trkpt lat="43.76909837454625" lon="10.932331467437757"><ele>88.28571428571429</ele><time>2026-04-06T10:15:58.999Z</time></trkpt><trkpt lat="43.76916154060389" lon="10.932383960903298"><ele>87.14285714285715</ele><time>2026-04-06T10:16:02.999Z</time></trkpt><trkpt lat="43.76921902685445" lon="10.932431885190125"><ele>86.0</ele><time>2026-04-06T10:16:06.999Z</time></trkpt><trkpt lat="43.769271183797564" lon="10.932487168199195"><ele>86.00000000000001</ele><time>2026-04-06T10:16:11.999Z</time></trkpt><trkpt lat="43.76932646558619" lon="10.932550479048777"><ele>86.0</ele><time>2026-04-06T10:16:16.999Z</time></trkpt><trkpt lat="43.76938561485804" lon="10.932606514584439"><ele>86.0</ele><time>2026-04-06T10:16:21.999Z</time></trkpt><trkpt lat="43.7694428637456" lon="10.932663686466297"><ele>86.0</ele><time>2026-04-06T10:16:25.999Z</time></trkpt><trkpt lat="43.76950116818722" lon="10.93272243465053"><ele>86.0</ele><time>2026-04-06T10:16:30.999Z</time></trkpt><trkpt lat="43.76954961387606" lon="10.932782701750712"><ele>86.00000000000001</ele><time>2026-04-06T10:16:34.999Z</time></trkpt><trkpt lat="43.76960516873335" lon="10.932842154139898"><ele>86.0</ele><time>2026-04-06T10:16:39.999Z</time></trkpt><trkpt lat="43.76965434332784" lon="10.932898030798913"><ele>85.71428571428572</ele><time>2026-04-06T10:16:43.999Z</time></trkpt><trkpt lat="43.76971062060191" lon="10.932953904636612"><ele>85.42857142857143</ele><time>2026-04-06T10:16:47.999Z</time></trkpt><trkpt lat="43.769776826250684" lon="10.933000526195409"><ele>85.14285714285714</ele><time>2026-04-06T10:16:51.999Z</time></trkpt><trkpt lat="43.769833771337716" lon="10.933074541742888"><ele>84.85714285714286</ele><time>2026-04-06T10:16:56.999Z</time></trkpt><trkpt lat="43.769869405613235" lon="10.933146628402525"><ele>84.57142857142857</ele><time>2026-04-06T10:17:01.999Z</time></trkpt><trkpt lat="43.769937291250905" lon="10.933212179602128"><ele>84.28571428571429</ele><time>2026-04-06T10:17:07.999Z</time></trkpt><trkpt lat="43.76999132895099" lon="10.933161419509934"><ele>84.0</ele><time>2026-04-06T10:17:11.999Z</time></trkpt><trkpt lat="43.77004849602391" lon="10.93308937289955"><ele>84.0</ele><time>2026-04-06T10:17:17.999Z</time></trkpt><trkpt lat="43.77009735872161" lon="10.933022547124907"><ele>84.0</ele><time>2026-04-06T10:17:21.999Z</time></trkpt><trkpt lat="43.77013842681307" lon="10.932954005099155"><ele>84.0</ele><time>2026-04-06T10:17:25.999Z</time></trkpt><trkpt lat="43.77018515481196" lon="10.932886387057849"><ele>84.0</ele><time>2026-04-06T10:17:30.999Z</time></trkpt><trkpt lat="43.77024397127072" lon="10.932811069914349"><ele>84.0</ele><time>2026-04-06T10:17:35.999Z</time></trkpt><trkpt lat="43.77027628208863" lon="10.932732661202754"><ele>84.0</ele><time>2026-04-06T10:17:39.999Z</time></trkpt><trkpt lat="43.77030988886229" lon="10.932656995258137"><ele>84.0</ele><time>2026-04-06T10:17:43.999Z</time></trkpt><trkpt lat="43.770351435660665" lon="10.932580658914029"><ele>83.85714285714286</ele><time>2026-04-06T10:17:47.999Z</time></trkpt><trkpt lat="43.77039149471462" lon="10.932486054348528"><ele>83.71428571428572</ele><time>2026-04-06T10:17:52.999Z</time></trkpt><trkpt lat="43.77042931804527" lon="10.932390407433347"><ele>83.57142857142857</ele><time>2026-04-06T10:17:57.999Z</time></trkpt><trkpt lat="43.770458713375334" lon="10.932307183599855"><ele>83.42857142857143</ele><time>2026-04-06T10:18:01.999Z</time></trkpt><trkpt lat="43.770495951639035" lon="10.932232443190758"><ele>83.28571428571429</ele><time>2026-04-06T10:18:05.998Z</time></trkpt><trkpt lat="43.77051385969709" lon="10.932148388335946"><ele>83.14285714285714</ele><time>2026-04-06T10:18:10.998Z</time></trkpt><trkpt lat="43.77055073161441" lon="10.93205066887331"><ele>83.0</ele><time>2026-04-06T10:18:15.998Z</time></trkpt><trkpt lat="43.770568782651516" lon="10.931960560784667"><ele>83.0</ele><time>2026-04-06T10:18:19.998Z</time></trkpt><trkpt lat="43.77060258787872" lon="10.93187219336812"><ele>83.0</ele><time>2026-04-06T10:18:24.998Z</time></trkpt><trkpt lat="43.77061082429923" lon="10.931779888195159"><ele>83.0</ele><time>2026-04-06T10:18:28.998Z</time></trkpt><trkpt lat="43.77060863667293" lon="10.931689559696215"><ele>83.0</ele><time>2026-04-06T10:18:32.998Z</time></trkpt><trkpt lat="43.77064051270584" lon="10.931584552625258"><ele>83.0</ele><time>2026-04-06T10:18:37.998Z</time></trkpt><trkpt lat="43.770637764941036" lon="10.931496512340049"><ele>83.0</ele><time>2026-04-06T10:18:40.998Z</time></trkpt><trkpt lat="43.770651976451504" lon="10.93138277017904"><ele>83.0</ele><time>2026-04-06T10:18:44.998Z</time></trkpt><trkpt lat="43.770651858214116" lon="10.931261574980427"><ele>83.33333333333334</ele><time>2026-04-06T10:18:48.998Z</time></trkpt><trkpt lat="43.770675015625784" lon="10.931155412747382"><ele>83.66666666666667</ele><time>2026-04-06T10:18:52.998Z</time></trkpt><trkpt lat="43.77068574338879" lon="10.931060501802127"><ele>84.0</ele><time>2026-04-06T10:18:55.998Z</time></trkpt><trkpt lat="43.7706887618471" lon="10.93095075676054"><ele>84.33333333333333</ele><time>2026-04-06T10:18:58.998Z</time></trkpt><trkpt lat="43.770699771843866" lon="10.930842847646238"><ele>84.66666666666666</ele><time>2026-04-06T10:19:01.998Z</time></trkpt><trkpt lat="43.7706987560254" lon="10.930718448464157"><ele>85.0</ele><time>2026-04-06T10:19:05.998Z</time></trkpt><trkpt lat="43.770712378817386" lon="10.930630920627856"><ele>85.0</ele><time>2026-04-06T10:19:08.998Z</time></trkpt><trkpt lat="43.770730053973345" lon="10.930538203391743"><ele>85.0</ele><time>2026-04-06T10:19:11.998Z</time></trkpt><trkpt lat="43.77075228327788" lon="10.930424362121576"><ele>85.0</ele><time>2026-04-06T10:19:14.998Z</time></trkpt><trkpt lat="43.77075506045992" lon="10.930299407402103"><ele>85.0</ele><time>2026-04-06T10:19:18.998Z</time></trkpt><trkpt lat="43.770801230135625" lon="10.930212701670255"><ele>85.0</ele><time>2026-04-06T10:19:22.998Z</time></trkpt><trkpt lat="43.77084767631073" lon="10.930151933678623"><ele>85.0</ele><time>2026-04-06T10:19:25.998Z</time></trkpt><trkpt lat="43.77090272096993" lon="10.930093615966538"><ele>84.28571428571429</ele><time>2026-04-06T10:19:28.998Z</time></trkpt><trkpt lat="43.77095104626971" lon="10.930019256488862"><ele>83.57142857142857</ele><time>2026-04-06T10:19:32.998Z</time></trkpt><trkpt lat="43.77102638614295" lon="10.92997516454542"><ele>82.85714285714286</ele><time>2026-04-06T10:19:36.998Z</time></trkpt><trkpt lat="43.77109134521047" lon="10.929930974730931"><ele>82.14285714285714</ele><time>2026-04-06T10:19:40.997Z</time></trkpt><trkpt lat="43.771139467897655" lon="10.929874425047265"><ele>81.42857142857143</ele><time>2026-04-06T10:19:43.997Z</time></trkpt><trkpt lat="43.77120999051753" lon="10.929851078399748"><ele>80.71428571428571</ele><time>2026-04-06T10:19:46.997Z</time></trkpt><trkpt lat="43.77127006106371" lon="10.929817675611732"><ele>80.0</ele><time>2026-04-06T10:19:49.997Z</time></trkpt><trkpt lat="43.77133115287411" lon="10.929778958907889"><ele>80.0</ele><time>2026-04-06T10:19:52.997Z</time></trkpt><trkpt lat="43.77140593492111" lon="10.929755791404931"><ele>80.0</ele><time>2026-04-06T10:19:56.997Z</time></trkpt><trkpt lat="43.771477601782934" lon="10.929722566160947"><ele>80.0</ele><time>2026-04-06T10:19:59.997Z</time></trkpt><trkpt lat="43.771541202599344" lon="10.929686636108908"><ele>80.0</ele><time>2026-04-06T10:20:02.997Z</time></trkpt><trkpt lat="43.77162524388551" lon="10.92964893875302"><ele>80.0</ele><time>2026-04-06T10:20:06.997Z</time></trkpt><trkpt lat="43.77169428488601" lon="10.92959642596666"><ele>80.0</ele><time>2026-04-06T10:20:09.997Z</time></trkpt><trkpt lat="43.77175832313166" lon="10.929584532345155"><ele>80.0</ele><time>2026-04-06T10:20:12.997Z</time></trkpt><trkpt lat="43.771829427803354" lon="10.92955412580212"><ele>80.0</ele><time>2026-04-06T10:20:15.997Z</time></trkpt><trkpt lat="43.771901608828564" lon="10.929508654968044"><ele>80.0</ele><time>2026-04-06T10:20:18.997Z</time></trkpt><trkpt lat="43.7719742003391" lon="10.929455833309376"><ele>80.0</ele><time>2026-04-06T10:20:21.997Z</time></trkpt><trkpt lat="43.772031554324165" lon="10.92940930005681"><ele>80.0</ele><time>2026-04-06T10:20:24.997Z</time></trkpt><trkpt lat="43.772115475410395" lon="10.929379783017872"><ele>80.0</ele><time>2026-04-06T10:20:27.997Z</time></trkpt><trkpt lat="43.77218293181995" lon="10.929312606827402"><ele>79.5</ele><time>2026-04-06T10:20:30.997Z</time></trkpt><trkpt lat="43.772256230423686" lon="10.929282141609393"><ele>79.0</ele><time>2026-04-06T10:20:33.997Z</time></trkpt><trkpt lat="43.77231718337474" lon="10.929218426952064"><ele>78.5</ele><time>2026-04-06T10:20:36.997Z</time></trkpt><trkpt lat="43.77235695721167" lon="10.929137419453873"><ele>78.0</ele><time>2026-04-06T10:20:39.997Z</time></trkpt><trkpt lat="43.77240575796743" lon="10.929050185492075"><ele>77.5</ele><time>2026-04-06T10:20:42.997Z</time></trkpt><trkpt lat="43.772446973616724" lon="10.92895242709102"><ele>77.0</ele><time>2026-04-06T10:20:46.997Z</time></trkpt><trkpt lat="43.77250267045275" lon="10.928864893975101"><ele>76.57142857142857</ele><time>2026-04-06T10:20:49.997Z</time></trkpt><trkpt lat="43.77253462179093" lon="10.928777584593195"><ele>76.14285714285714</ele><time>2026-04-06T10:20:52.997Z</time></trkpt><trkpt lat="43.77257413560538" lon="10.928707773047782"><ele>75.71428571428572</ele><time>2026-04-06T10:20:55.997Z</time></trkpt><trkpt lat="43.772620490671976" lon="10.928618860203269"><ele>75.28571428571428</ele><time>2026-04-06T10:20:58.997Z</time></trkpt><trkpt lat="43.772648873277916" lon="10.928534929825748"><ele>74.85714285714286</ele><time>2026-04-06T10:21:01.997Z</time></trkpt><trkpt lat="43.772694944233194" lon="10.92847477670523"><ele>74.42857142857143</ele><time>2026-04-06T10:21:04.997Z</time></trkpt><trkpt lat="43.77275012311844" lon="10.928427814429888"><ele>74.0</ele><time>2026-04-06T10:21:07.997Z</time></trkpt><trkpt lat="43.772805814657225" lon="10.928376643169274"><ele>73.16666666666667</ele><time>2026-04-06T10:21:11.997Z</time></trkpt><trkpt lat="43.77287230914564" lon="10.928355883967292"><ele>72.33333333333334</ele><time>2026-04-06T10:21:14.997Z</time></trkpt><trkpt lat="43.772939367595434" lon="10.92830026557116"><ele>71.5</ele><time>2026-04-06T10:21:18.996Z</time></trkpt><trkpt lat="43.773002545387996" lon="10.92827546990913"><ele>70.66666666666667</ele><time>2026-04-06T10:21:21.996Z</time></trkpt><trkpt lat="43.77307390495479" lon="10.928211569652014"><ele>69.83333333333333</ele><time>2026-04-06T10:21:25.996Z</time></trkpt><trkpt lat="43.773130394489506" lon="10.928157870898728"><ele>69.0</ele><time>2026-04-06T10:21:28.996Z</time></trkpt><trkpt lat="43.77319809892873" lon="10.928080101898592"><ele>69.0</ele><time>2026-04-06T10:21:32.996Z</time></trkpt><trkpt lat="43.77323342765883" lon="10.92800322734479"><ele>69.0</ele><time>2026-04-06T10:21:35.996Z</time></trkpt><trkpt lat="43.77328619755363" lon="10.92795419591375"><ele>69.0</ele><time>2026-04-06T10:21:38.996Z</time></trkpt><trkpt lat="43.773350892974186" lon="10.927887327868296"><ele>69.0</ele><time>2026-04-06T10:21:42.996Z</time></trkpt><trkpt lat="43.773417317021504" lon="10.927839563176128"><ele>69.0</ele><time>2026-04-06T10:21:46.996Z</time></trkpt><trkpt lat="43.773467956882385" lon="10.927758881593686"><ele>69.0</ele><time>2026-04-06T10:21:50.996Z</time></trkpt><trkpt lat="43.77352653193951" lon="10.92768538984199"><ele>69.0</ele><time>2026-04-06T10:21:54.996Z</time></trkpt><trkpt lat="43.77358321609546" lon="10.92763713948647"><ele>66.85714285714286</ele><time>2026-04-06T10:21:57.996Z</time></trkpt><trkpt lat="43.77364900057348" lon="10.927589354816227"><ele>64.71428571428572</ele><time>2026-04-06T10:22:01.996Z</time></trkpt><trkpt lat="43.773728488436454" lon="10.927547317198059"><ele>62.57142857142857</ele><time>2026-04-06T10:22:05.996Z</time></trkpt><trkpt lat="43.773800650160005" lon="10.927503847454807"><ele>60.42857142857143</ele><time>2026-04-06T10:22:09.996Z</time></trkpt><trkpt lat="43.773870183429125" lon="10.927493243934327"><ele>58.285714285714285</ele><time>2026-04-06T10:22:12.996Z</time></trkpt><trkpt lat="43.77393612104214" lon="10.927462313995287"><ele>56.14285714285714</ele><time>2026-04-06T10:22:15.996Z</time></trkpt><trkpt lat="43.77399946711302" lon="10.927440376460254"><ele>54.0</ele><time>2026-04-06T10:22:18.996Z</time></trkpt><trkpt lat="43.77406332733113" lon="10.92742154359811"><ele>53.285714285714285</ele><time>2026-04-06T10:22:21.996Z</time></trkpt><trkpt lat="43.77412839864426" lon="10.9273952824958"><ele>52.57142857142857</ele><time>2026-04-06T10:22:24.996Z</time></trkpt><trkpt lat="43.774210804574025" lon="10.927372039635562"><ele>51.85714285714286</ele><time>2026-04-06T10:22:28.996Z</time></trkpt><trkpt lat="43.77429448365439" lon="10.927356275895207"><ele>51.14285714285714</ele><time>2026-04-06T10:22:32.996Z</time></trkpt><trkpt lat="43.77435554104005" lon="10.927333155820024"><ele>50.42857142857143</ele><time>2026-04-06T10:22:35.996Z</time></trkpt><trkpt lat="43.774418325766085" lon="10.92732183486142"><ele>49.714285714285715</ele><time>2026-04-06T10:22:38.996Z</time></trkpt><trkpt lat="43.77448484585687" lon="10.927306467936507"><ele>49.0</ele><time>2026-04-06T10:22:41.996Z</time></trkpt><trkpt lat="43.77454675465068" lon="10.92727476130689"><ele>48.166666666666664</ele><time>2026-04-06T10:22:44.996Z</time></trkpt><trkpt lat="43.77462227451615" lon="10.927260597169788"><ele>47.33333333333333</ele><time>2026-04-06T10:22:47.996Z</time></trkpt><trkpt lat="43.77469952559868" lon="10.927234329674848"><ele>46.5</ele><time>2026-04-06T10:22:51.996Z</time></trkpt><trkpt lat="43.77477470070824" lon="10.927229248289825"><ele>45.666666666666664</ele><time>2026-04-06T10:22:54.995Z</time></trkpt><trkpt lat="43.77485666880313" lon="10.927193649788471"><ele>44.83333333333333</ele><time>2026-04-06T10:22:58.995Z</time></trkpt><trkpt lat="43.77491772503329" lon="10.927154944261725"><ele>44.0</ele><time>2026-04-06T10:23:01.995Z</time></trkpt><trkpt lat="43.774988830628736" lon="10.927133961568211"><ele>44.0</ele><time>2026-04-06T10:23:04.995Z</time></trkpt><trkpt lat="43.77505668460801" lon="10.927153954173058"><ele>44.0</ele><time>2026-04-06T10:23:07.995Z</time></trkpt><trkpt lat="43.77512213882646" lon="10.927164574749202"><ele>44.0</ele><time>2026-04-06T10:23:10.995Z</time></trkpt><trkpt lat="43.775202646628465" lon="10.927179456660443"><ele>44.0</ele><time>2026-04-06T10:23:14.995Z</time></trkpt><trkpt lat="43.7752888869273" lon="10.927198030033212"><ele>44.0</ele><time>2026-04-06T10:23:18.995Z</time></trkpt><trkpt lat="43.77535876059457" lon="10.927149956691952"><ele>44.0</ele><time>2026-04-06T10:23:21.995Z</time></trkpt><trkpt lat="43.775425880859075" lon="10.927124422871499"><ele>43.57142857142857</ele><time>2026-04-06T10:23:24.995Z</time></trkpt><trkpt lat="43.775498200072434" lon="10.927097545764674"><ele>43.14285714285714</ele><time>2026-04-06T10:23:27.995Z</time></trkpt><trkpt lat="43.775561130705654" lon="10.927084449481672"><ele>42.71428571428571</ele><time>2026-04-06T10:23:30.995Z</time></trkpt><trkpt lat="43.775635267790655" lon="10.927074018126937"><ele>42.285714285714285</ele><time>2026-04-06T10:23:33.995Z</time></trkpt><trkpt lat="43.775702738789406" lon="10.927046497403065"><ele>41.857142857142854</ele><time>2026-04-06T10:23:36.995Z</time></trkpt><trkpt lat="43.77577982718055" lon="10.927019538687338"><ele>41.42857142857142</ele><time>2026-04-06T10:23:40.995Z</time></trkpt><trkpt lat="43.775848712873284" lon="10.927003411089117"><ele>41.0</ele><time>2026-04-06T10:23:43.995Z</time></trkpt><trkpt lat="43.77590817822507" lon="10.926951857893105"><ele>40.99999999999999</ele><time>2026-04-06T10:23:46.995Z</time></trkpt><trkpt lat="43.77598646218136" lon="10.926938823164217"><ele>41.0</ele><time>2026-04-06T10:23:49.995Z</time></trkpt><trkpt lat="43.77605715776386" lon="10.926909451252737"><ele>41.0</ele><time>2026-04-06T10:23:52.995Z</time></trkpt><trkpt lat="43.77612501604842" lon="10.926894258002788"><ele>41.0</ele><time>2026-04-06T10:23:55.995Z</time></trkpt><trkpt lat="43.776188618352826" lon="10.926851845549766"><ele>41.0</ele><time>2026-04-06T10:23:58.995Z</time></trkpt><trkpt lat="43.77625091955178" lon="10.926828388349472"><ele>40.99999999999999</ele><time>2026-04-06T10:24:01.995Z</time></trkpt><trkpt lat="43.77632161485904" lon="10.926783130956679"><ele>41.0</ele><time>2026-04-06T10:24:05.995Z</time></trkpt><trkpt lat="43.77639458719098" lon="10.926812244222573"><ele>40.857142857142854</ele><time>2026-04-06T10:24:09.995Z</time></trkpt><trkpt lat="43.77647175452466" lon="10.926852282969394"><ele>40.714285714285715</ele><time>2026-04-06T10:24:13.995Z</time></trkpt><trkpt lat="43.776548338907176" lon="10.926898485645818"><ele>40.57142857142857</ele><time>2026-04-06T10:24:17.995Z</time></trkpt><trkpt lat="43.776620151965204" lon="10.92692379134155"><ele>40.42857142857143</ele><time>2026-04-06T10:24:20.995Z</time></trkpt><trkpt lat="43.77668314942316" lon="10.926944279973402"><ele>40.285714285714285</ele><time>2026-04-06T10:24:23.995Z</time></trkpt><trkpt lat="43.776745920264695" lon="10.926982951969334"><ele>40.14285714285714</ele><time>2026-04-06T10:24:26.995Z</time></trkpt><trkpt lat="43.77680553700878" lon="10.927014244932165"><ele>40.0</ele><time>2026-04-06T10:24:29.994Z</time></trkpt><trkpt lat="43.77687853949588" lon="10.927014371825932"><ele>40.285714285714285</ele><time>2026-04-06T10:24:33.994Z</time></trkpt><trkpt lat="43.77695490639024" lon="10.927022327771995"><ele>40.57142857142857</ele><time>2026-04-06T10:24:37.994Z</time></trkpt><trkpt lat="43.777019402938414" lon="10.927022435974585"><ele>40.85714285714286</ele><time>2026-04-06T10:24:42.994Z</time></trkpt><trkpt lat="43.77708871039603" lon="10.927033945752259"><ele>41.14285714285714</ele><time>2026-04-06T10:24:47.994Z</time></trkpt><trkpt lat="43.77715595932724" lon="10.927041442479863"><ele>41.42857142857143</ele><time>2026-04-06T10:24:53.994Z</time></trkpt><trkpt lat="43.7772220109257" lon="10.927049277851651"><ele>41.714285714285715</ele><time>2026-04-06T10:24:58.994Z</time></trkpt><trkpt lat="43.777291944052585" lon="10.927066810708995"><ele>42.0</ele><time>2026-04-06T10:25:04.994Z</time></trkpt><trkpt lat="43.77736405969982" lon="10.927084004669561"><ele>42.0</ele><time>2026-04-06T10:25:09.994Z</time></trkpt><trkpt lat="43.777439499592724" lon="10.927117350693214"><ele>42.0</ele><time>2026-04-06T10:25:14.994Z</time></trkpt><trkpt lat="43.777506196428405" lon="10.927150303696308"><ele>42.0</ele><time>2026-04-06T10:25:20.994Z</time></trkpt><trkpt lat="43.77757458728041" lon="10.927159301417248"><ele>42.0</ele><time>2026-04-06T10:25:24.994Z</time></trkpt><trkpt lat="43.7776386038869" lon="10.927167422363308"><ele>42.0</ele><time>2026-04-06T10:25:28.994Z</time></trkpt><trkpt lat="43.777716511293285" lon="10.92718304216515"><ele>42.0</ele><time>2026-04-06T10:25:33.994Z</time></trkpt><trkpt lat="43.77778029101118" lon="10.927190017018821"><ele>42.0</ele><time>2026-04-06T10:25:37.994Z</time></trkpt><trkpt lat="43.77784490572237" lon="10.927195352979139"><ele>42.0</ele><time>2026-04-06T10:25:41.994Z</time></trkpt><trkpt lat="43.7779219654943" lon="10.927209810139859"><ele>42.0</ele><time>2026-04-06T10:25:46.994Z</time></trkpt><trkpt lat="43.777996199518505" lon="10.927224137025926"><ele>42.0</ele><time>2026-04-06T10:25:51.994Z</time></trkpt><trkpt lat="43.77807006574401" lon="10.927252269371323"><ele>42.0</ele><time>2026-04-06T10:25:56.994Z</time></trkpt><trkpt lat="43.778132876833716" lon="10.927259667115116"><ele>42.0</ele><time>2026-04-06T10:26:00.994Z</time></trkpt><trkpt lat="43.77821024396358" lon="10.927281949727556"><ele>42.0</ele><time>2026-04-06T10:26:05.993Z</time></trkpt><trkpt lat="43.77827720456104" lon="10.927290627826537"><ele>42.0</ele><time>2026-04-06T10:26:09.993Z</time></trkpt><trkpt lat="43.77835249273123" lon="10.927296678510048"><ele>42.0</ele><time>2026-04-06T10:26:14.993Z</time></trkpt><trkpt lat="43.77842515806977" lon="10.92731386977467"><ele>42.0</ele><time>2026-04-06T10:26:19.993Z</time></trkpt><trkpt lat="43.77849997623565" lon="10.927331418096538"><ele>42.0</ele><time>2026-04-06T10:26:24.993Z</time></trkpt><trkpt lat="43.77856884223242" lon="10.927371610439794"><ele>42.0</ele><time>2026-04-06T10:26:29.993Z</time></trkpt><trkpt lat="43.778643417960836" lon="10.927386435629325"><ele>42.0</ele><time>2026-04-06T10:26:34.993Z</time></trkpt><trkpt lat="43.77871832304858" lon="10.927388692417658"><ele>42.0</ele><time>2026-04-06T10:26:39.993Z</time></trkpt><trkpt lat="43.77878311295613" lon="10.927394286659567"><ele>42.0</ele><time>2026-04-06T10:26:43.993Z</time></trkpt><trkpt lat="43.778853933474664" lon="10.927411044540772"><ele>42.142857142857146</ele><time>2026-04-06T10:26:48.993Z</time></trkpt><trkpt lat="43.77890839908628" lon="10.92748294486009"><ele>42.285714285714285</ele><time>2026-04-06T10:26:53.993Z</time></trkpt><trkpt lat="43.77897862357791" lon="10.927519929297572"><ele>42.42857142857143</ele><time>2026-04-06T10:26:58.993Z</time></trkpt><trkpt lat="43.77903189033269" lon="10.927585347057482"><ele>42.57142857142857</ele><time>2026-04-06T10:27:03.993Z</time></trkpt><trkpt lat="43.779097307123294" lon="10.927641267830124"><ele>42.714285714285715</ele><time>2026-04-06T10:27:08.993Z</time></trkpt><trkpt lat="43.77915610557294" lon="10.927703853503028"><ele>42.85714285714286</ele><time>2026-04-06T10:27:13.993Z</time></trkpt><trkpt lat="43.77921805534733" lon="10.927766129849392"><ele>43.0</ele><time>2026-04-06T10:27:18.993Z</time></trkpt><trkpt lat="43.77928743546469" lon="10.92781194721323"><ele>43.142857142857146</ele><time>2026-04-06T10:27:23.993Z</time></trkpt><trkpt lat="43.77935489299425" lon="10.927861909310518"><ele>43.285714285714285</ele><time>2026-04-06T10:27:28.993Z</time></trkpt><trkpt lat="43.779424959594344" lon="10.927907336054284"><ele>43.42857142857143</ele><time>2026-04-06T10:27:33.993Z</time></trkpt><trkpt lat="43.77948678942433" lon="10.927927003747739"><ele>43.57142857142857</ele><time>2026-04-06T10:27:37.993Z</time></trkpt><trkpt lat="43.779559848118154" lon="10.927961396021724"><ele>43.714285714285715</ele><time>2026-04-06T10:27:42.992Z</time></trkpt><trkpt lat="43.77963070754923" lon="10.928004061662692"><ele>43.85714285714286</ele><time>2026-04-06T10:27:47.992Z</time></trkpt><trkpt lat="43.77969324300883" lon="10.92806088590522"><ele>44.0</ele><time>2026-04-06T10:27:52.992Z</time></trkpt><trkpt lat="43.77975983655169" lon="10.928109641037953"><ele>44.0</ele><time>2026-04-06T10:27:57.992Z</time></trkpt><trkpt lat="43.77981747384954" lon="10.928148026401137"><ele>44.0</ele><time>2026-04-06T10:28:01.992Z</time></trkpt><trkpt lat="43.779883407681474" lon="10.92819979103613"><ele>44.0</ele><time>2026-04-06T10:28:06.992Z</time></trkpt><trkpt lat="43.77994390967617" lon="10.928262265882754"><ele>44.0</ele><time>2026-04-06T10:28:11.992Z</time></trkpt><trkpt lat="43.7800052633755" lon="10.92831427828958"><ele>44.0</ele><time>2026-04-06T10:28:16.992Z</time></trkpt><trkpt lat="43.780069779774315" lon="10.928369381408068"><ele>44.0</ele><time>2026-04-06T10:28:21.992Z</time></trkpt><trkpt lat="43.78013787769498" lon="10.92841951016087"><ele>44.0</ele><time>2026-04-06T10:28:26.992Z</time></trkpt><trkpt lat="43.7801992411209" lon="10.92847132372897"><ele>44.142857142857146</ele><time>2026-04-06T10:28:31.992Z</time></trkpt><trkpt lat="43.78026260501327" lon="10.928528607603644"><ele>44.285714285714285</ele><time>2026-04-06T10:28:36.992Z</time></trkpt><trkpt lat="43.780326146174495" lon="10.928580621807944"><ele>44.42857142857143</ele><time>2026-04-06T10:28:41.992Z</time></trkpt><trkpt lat="43.78038869391406" lon="10.928645142750208"><ele>44.57142857142857</ele><time>2026-04-06T10:28:46.992Z</time></trkpt><trkpt lat="43.78045412472252" lon="10.928699285714226"><ele>44.714285714285715</ele><time>2026-04-06T10:28:51.992Z</time></trkpt><trkpt lat="43.780505989112626" lon="10.928752501965553"><ele>44.857142857142854</ele><time>2026-04-06T10:28:55.992Z</time></trkpt><trkpt lat="43.78056843129554" lon="10.928805220620156"><ele>45.0</ele><time>2026-04-06T10:29:00.992Z</time></trkpt><trkpt lat="43.780635522871016" lon="10.928859275151826"><ele>45.0</ele><time>2026-04-06T10:29:05.992Z</time></trkpt><trkpt lat="43.78070126268441" lon="10.928879471715765"><ele>45.0</ele><time>2026-04-06T10:29:09.992Z</time></trkpt><trkpt lat="43.78076914341371" lon="10.928875740987271"><ele>45.0</ele><time>2026-04-06T10:29:13.992Z</time></trkpt><trkpt lat="43.780824104415686" lon="10.928815648447625"><ele>45.0</ele><time>2026-04-06T10:29:17.992Z</time></trkpt><trkpt lat="43.780864512727796" lon="10.928743786880347"><ele>45.0</ele><time>2026-04-06T10:29:21.991Z</time></trkpt><trkpt lat="43.78091100409145" lon="10.928663249289999"><ele>45.0</ele><time>2026-04-06T10:29:26.991Z</time></trkpt><trkpt lat="43.78095992607693" lon="10.928592760802987"><ele>45.0</ele><time>2026-04-06T10:29:31.991Z</time></trkpt><trkpt lat="43.781027493829896" lon="10.928541111697822"><ele>45.14285714285714</ele><time>2026-04-06T10:29:36.991Z</time></trkpt><trkpt lat="43.78108815643159" lon="10.928507746923529"><ele>45.28571428571429</ele><time>2026-04-06T10:29:40.991Z</time></trkpt><trkpt lat="43.781162972069794" lon="10.928475803820561"><ele>45.42857142857143</ele><time>2026-04-06T10:29:45.991Z</time></trkpt><trkpt lat="43.78122487102934" lon="10.928446436776552"><ele>45.57142857142857</ele><time>2026-04-06T10:29:49.991Z</time></trkpt><trkpt lat="43.78128709226452" lon="10.928417148763058"><ele>45.71428571428571</ele><time>2026-04-06T10:29:53.991Z</time></trkpt><trkpt lat="43.781361331979866" lon="10.928385292805235"><ele>45.85714285714286</ele><time>2026-04-06T10:29:58.991Z</time></trkpt><trkpt lat="43.78142594375373" lon="10.92837553915985"><ele>46.0</ele><time>2026-04-06T10:30:02.991Z</time></trkpt><trkpt lat="43.78150109415265" lon="10.928345044724797"><ele>46.142857142857146</ele><time>2026-04-06T10:30:07.991Z</time></trkpt><trkpt lat="43.78157948959358" lon="10.928346197542542"><ele>46.285714285714285</ele><time>2026-04-06T10:30:12.991Z</time></trkpt><trkpt lat="43.78164891628499" lon="10.928309636936296"><ele>46.42857142857143</ele><time>2026-04-06T10:30:17.991Z</time></trkpt><trkpt lat="43.78166185822242" lon="10.928202430432082"><ele>46.57142857142857</ele><time>2026-04-06T10:30:21.991Z</time></trkpt><trkpt lat="43.781677566687286" lon="10.92811749171185"><ele>46.71428571428571</ele><time>2026-04-06T10:30:25.991Z</time></trkpt><trkpt lat="43.78170595016433" lon="10.928028256791006"><ele>46.857142857142854</ele><time>2026-04-06T10:30:30.991Z</time></trkpt><trkpt lat="43.78174835346015" lon="10.927962736104362"><ele>47.0</ele><time>2026-04-06T10:30:36.991Z</time></trkpt><trkpt lat="43.78180158499827" lon="10.927907107434436"><ele>47.0</ele><time>2026-04-06T10:30:42.991Z</time></trkpt><trkpt lat="43.78185965843321" lon="10.92785529615605"><ele>47.0</ele><time>2026-04-06T10:30:48.991Z</time></trkpt><trkpt lat="43.78191299160729" lon="10.927807509507627"><ele>47.0</ele><time>2026-04-06T10:30:53.991Z</time></trkpt><trkpt lat="43.7819678439258" lon="10.927741473075772"><ele>47.0</ele><time>2026-04-06T10:30:59.99Z</time></trkpt><trkpt lat="43.782022859177005" lon="10.927681439582654"><ele>47.0</ele><time>2026-04-06T10:31:05.99Z</time></trkpt><trkpt lat="43.78207283035141" lon="10.927625046509698"><ele>47.0</ele><time>2026-04-06T10:31:10.99Z</time></trkpt><trkpt lat="43.78212453551519" lon="10.927572402526923"><ele>47.0</ele><time>2026-04-06T10:31:15.99Z</time></trkpt><trkpt lat="43.78219254330552" lon="10.927524988899874"><ele>48.0</ele><time>2026-04-06T10:31:22.99Z</time></trkpt><trkpt lat="43.782246981660734" lon="10.927443872638905"><ele>49.0</ele><time>2026-04-06T10:31:28.99Z</time></trkpt><trkpt lat="43.78229491328056" lon="10.92737841870358"><ele>50.0</ele><time>2026-04-06T10:31:34.99Z</time></trkpt><trkpt lat="43.78234956996145" lon="10.927316149997068"><ele>51.0</ele><time>2026-04-06T10:31:40.99Z</time></trkpt><trkpt lat="43.78240281611713" lon="10.927264031928711"><ele>52.0</ele><time>2026-04-06T10:31:45.99Z</time></trkpt><trkpt lat="43.782469231488584" lon="10.927228986222051"><ele>53.0</ele><time>2026-04-06T10:31:51.99Z</time></trkpt><trkpt lat="43.782531595488514" lon="10.92717984699429"><ele>54.0</ele><time>2026-04-06T10:31:59.99Z</time></trkpt><trkpt lat="43.78261004256496" lon="10.92715677810172"><ele>54.0</ele><time>2026-04-06T10:32:05.99Z</time></trkpt><trkpt lat="43.78265969549533" lon="10.927079367961088"><ele>54.0</ele><time>2026-04-06T10:32:11.99Z</time></trkpt><trkpt lat="43.782696664997026" lon="10.92699750625446"><ele>54.0</ele><time>2026-04-06T10:32:16.99Z</time></trkpt><trkpt lat="43.782743258658975" lon="10.926919312810314"><ele>54.0</ele><time>2026-04-06T10:32:22.99Z</time></trkpt><trkpt lat="43.78278904386186" lon="10.926855404610208"><ele>54.0</ele><time>2026-04-06T10:32:28.99Z</time></trkpt><trkpt lat="43.78285048188493" lon="10.926827656638704"><ele>54.0</ele><time>2026-04-06T10:32:34.989Z</time></trkpt><trkpt lat="43.78291668015735" lon="10.926805585873153"><ele>54.0</ele><time>2026-04-06T10:32:40.989Z</time></trkpt><trkpt lat="43.78297347888463" lon="10.92675290450807"><ele>55.14285714285714</ele><time>2026-04-06T10:32:47.989Z</time></trkpt><trkpt lat="43.78303262255362" lon="10.926717561997553"><ele>56.285714285714285</ele><time>2026-04-06T10:32:51.989Z</time></trkpt><trkpt lat="43.78309659276651" lon="10.926670584662466"><ele>57.42857142857143</ele><time>2026-04-06T10:32:56.989Z</time></trkpt><trkpt lat="43.78314207216821" lon="10.926592425646916"><ele>58.57142857142857</ele><time>2026-04-06T10:33:01.989Z</time></trkpt><trkpt lat="43.78319385641341" lon="10.926516059535361"><ele>59.71428571428572</ele><time>2026-04-06T10:33:06.989Z</time></trkpt><trkpt lat="43.78324051696918" lon="10.926442668772886"><ele>60.85714285714286</ele><time>2026-04-06T10:33:11.989Z</time></trkpt><trkpt lat="43.78330685297964" lon="10.926377552038272"><ele>62.0</ele><time>2026-04-06T10:33:16.989Z</time></trkpt><trkpt lat="43.78336847782081" lon="10.926347154404967"><ele>62.0</ele><time>2026-04-06T10:33:19.989Z</time></trkpt><trkpt lat="43.7834224594172" lon="10.926293931327843"><ele>62.00000000000001</ele><time>2026-04-06T10:33:23.989Z</time></trkpt><trkpt lat="43.783471412710135" lon="10.926231616835755"><ele>62.0</ele><time>2026-04-06T10:33:28.989Z</time></trkpt><trkpt lat="43.78353214178427" lon="10.926175729656691"><ele>62.0</ele><time>2026-04-06T10:33:33.989Z</time></trkpt><trkpt lat="43.78359240124346" lon="10.926122992908201"><ele>62.00000000000001</ele><time>2026-04-06T10:33:38.989Z</time></trkpt><trkpt lat="43.78364553645756" lon="10.926062102376406"><ele>62.0</ele><time>2026-04-06T10:33:43.989Z</time></trkpt><trkpt lat="43.78371547348963" lon="10.926039832530478"><ele>62.0</ele><time>2026-04-06T10:33:48.989Z</time></trkpt><trkpt lat="43.78376475805182" lon="10.92596288520428"><ele>62.85714285714286</ele><time>2026-04-06T10:33:53.989Z</time></trkpt><trkpt lat="43.7837450754934" lon="10.925875557416978"><ele>63.71428571428572</ele><time>2026-04-06T10:33:57.989Z</time></trkpt><trkpt lat="43.78370660437792" lon="10.92580296302638"><ele>64.57142857142857</ele><time>2026-04-06T10:34:02.989Z</time></trkpt><trkpt lat="43.78365642914971" lon="10.925733819231278"><ele>65.42857142857143</ele><time>2026-04-06T10:34:07.988Z</time></trkpt><trkpt lat="43.78358366838587" lon="10.925716357072343"><ele>66.28571428571428</ele><time>2026-04-06T10:34:15.988Z</time></trkpt><trkpt lat="43.78351940257986" lon="10.925693636507143"><ele>67.14285714285714</ele><time>2026-04-06T10:34:21.988Z</time></trkpt><trkpt lat="43.78346636295367" lon="10.925642283407166"><ele>68.0</ele><time>2026-04-06T10:34:27.988Z</time></trkpt><trkpt lat="43.78346741532732" lon="10.92554660476945"><ele>67.99999999999999</ele><time>2026-04-06T10:34:33.988Z</time></trkpt><trkpt lat="43.78349723172748" lon="10.925459662097879"><ele>68.0</ele><time>2026-04-06T10:34:38.988Z</time></trkpt><trkpt lat="43.78352901018119" lon="10.925363400701906"><ele>68.0</ele><time>2026-04-06T10:34:43.988Z</time></trkpt><trkpt lat="43.783552810028795" lon="10.925281175858967"><ele>68.0</ele><time>2026-04-06T10:34:48.988Z</time></trkpt><trkpt lat="43.783597728262734" lon="10.925195388578164"><ele>68.0</ele><time>2026-04-06T10:34:54.988Z</time></trkpt><trkpt lat="43.783636038236054" lon="10.925124278190326"><ele>67.99999999999999</ele><time>2026-04-06T10:35:00.988Z</time></trkpt><trkpt lat="43.78366286553733" lon="10.925037072868003"><ele>68.0</ele><time>2026-04-06T10:35:06.988Z</time></trkpt><trkpt lat="43.78369137529388" lon="10.924954716343585"><ele>68.42857142857142</ele><time>2026-04-06T10:35:12.988Z</time></trkpt><trkpt lat="43.783707519453664" lon="10.924868514984896"><ele>68.85714285714286</ele><time>2026-04-06T10:35:16.988Z</time></trkpt><trkpt lat="43.78370538201583" lon="10.924749476512332"><ele>69.28571428571428</ele><time>2026-04-06T10:35:21.988Z</time></trkpt><trkpt lat="43.78366928942063" lon="10.924665812657834"><ele>69.71428571428571</ele><time>2026-04-06T10:35:25.988Z</time></trkpt><trkpt lat="43.7836509117226" lon="10.924573672344584"><ele>70.14285714285714</ele><time>2026-04-06T10:35:29.988Z</time></trkpt><trkpt lat="43.7836281475197" lon="10.924488150735618"><ele>70.57142857142857</ele><time>2026-04-06T10:35:33.988Z</time></trkpt><trkpt lat="43.783577283219685" lon="10.924409692849846"><ele>71.0</ele><time>2026-04-06T10:35:38.988Z</time></trkpt><trkpt lat="43.7835471590124" lon="10.924320645499343"><ele>71.42857142857143</ele><time>2026-04-06T10:35:43.987Z</time></trkpt><trkpt lat="43.78347966527149" lon="10.924307971022493"><ele>71.85714285714285</ele><time>2026-04-06T10:35:47.987Z</time></trkpt><trkpt lat="43.78341930846652" lon="10.924265258155454"><ele>72.28571428571428</ele><time>2026-04-06T10:35:51.987Z</time></trkpt><trkpt lat="43.78335201341335" lon="10.924217869822979"><ele>72.71428571428571</ele><time>2026-04-06T10:35:56.987Z</time></trkpt><trkpt lat="43.78329113509662" lon="10.924193958615067"><ele>73.14285714285714</ele><time>2026-04-06T10:36:01.987Z</time></trkpt><trkpt lat="43.783223557483666" lon="10.924193904507753"><ele>73.57142857142857</ele><time>2026-04-06T10:36:07.987Z</time></trkpt><trkpt lat="43.78315532420156" lon="10.924196413478306"><ele>74.0</ele><time>2026-04-06T10:36:12.987Z</time></trkpt><trkpt lat="43.78308995434829" lon="10.924156842044257"><ele>74.0</ele><time>2026-04-06T10:36:19.998Z</time></trkpt><trkpt lat="43.783067663674004" lon="10.924063719899085"><ele>74.0</ele><time>2026-04-06T10:36:26.998Z</time></trkpt><trkpt lat="43.78300890538668" lon="10.924019034069195"><ele>74.0</ele><time>2026-04-06T10:36:31.997Z</time></trkpt><trkpt lat="43.782990171054976" lon="10.92389693854793"><ele>74.0</ele><time>2026-04-06T10:36:36.997Z</time></trkpt><trkpt lat="43.782994593739375" lon="10.923806421967143"><ele>74.0</ele><time>2026-04-06T10:36:40.997Z</time></trkpt><trkpt lat="43.783022144103754" lon="10.92372683679099"><ele>74.0</ele><time>2026-04-06T10:36:43.997Z</time></trkpt><trkpt lat="43.783043581304156" lon="10.923622873834832"><ele>74.0</ele><time>2026-04-06T10:36:47.997Z</time></trkpt><trkpt lat="43.78303807009119" lon="10.9235225703446"><ele>74.0</ele><time>2026-04-06T10:36:51.997Z</time></trkpt><trkpt lat="43.782980530098385" lon="10.923480613049598"><ele>74.0</ele><time>2026-04-06T10:36:54.997Z</time></trkpt><trkpt lat="43.78290772087633" lon="10.923457590069397"><ele>74.0</ele><time>2026-04-06T10:36:58.997Z</time></trkpt><trkpt lat="43.78283131082308" lon="10.923422298936886"><ele>74.0</ele><time>2026-04-06T10:37:02.997Z</time></trkpt><trkpt lat="43.782758392347546" lon="10.923392587070865"><ele>74.0</ele><time>2026-04-06T10:37:06.998Z</time></trkpt><trkpt lat="43.782683920075925" lon="10.923370513137971"><ele>74.0</ele><time>2026-04-06T10:37:11.998Z</time></trkpt><trkpt lat="43.78262030470307" lon="10.923366288454"><ele>74.0</ele><time>2026-04-06T10:37:15.998Z</time></trkpt><trkpt lat="43.78255736233554" lon="10.923359333827005"><ele>73.57142857142857</ele><time>2026-04-06T10:37:19.998Z</time></trkpt><trkpt lat="43.78248813051758" lon="10.923351121709162"><ele>73.14285714285714</ele><time>2026-04-06T10:37:24.998Z</time></trkpt><trkpt lat="43.78243636524829" lon="10.923288334270943"><ele>72.71428571428571</ele><time>2026-04-06T10:37:29.998Z</time></trkpt><trkpt lat="43.78237294726011" lon="10.923297347995971"><ele>72.28571428571428</ele><time>2026-04-06T10:37:34.998Z</time></trkpt><trkpt lat="43.78231554729451" lon="10.923256628652007"><ele>71.85714285714285</ele><time>2026-04-06T10:37:40.998Z</time></trkpt><trkpt lat="43.78232098073741" lon="10.923163131156059"><ele>71.42857142857143</ele><time>2026-04-06T10:37:44.998Z</time></trkpt><trkpt lat="43.78230924975846" lon="10.923055769807982"><ele>71.0</ele><time>2026-04-06T10:37:49.998Z</time></trkpt><trkpt lat="43.78230383883751" lon="10.922949077196463"><ele>71.0</ele><time>2026-04-06T10:37:54.998Z</time></trkpt><trkpt lat="43.78231479258812" lon="10.922862310761946"><ele>71.0</ele><time>2026-04-06T10:37:58.998Z</time></trkpt><trkpt lat="43.78233352949887" lon="10.922757338182052"><ele>71.0</ele><time>2026-04-06T10:38:03.998Z</time></trkpt><trkpt lat="43.78235438850829" lon="10.92267301742142"><ele>71.0</ele><time>2026-04-06T10:38:07.998Z</time></trkpt><trkpt lat="43.782360772270266" lon="10.922565502127254"><ele>71.0</ele><time>2026-04-06T10:38:12.998Z</time></trkpt><trkpt lat="43.78237403949806" lon="10.922467390505378"><ele>71.0</ele><time>2026-04-06T10:38:17.998Z</time></trkpt><trkpt lat="43.78238184589973" lon="10.922378947704626"><ele>71.0</ele><time>2026-04-06T10:38:21.998Z</time></trkpt><trkpt lat="43.782394724576335" lon="10.922274958053558"><ele>66.0</ele><time>2026-04-06T10:38:26.998Z</time></trkpt><trkpt lat="43.78240610352233" lon="10.92217060582255"><ele>66.0</ele><time>2026-04-06T10:38:31.998Z</time></trkpt><trkpt lat="43.782398521986835" lon="10.92206122106824"><ele>66.0</ele><time>2026-04-06T10:38:36.997Z</time></trkpt><trkpt lat="43.78239364525196" lon="10.921971335183784"><ele>66.0</ele><time>2026-04-06T10:38:40.997Z</time></trkpt><trkpt lat="43.78243419326794" lon="10.921889265870307"><ele>66.0</ele><time>2026-04-06T10:38:45.997Z</time></trkpt><trkpt lat="43.7825030035507" lon="10.92192463698075"><ele>66.0</ele><time>2026-04-06T10:38:49.997Z</time></trkpt></trkseg></trk></gpx>